Darstellungsparameter: Aktuell verwendete Einstellungen:
Skalierung der Graphiken ... ?
xyx+y,   Skalierungsfaktor:      Skalierung: Modus: x, Faktor: 1
Darstellungszeitraum ... ?
Vom - - bis: - -   Zeitraum: 25.04.2010 - 24.04.2020
Min/Max/Avg-Anzeige ... ?
Zeige MMA aktuell
Zeige MMA Monat
Zeige MMA alles
Zeige --A aktuell
Zeige --A Monat
Zeige --A alles
Keine MMA-Anzeige
MMA:
Keine MMA-Graphiken
MMA-Basis: 25.04.2010 - 24.04.2020
Quicknavigation für Darstellung... ?
Tage:      1T, 2T, 3T, 5T -1T -2T -3T -5T +1T +2T +3T +5T
Wochen: 1W, 2W, 3W -1W -2W -3W +1W +2W +3W
Monate: 1M, 3M, 6M -1M -3M -6M +1M +3M +6M
Jahre:    1J, 3J, 5J, 10J -1J -3J -5J -10J +1J +3J +5J +10J
Nutze für die Darstellung ... ?
Originaldaten oder ...
Mittelwerte Minima Maxima auf...
Stundenbasis Tagesbasis Wochenbasis
Monatsbasis Jahresbasis      Datenbasis: Mittelwerte auf Stundenbasis
Darstellen als:
Statistik (Auto) Statistik J:M      Darstellung:
Zur Graphik,    zurück zur Übersicht aller Sensoren.
 
Tabellarische Datenbersicht: ?
 
Sensor: Nr:Datum:Temp:Feuchte:Taupunkt:
Aussen-T/F 1 25-04-2010 00:00:00 12.58 C 36.2000 % -2 C
2 25-04-2010 01:00:00 11.2 C 42.0000 % -1.22 C
3 25-04-2010 02:00:00 10.12 C 45.0000 % -1.26 C
4 25-04-2010 03:00:00 8.92 C 49.0000 % -1.2 C
5 25-04-2010 04:00:00 7.82 C 55.4000 % -0.54 C
6 25-04-2010 05:00:00 7.04 C 58.0000 % -0.65 C
7 25-04-2010 06:00:00 6.26 C 62.4000 % -0.38 C
8 25-04-2010 07:00:00 6.46 C 64.0000 % 0.16 C
9 25-04-2010 08:00:00 7.72 C 60.8000 % 0.64 C
10 25-04-2010 09:00:00 10.5 C 52.0000 % 1.07 C
11 25-04-2010 10:00:00 15.68 C 40.0000 % 2.14 C
12 25-04-2010 11:00:00 20.46 C 23.6000 % -1 C
13 25-04-2010 12:00:00 22.8 C 20.0000 % -1.31 C
14 25-04-2010 13:00:00 24.92 C 20.0000 % 0.44 C
15 25-04-2010 14:00:00 26.54 C 20.0000 % 1.77 C
16 25-04-2010 15:00:00 28.24 C 20.0000 % 3.16 C
17 25-04-2010 16:00:00 29.24 C 20.0000 % 3.98 C
18 25-04-2010 17:00:00 27 C 20.0000 % 2.15 C
19 25-04-2010 18:00:00 25.96 C 20.0000 % 1.29 C
20 25-04-2010 19:00:00 23.9 C 20.0000 % -0.4 C
21 25-04-2010 20:00:00 21.12 C 22.0000 % -1.4 C
22 25-04-2010 21:00:00 19.36 C 27.0000 % -0.09 C
23 25-04-2010 22:00:00 18.56 C 31.0000 % 1.13 C
24 25-04-2010 23:00:00 18.18 C 37.2000 % 3.34 C
25 26-04-2010 00:00:00 17.1 C 41.0000 % 3.76 C
Sensor: Nr:Datum:Temp:Feuchte:Taupunkt:
Aussen-T/F 26 26-04-2010 01:00:00 16.22 C 43.4000 % 3.77 C
27 26-04-2010 02:00:00 13.22 C 75.2000 % 8.93 C
28 26-04-2010 03:00:00 12.64 C 81.4000 % 9.54 C
29 26-04-2010 04:00:00 12.26 C 79.0000 % 8.73 C
30 26-04-2010 05:00:00 11.54 C 81.2000 % 8.43 C
31 26-04-2010 06:00:00 10.86 C 83.2000 % 8.13 C
32 26-04-2010 07:00:00 10.94 C 82.6000 % 8.1 C
33 26-04-2010 08:00:00 11.96 C 77.8000 % 8.21 C
34 26-04-2010 09:00:00 12.96 C 63.4000 % 6.18 C
35 26-04-2010 10:00:00 14.62 C 55.8000 % 5.9 C
36 26-04-2010 11:00:00 15.92 C 48.8000 % 5.17 C
37 26-04-2010 12:00:00 17.54 C 43.4000 % 4.96 C
38 26-04-2010 13:00:00 19 C 38.8000 % 4.67 C
39 26-04-2010 14:00:00 19.46 C 37.4000 % 4.56 C
40 26-04-2010 15:00:00 19.18 C 35.4000 % 3.53 C
41 26-04-2010 16:00:00 19.68 C 31.8000 % 2.45 C
42 26-04-2010 17:00:00 20.88 C 28.6000 % 2.01 C
43 26-04-2010 18:00:00 19.38 C 33.0000 % 2.71 C
44 26-04-2010 19:00:00 18.64 C 34.6000 % 2.73 C
45 26-04-2010 20:00:00 17.38 C 37.6000 % 2.79 C
46 26-04-2010 21:00:00 15.86 C 41.0000 % 2.64 C
47 26-04-2010 22:00:00 15.4 C 43.5000 % 3.06 C
48 26-04-2010 23:00:00 14.64 C 47.2000 % 3.52 C
49 27-04-2010 00:00:00 13.7 C 51.6000 % 3.92 C
50 27-04-2010 01:00:00 13.3 C 54.0000 % 4.2 C
Sensor: Nr:Datum:Temp:Feuchte:Taupunkt:
Aussen-T/F 51 27-04-2010 02:00:00 12.6 C 58.2000 % 4.61 C
52 27-04-2010 03:00:00 11.26 C 64.2000 % 4.75 C
53 27-04-2010 04:00:00 10.32 C 68.2000 % 4.72 C
54 27-04-2010 05:00:00 9.18 C 73.6000 % 4.72 C
55 27-04-2010 06:00:00 8.32 C 78.4000 % 4.79 C
56 27-04-2010 07:00:00 8.2 C 81.0000 % 5.14 C
57 27-04-2010 08:00:00 9.12 C 77.8000 % 5.46 C
58 27-04-2010 09:00:00 11.2 C 70.6000 % 6.06 C
59 27-04-2010 10:00:00 13.8 C 57.4000 % 5.54 C
60 27-04-2010 11:00:00 16.06 C 47.8000 % 5 C
61 27-04-2010 12:00:00 18.52 C 39.4000 % 4.46 C
62 27-04-2010 13:00:00 20.34 C 31.4000 % 2.85 C
63 27-04-2010 14:00:00 21.42 C 26.2000 % 1.25 C
64 27-04-2010 15:00:00 22.62 C 23.0000 % 0.46 C
65 27-04-2010 16:00:00 23.2 C 20.6000 % -0.57 C
66 27-04-2010 17:00:00 23.56 C 20.2000 % -0.55 C
67 27-04-2010 18:00:00 23.22 C 20.0000 % -0.96 C
68 27-04-2010 19:00:00 20.68 C 23.4000 % -0.93 C
69 27-04-2010 20:00:00 18.34 C 32.2000 % 1.46 C
70 27-04-2010 21:00:00 15.6 C 37.8000 % 1.28 C
71 27-04-2010 22:00:00 14.44 C 41.8000 % 1.64 C
72 27-04-2010 23:00:00 13.1 C 47.0000 % 2.06 C
73 28-04-2010 00:00:00 12.18 C 51.2000 % 2.41 C
74 28-04-2010 01:00:00 11.18 C 56.6000 % 2.89 C
75 28-04-2010 02:00:00 10.48 C 59.6000 % 2.96 C
Sensor: Nr:Datum:Temp:Feuchte:Taupunkt:
Aussen-T/F 76 28-04-2010 03:00:00 9.64 C 63.2000 % 3 C
77 28-04-2010 04:00:00 8.7 C 68.6000 % 3.26 C
78 28-04-2010 05:00:00 7.86 C 71.8000 % 3.1 C
79 28-04-2010 06:00:00 7.24 C 73.8000 % 2.89 C
80 28-04-2010 07:00:00 7.44 C 75.4000 % 3.38 C
81 28-04-2010 08:00:00 8.3 C 72.8000 % 3.71 C
82 28-04-2010 09:00:00 10.46 C 65.6000 % 4.3 C
83 28-04-2010 10:00:00 13.96 C 53.0000 % 4.55 C
84 28-04-2010 11:00:00 17.76 C 39.0000 % 3.64 C
85 28-04-2010 12:00:00 20.1 C 26.6000 % 0.33 C
86 28-04-2010 13:00:00 22.86 C 20.4000 % -0.99 C
87 28-04-2010 14:00:00 24.56 C 20.0000 % 0.14 C
88 28-04-2010 15:00:00 26.02 C 20.0000 % 1.34 C
89 28-04-2010 16:00:00 27.78 C 20.0000 % 2.79 C
90 28-04-2010 17:00:00 28.5 C 20.0000 % 3.38 C
91 28-04-2010 18:00:00 28.24 C 20.0000 % 3.16 C
92 28-04-2010 19:00:00 25.82 C 20.6000 % 1.59 C
93 28-04-2010 20:00:00 22.14 C 28.0000 % 2.79 C
94 28-04-2010 21:00:00 19.04 C 34.2000 % 2.92 C
95 28-04-2010 22:00:00 18.2 C 36.2000 % 2.98 C
96 28-04-2010 23:00:00 16.96 C 39.8000 % 3.21 C
97 29-04-2010 00:00:00 15.44 C 44.6000 % 3.45 C
98 29-04-2010 01:00:00 14.02 C 47.8000 % 3.14 C
99 29-04-2010 02:00:00 12.9 C 53.6000 % 3.72 C
100 29-04-2010 03:00:00 11.9 C 59.6000 % 4.3 C
Sensor: Nr:Datum:Temp:Feuchte:Taupunkt:
Aussen-T/F 101 29-04-2010 04:00:00 11.22 C 63.6000 % 4.58 C
102 29-04-2010 05:00:00 10.44 C 65.4000 % 4.24 C
103 29-04-2010 06:00:00 9.86 C 68.8000 % 4.41 C
104 29-04-2010 07:00:00 10.22 C 69.0000 % 4.79 C
105 29-04-2010 08:00:00 12.2 C 62.8000 % 5.33 C
106 29-04-2010 09:00:00 14.1 C 53.6000 % 4.84 C
107 29-04-2010 10:00:00 17.86 C 43.2000 % 5.19 C
108 29-04-2010 11:00:00 21.56 C 34.4000 % 5.21 C
109 29-04-2010 12:00:00 23.88 C 26.8000 % 3.66 C
110 29-04-2010 13:00:00 25.86 C 20.0000 % 1.21 C
111 29-04-2010 14:00:00 27.02 C 20.0000 % 2.16 C
112 29-04-2010 15:00:00 27.66 C 20.0000 % 2.69 C
113 29-04-2010 16:00:00 27.8 C 20.0000 % 2.8 C
114 29-04-2010 17:00:00 27.86 C 20.0000 % 2.85 C
115 29-04-2010 18:00:00 27.56 C 20.0000 % 2.61 C
116 29-04-2010 19:00:00 25.68 C 20.4000 % 1.34 C
117 29-04-2010 20:00:00 23.52 C 26.2000 % 3.03 C
118 29-04-2010 21:00:00 21.78 C 33.0000 % 4.81 C
119 29-04-2010 22:00:00 21 C 37.0000 % 5.77 C
120 29-04-2010 23:00:00 19.8 C 42.0000 % 6.53 C
121 30-04-2010 00:00:00 19.8 C 40.8000 % 6.11 C
122 30-04-2010 01:00:00 20.74 C 37.4000 % 5.69 C
123 30-04-2010 02:00:00 20.76 C 37.6000 % 5.79 C
124 30-04-2010 03:00:00 20.04 C 42.8000 % 7.02 C
125 30-04-2010 04:00:00 19.38 C 48.8000 % 8.34 C
Sensor: Nr:Datum:Temp:Feuchte:Taupunkt:
Aussen-T/F 126 30-04-2010 05:00:00 18.24 C 54.6000 % 8.95 C
127 30-04-2010 06:00:00 17.36 C 58.8000 % 9.22 C
128 30-04-2010 07:00:00 17.44 C 59.2000 % 9.4 C
129 30-04-2010 08:00:00 18.26 C 51.4000 % 8.08 C
130 30-04-2010 09:00:00 18.38 C 46.2000 % 6.63 C
131 30-04-2010 10:00:00 18.56 C 39.6000 % 4.57 C
132 30-04-2010 11:00:00 19.22 C 36.0000 % 3.8 C
133 30-04-2010 12:00:00 20.22 C 34.0000 % 3.87 C
134 30-04-2010 13:00:00 20.82 C 31.0000 % 3.09 C
135 30-04-2010 14:00:00 20.88 C 32.2000 % 3.68 C
136 30-04-2010 15:00:00 20.64 C 34.0000 % 4.24 C
137 30-04-2010 16:00:00 19.58 C 35.2000 % 3.8 C
138 30-04-2010 17:00:00 19.68 C 35.8000 % 4.13 C
139 30-04-2010 18:00:00 19.28 C 36.8000 % 4.17 C
140 30-04-2010 19:00:00 18.42 C 39.8000 % 4.52 C
141 30-04-2010 20:00:00 17.38 C 46.4000 % 5.78 C
142 30-04-2010 21:00:00 15.08 C 66.8000 % 8.96 C
143 30-04-2010 22:00:00 15.02 C 63.4000 % 8.13 C
144 30-04-2010 23:00:00 13.52 C 57.8000 % 5.38 C
145 01-05-2010 00:00:00 13.32 C 57.0000 % 4.99 C
146 01-05-2010 01:00:00 13.2 C 59.8000 % 5.57 C
147 01-05-2010 02:00:00 12.88 C 60.8000 % 5.5 C
148 01-05-2010 03:00:00 12.62 C 60.0000 % 5.07 C
149 01-05-2010 04:00:00 12.46 C 64.8000 % 6.03 C
150 01-05-2010 05:00:00 12.26 C 68.8000 % 6.7 C
Sensor: Nr:Datum:Temp:Feuchte:Taupunkt:
Aussen-T/F 151 01-05-2010 06:00:00 11.5 C 80.4000 % 8.25 C
152 01-05-2010 07:00:00 11.66 C 81.6000 % 8.62 C
153 01-05-2010 08:00:00 13.06 C 72.6000 % 8.26 C
154 01-05-2010 09:00:00 14.14 C 65.8000 % 7.84 C
155 01-05-2010 10:00:00 14.62 C 60.2000 % 7 C
156 01-05-2010 11:00:00 16.46 C 47.0000 % 5.13 C
157 01-05-2010 12:00:00 17.48 C 38.4000 % 3.17 C
158 01-05-2010 13:00:00 19.2 C 31.2000 % 1.77 C
159 01-05-2010 14:00:00 19.82 C 28.6000 % 1.1 C
160 01-05-2010 15:00:00 19.08 C 30.0000 % 1.12 C
161 01-05-2010 16:00:00 17.58 C 36.8000 % 2.66 C
162 01-05-2010 17:00:00 17.68 C 38.0000 % 3.2 C
163 01-05-2010 18:00:00 17.46 C 40.0000 % 3.73 C
164 01-05-2010 19:00:00 16.76 C 41.6000 % 3.66 C
165 01-05-2010 20:00:00 15.84 C 45.6000 % 4.13 C
166 01-05-2010 21:00:00 14.98 C 50.2000 % 4.71 C
167 01-05-2010 22:00:00 14.22 C 49.4000 % 3.78 C
168 01-05-2010 23:00:00 14.1 C 52.2000 % 4.46 C
169 02-05-2010 00:00:00 12.96 C 62.8000 % 6.05 C
170 02-05-2010 01:00:00 12.54 C 65.8000 % 6.32 C
171 02-05-2010 02:00:00 12.3 C 66.8000 % 6.31 C
172 02-05-2010 03:00:00 11.84 C 68.6000 % 6.26 C
173 02-05-2010 04:00:00 11.56 C 70.0000 % 6.28 C
174 02-05-2010 05:00:00 11.06 C 70.6000 % 5.93 C
175 02-05-2010 06:00:00 10.94 C 72.4000 % 6.18 C
Sensor: Nr:Datum:Temp:Feuchte:Taupunkt:
Aussen-T/F 176 02-05-2010 07:00:00 11.28 C 72.8000 % 6.58 C
177 02-05-2010 08:00:00 11.38 C 76.0000 % 7.31 C
178 02-05-2010 09:00:00 12.2 C 75.0000 % 7.91 C
179 02-05-2010 10:00:00 14.22 C 65.6000 % 7.88 C
180 02-05-2010 11:00:00 17.26 C 50.2000 % 6.81 C
181 02-05-2010 12:00:00 12.9 C 67.6000 % 7.06 C
182 02-05-2010 13:00:00 11.9 C 82.4000 % 9 C
183 02-05-2010 14:00:00 14.86 C 70.0000 % 9.44 C
184 02-05-2010 15:00:00 17.16 C 50.2000 % 6.72 C
185 02-05-2010 16:00:00 17.4 C 45.8000 % 5.61 C
186 02-05-2010 17:00:00 14.92 C 67.4000 % 8.94 C
187 02-05-2010 18:00:00 17.18 C 48.2000 % 6.15 C
188 02-05-2010 19:00:00 17.46 C 45.4000 % 5.54 C
189 02-05-2010 20:00:00 15.94 C 53.6000 % 6.54 C
190 02-05-2010 21:00:00 12.62 C 69.4000 % 7.17 C
191 02-05-2010 22:00:00 11.38 C 75.2000 % 7.15 C
192 02-05-2010 23:00:00 10.4 C 77.4000 % 6.62 C
193 03-05-2010 00:00:00 9.76 C 78.6000 % 6.22 C
194 03-05-2010 01:00:00 8.96 C 80.8000 % 5.85 C
195 03-05-2010 02:00:00 8.12 C 82.0000 % 5.24 C
196 03-05-2010 03:00:00 8.1 C 84.4000 % 5.63 C
197 03-05-2010 04:00:00 8.42 C 84.6000 % 5.98 C
198 03-05-2010 05:00:00 8.6 C 83.0000 % 5.88 C
199 03-05-2010 06:00:00 8.6 C 83.0000 % 5.88 C
200 03-05-2010 07:00:00 8.4 C 83.8000 % 5.82 C
Sensor: Nr:Datum:Temp:Feuchte:Taupunkt:
Aussen-T/F 201 03-05-2010 08:00:00 9.72 C 75.4000 % 5.59 C
202 03-05-2010 09:00:00 10.56 C 69.2000 % 5.16 C
203 03-05-2010 10:00:00 11 C 67.6000 % 5.25 C
204 03-05-2010 11:00:00 12.94 C 59.4000 % 5.23 C
205 03-05-2010 12:00:00 14.74 C 51.2000 % 4.77 C
206 03-05-2010 13:00:00 14.56 C 51.6000 % 4.72 C
207 03-05-2010 14:00:00 9.56 C 74.6000 % 5.28 C
208 03-05-2010 15:00:00 9.74 C 86.4000 % 7.58 C
209 03-05-2010 16:00:00 10.58 C 76.4000 % 6.61 C
210 03-05-2010 17:00:00 10.82 C 73.4000 % 6.26 C
211 03-05-2010 18:00:00 10.96 C 68.8000 % 5.46 C
212 03-05-2010 19:00:00 10.5 C 67.4000 % 4.73 C
213 03-05-2010 20:00:00 9.74 C 65.6000 % 3.62 C
214 03-05-2010 21:00:00 9.08 C 70.6000 % 4.03 C
215 03-05-2010 22:00:00 8.58 C 75.6000 % 4.52 C
216 03-05-2010 23:00:00 8.36 C 76.8000 % 4.53 C
217 04-05-2010 00:00:00 7.58 C 79.6000 % 4.29 C
218 04-05-2010 01:00:00 8.2 C 77.6000 % 4.53 C
219 04-05-2010 02:00:00 8.38 C 77.2000 % 4.63 C
220 04-05-2010 03:00:00 8.28 C 78.6000 % 4.79 C
221 04-05-2010 04:00:00 7.92 C 82.2000 % 5.08 C
222 04-05-2010 05:00:00 8.14 C 82.0000 % 5.26 C
223 04-05-2010 06:00:00 8.24 C 82.0000 % 5.35 C
224 04-05-2010 07:00:00 8.66 C 80.4000 % 5.48 C
225 04-05-2010 08:00:00 9.02 C 72.8000 % 4.41 C
Sensor: Nr:Datum:Temp:Feuchte:Taupunkt:
Aussen-T/F 226 04-05-2010 09:00:00 9.28 C 69.6000 % 4.02 C
227 04-05-2010 10:00:00 9.82 C 62.6000 % 3.03 C
228 04-05-2010 11:00:00 10.76 C 52.8000 % 1.53 C
229 04-05-2010 12:00:00 11.1 C 48.0000 % 0.52 C
230 04-05-2010 13:00:00 11.98 C 43.0000 % -0.19 C
231 04-05-2010 14:00:00 12.92 C 40.8000 % -0.07 C
232 04-05-2010 15:00:00 13.44 C 38.6000 % -0.36 C
233 04-05-2010 16:00:00 12.46 C 40.4000 % -0.61 C
234 04-05-2010 17:00:00 11.54 C 41.8000 % -0.98 C
235 04-05-2010 18:00:00 11.24 C 41.4000 % -1.38 C
236 04-05-2010 19:00:00 11.28 C 40.6000 % -1.61 C
237 04-05-2010 20:00:00 10.12 C 46.0000 % -0.96 C
238 04-05-2010 21:00:00 9.42 C 49.6000 % -0.57 C
239 04-05-2010 22:00:00 7.86 C 51.8000 % -1.42 C
240 04-05-2010 23:00:00 7.28 C 51.4000 % -2.06 C
241 05-05-2010 00:00:00 6.32 C 56.8000 % -1.61 C
242 05-05-2010 01:00:00 5.48 C 62.0000 % -1.21 C
243 05-05-2010 02:00:00 5.54 C 59.2000 % -1.78 C
244 05-05-2010 03:00:00 4.74 C 62.0000 % -1.91 C
245 05-05-2010 04:00:00 3.9 C 64.0000 % -2.27 C
246 05-05-2010 05:00:00 3.48 C 63.6000 % -2.76 C
247 05-05-2010 06:00:00 2.68 C 68.6000 % -2.5 C
248 05-05-2010 07:00:00 2.88 C 72.4000 % -1.58 C
249 05-05-2010 08:00:00 4.6 C 63.8000 % -1.65 C
250 05-05-2010 09:00:00 7.04 C 49.6000 % -2.77 C
Sensor: Nr:Datum:Temp:Feuchte:Taupunkt:
Aussen-T/F 251 05-05-2010 10:00:00 9.16 C 37.2000 % -4.67 C
252 05-05-2010 11:00:00 11.34 C 27.0000 % -6.96 C
253 05-05-2010 12:00:00 13.72 C 20.0000 % -8.81 C
254 05-05-2010 13:00:00 16.54 C 20.0000 % -6.47 C
255 05-05-2010 14:00:00 17.06 C 20.0000 % -6.04 C
256 05-05-2010 15:00:00 18.1 C 20.0000 % -5.18 C
257 05-05-2010 16:00:00 17.76 C 20.0000 % -5.46 C
258 05-05-2010 17:00:00 15.68 C 20.0000 % -7.18 C
259 05-05-2010 18:00:00 14.2 C 20.0000 % -8.41 C
260 05-05-2010 19:00:00 13.44 C 20.2000 % -8.91 C
261 05-05-2010 20:00:00 12.8 C 25.0000 % -6.71 C
262 05-05-2010 21:00:00 12.34 C 26.4000 % -6.39 C
263 05-05-2010 22:00:00 11.88 C 30.6000 % -4.86 C
264 05-05-2010 23:00:00 11.5 C 32.0000 % -4.6 C
265 06-05-2010 00:00:00 10.84 C 38.6000 % -2.68 C
266 06-05-2010 01:00:00 7.6 C 71.2000 % 2.73 C
267 06-05-2010 02:00:00 6.74 C 85.4000 % 4.47 C
268 06-05-2010 03:00:00 6.74 C 90.6000 % 5.31 C
269 06-05-2010 04:00:00 6.88 C 92.0000 % 5.67 C
270 06-05-2010 05:00:00 6.66 C 93.0000 % 5.61 C
271 06-05-2010 06:00:00 6.52 C 93.2000 % 5.5 C
272 06-05-2010 07:00:00 6.38 C 94.0000 % 5.49 C
273 06-05-2010 08:00:00 6.22 C 94.0000 % 5.33 C
274 06-05-2010 09:00:00 6.56 C 93.8000 % 5.63 C
275 06-05-2010 10:00:00 6.84 C 93.4000 % 5.85 C
Sensor: Nr:Datum:Temp:Feuchte:Taupunkt:
Aussen-T/F 276 06-05-2010 11:00:00 7.04 C 92.2000 % 5.86 C
277 06-05-2010 12:00:00 7.06 C 91.2000 % 5.73 C
278 06-05-2010 13:00:00 7.42 C 90.4000 % 5.95 C
279 06-05-2010 14:00:00 7.4 C 92.2000 % 6.22 C
280 06-05-2010 15:00:00 7.1 C 93.0000 % 6.05 C
281 06-05-2010 16:00:00 6.54 C 93.2000 % 5.52 C
282 06-05-2010 17:00:00 6.46 C 92.0000 % 5.26 C
283 06-05-2010 18:00:00 5.9 C 91.4000 % 4.61 C
284 06-05-2010 19:00:00 5.82 C 92.0000 % 4.62 C
285 06-05-2010 20:00:00 5.5 C 93.6000 % 4.55 C
286 06-05-2010 21:00:00 5.38 C 94.0000 % 4.49 C
287 06-05-2010 22:00:00 5.4 C 95.0000 % 4.66 C
288 06-05-2010 23:00:00 5.36 C 95.0000 % 4.63 C
289 07-05-2010 00:00:00 5.4 C 95.0000 % 4.66 C
290 07-05-2010 01:00:00 5.4 C 95.0000 % 4.66 C
291 07-05-2010 02:00:00 5.4 C 95.0000 % 4.66 C
292 07-05-2010 03:00:00 5.32 C 95.0000 % 4.59 C
293 07-05-2010 04:00:00 5.18 C 95.0000 % 4.45 C
294 07-05-2010 05:00:00 4.88 C 95.0000 % 4.15 C
295 07-05-2010 06:00:00 4.6 C 95.0000 % 3.87 C
296 07-05-2010 07:00:00 4.68 C 95.0000 % 3.95 C
297 07-05-2010 08:00:00 4.82 C 94.6000 % 4.03 C
298 07-05-2010 09:00:00 4.86 C 91.6000 % 3.61 C
299 07-05-2010 10:00:00 5.52 C 87.8000 % 3.66 C
300 07-05-2010 11:00:00 7.02 C 85.8000 % 4.81 C
Sensor: Nr:Datum:Temp:Feuchte:Taupunkt:
Aussen-T/F 301 07-05-2010 12:00:00 7.14 C 81.2000 % 4.14 C
302 07-05-2010 13:00:00 7.8 C 79.8000 % 4.54 C
303 07-05-2010 14:00:00 8.42 C 80.2000 % 5.21 C
304 07-05-2010 15:00:00 8.2 C 81.4000 % 5.21 C
305 07-05-2010 16:00:00 9.16 C 77.8000 % 5.49 C
306 07-05-2010 17:00:00 9.42 C 78.2000 % 5.82 C
307 07-05-2010 18:00:00 9.14 C 79.0000 % 5.7 C
308 07-05-2010 19:00:00 7.9 C 86.0000 % 5.71 C
309 07-05-2010 20:00:00 7.16 C 90.2000 % 5.67 C
310 07-05-2010 21:00:00 6.68 C 92.6000 % 5.57 C
311 07-05-2010 22:00:00 5.8 C 93.2000 % 4.79 C
312 07-05-2010 23:00:00 5.96 C 94.2000 % 5.1 C
313 08-05-2010 00:00:00 5.9 C 94.0000 % 5.01 C
314 08-05-2010 01:00:00 4.96 C 94.2000 % 4.11 C
315 08-05-2010 02:00:00 4.5 C 94.7500 % 3.73 C
316 08-05-2010 03:00:00 4.6 C 95.0000 % 3.87 C
317 08-05-2010 04:00:00 4.34 C 95.0000 % 3.61 C
318 08-05-2010 05:00:00 4.34 C 95.0000 % 3.61 C
319 08-05-2010 06:00:00 4.66 C 95.0000 % 3.93 C
320 08-05-2010 07:00:00 5.22 C 95.0000 % 4.49 C
321 08-05-2010 08:00:00 6.08 C 90.8000 % 4.69 C
322 08-05-2010 09:00:00 8.26 C 82.8000 % 5.51 C
323 08-05-2010 10:00:00 9.66 C 74.2000 % 5.3 C
324 08-05-2010 11:00:00 13.06 C 59.4000 % 5.34 C
325 08-05-2010 12:00:00 15.24 C 39.0000 % 1.39 C
Sensor: Nr:Datum:Temp:Feuchte:Taupunkt:
Aussen-T/F 326 08-05-2010 13:00:00 16.84 C 36.4000 % 1.85 C
327 08-05-2010 14:00:00 15.62 C 31.8000 % -1.08 C
328 08-05-2010 15:00:00 15.92 C 32.2000 % -0.65 C
329 08-05-2010 16:00:00 16.9 C 30.6000 % -0.49 C
330 08-05-2010 17:00:00 18 C 27.2000 % -1.15 C
331 08-05-2010 18:00:00 19.56 C 24.4000 % -1.31 C
332 08-05-2010 19:00:00 18.28 C 27.6000 % -0.71 C
333 08-05-2010 20:00:00 15.78 C 44.4000 % 3.7 C
334 08-05-2010 21:00:00 13.44 C 52.4000 % 3.9 C
335 08-05-2010 22:00:00 11.96 C 57.2000 % 3.77 C
336 08-05-2010 23:00:00 11.06 C 62.2000 % 4.11 C
337 09-05-2010 00:00:00 9.8 C 69.2000 % 4.43 C
338 09-05-2010 01:00:00 8.82 C 74.4000 % 4.53 C
339 09-05-2010 02:00:00 8.62 C 77.0000 % 4.82 C
340 09-05-2010 03:00:00 8.46 C 78.0000 % 4.85 C
341 09-05-2010 04:00:00 8.5 C 78.0000 % 4.89 C
342 09-05-2010 05:00:00 7.64 C 80.6000 % 4.52 C
343 09-05-2010 06:00:00 7.98 C 81.8000 % 5.07 C
344 09-05-2010 07:00:00 8.8 C 79.0000 % 5.36 C
345 09-05-2010 08:00:00 9.84 C 75.0000 % 5.63 C
346 09-05-2010 09:00:00 11.3 C 69.0000 % 5.83 C
347 09-05-2010 10:00:00 12.3 C 66.8000 % 6.31 C
348 09-05-2010 11:00:00 12.28 C 68.2000 % 6.6 C
349 09-05-2010 12:00:00 13.42 C 62.4000 % 6.39 C
350 09-05-2010 13:00:00 17.02 C 46.0000 % 5.33 C
Sensor: Nr:Datum:Temp:Feuchte:Taupunkt:
Aussen-T/F 351 09-05-2010 14:00:00 17.16 C 42.0000 % 4.15 C
352 09-05-2010 15:00:00 17.52 C 42.2000 % 4.55 C
353 09-05-2010 16:00:00 18.5 C 38.8000 % 4.23 C
354 09-05-2010 17:00:00 19.08 C 33.2000 % 2.54 C
355 09-05-2010 18:00:00 18.7 C 36.2000 % 3.42 C
356 09-05-2010 19:00:00 16.88 C 47.6000 % 5.69 C
357 09-05-2010 20:00:00 14.82 C 54.2000 % 5.66 C
358 09-05-2010 21:00:00 12.5 C 64.4000 % 5.97 C
359 09-05-2010 22:00:00 11.12 C 70.0000 % 5.86 C
360 09-05-2010 23:00:00 10.74 C 72.2000 % 5.94 C
361 10-05-2010 00:00:00 10.22 C 75.0000 % 5.99 C
362 10-05-2010 01:00:00 9.86 C 78.2000 % 6.25 C
363 10-05-2010 02:00:00 9.48 C 79.6000 % 6.14 C
364 10-05-2010 03:00:00 8.88 C 82.2000 % 6.01 C
365 10-05-2010 04:00:00 8.62 C 84.4000 % 6.14 C
366 10-05-2010 05:00:00 8.66 C 84.4000 % 6.18 C
367 10-05-2010 06:00:00 8.82 C 83.8000 % 6.23 C
368 10-05-2010 07:00:00 9.62 C 82.6000 % 6.81 C
369 10-05-2010 08:00:00 10.64 C 77.6000 % 6.89 C
370 10-05-2010 09:00:00 10.88 C 73.2000 % 6.28 C
371 10-05-2010 10:00:00 11.34 C 69.4000 % 5.95 C
372 10-05-2010 11:00:00 11.5 C 68.6000 % 5.93 C
373 10-05-2010 12:00:00 12.6 C 62.8000 % 5.71 C
374 10-05-2010 13:00:00 14.48 C 51.0000 % 4.48 C
375 10-05-2010 14:00:00 15 C 46.6000 % 3.67 C
Sensor: Nr:Datum:Temp:Feuchte:Taupunkt:
Aussen-T/F 376 10-05-2010 15:00:00 15.1 C 44.8000 % 3.21 C
377 10-05-2010 16:00:00 15.84 C 41.2000 % 2.69 C
378 10-05-2010 17:00:00 15.78 C 40.0000 % 2.23 C
379 10-05-2010 18:00:00 16.84 C 34.2000 % 0.98 C
380 10-05-2010 19:00:00 15.02 C 38.6000 % 1.05 C
381 10-05-2010 20:00:00 14.02 C 41.8000 % 1.26 C
382 10-05-2010 21:00:00 12.02 C 51.2000 % 2.26 C
383 10-05-2010 22:00:00 11.42 C 54.8000 % 2.66 C
384 10-05-2010 23:00:00 11.34 C 56.8000 % 3.09 C
385 11-05-2010 00:00:00 10.88 C 58.0000 % 2.95 C
386 11-05-2010 01:00:00 10.42 C 61.4000 % 3.33 C
387 11-05-2010 02:00:00 10.1 C 63.8000 % 3.56 C
388 11-05-2010 03:00:00 9.78 C 66.4000 % 3.83 C
389 11-05-2010 04:00:00 9.46 C 67.8000 % 3.82 C
390 11-05-2010 05:00:00 9.38 C 68.2000 % 3.82 C
391 11-05-2010 06:00:00 9.24 C 68.8000 % 3.82 C
392 11-05-2010 07:00:00 9.6 C 69.0000 % 4.2 C
393 11-05-2010 08:00:00 10.9 C 63.0000 % 4.14 C
394 11-05-2010 09:00:00 12.16 C 56.0000 % 3.66 C
395 11-05-2010 10:00:00 12.58 C 54.8000 % 3.74 C
396 11-05-2010 11:00:00 12.52 C 56.2000 % 4.04 C
397 11-05-2010 12:00:00 14.2 C 50.4000 % 4.05 C
398 11-05-2010 13:00:00 13.74 C 52.8000 % 4.29 C
399 11-05-2010 14:00:00 14.04 C 53.0000 % 4.62 C
400 11-05-2010 15:00:00 14.4 C 52.0000 % 4.68 C
Sensor: Nr:Datum:Temp:Feuchte:Taupunkt:
Aussen-T/F 401 11-05-2010 16:00:00 15.24 C 50.6000 % 5.07 C
402 11-05-2010 17:00:00 14.84 C 53.0000 % 5.36 C
403 11-05-2010 18:00:00 12.88 C 67.6000 % 7.04 C
404 11-05-2010 19:00:00 10.94 C 83.4000 % 8.24 C
405 11-05-2010 20:00:00 10.12 C 89.2000 % 8.42 C
406 11-05-2010 21:00:00 9.86 C 92.4000 % 8.69 C
407 11-05-2010 22:00:00 9.68 C 93.6000 % 8.7 C
408 11-05-2010 23:00:00 9.8 C 94.0000 % 8.88 C
409 12-05-2010 00:00:00 9.32 C 94.0000 % 8.41 C
410 12-05-2010 01:00:00 8.52 C 94.4000 % 7.67 C
411 12-05-2010 02:00:00 7.72 C 94.8000 % 6.94 C
412 12-05-2010 03:00:00 7.12 C 93.8000 % 6.19 C
413 12-05-2010 04:00:00 6.88 C 91.0000 % 5.52 C
414 12-05-2010 05:00:00 6.8 C 87.2000 % 4.82 C
415 12-05-2010 06:00:00 6.78 C 86.0000 % 4.61 C
416 12-05-2010 07:00:00 7.08 C 85.0000 % 4.73 C
417 12-05-2010 08:00:00 7.64 C 81.0000 % 4.59 C
418 12-05-2010 09:00:00 8.28 C 74.0000 % 3.93 C
419 12-05-2010 10:00:00 8.6 C 69.6000 % 3.37 C
420 12-05-2010 11:00:00 9.18 C 64.0000 % 2.74 C
421 12-05-2010 12:00:00 10.06 C 57.6000 % 2.09 C
422 12-05-2010 13:00:00 10.68 C 54.0000 % 1.77 C
423 12-05-2010 14:00:00 10.52 C 52.8000 % 1.3 C
424 12-05-2010 15:00:00 10.84 C 50.6000 % 1.01 C
425 12-05-2010 16:00:00 10.52 C 54.0000 % 1.62 C
Sensor: Nr:Datum:Temp:Feuchte:Taupunkt:
Aussen-T/F 426 12-05-2010 17:00:00 9.74 C 57.2000 % 1.69 C
427 12-05-2010 18:00:00 9.22 C 61.0000 % 2.1 C
428 12-05-2010 19:00:00 8.9 C 65.0000 % 2.69 C
429 12-05-2010 20:00:00 8.56 C 68.2000 % 3.04 C
430 12-05-2010 21:00:00 8.44 C 70.6000 % 3.41 C
431 12-05-2010 22:00:00 7.76 C 78.8000 % 4.32 C
432 12-05-2010 23:00:00 7.8 C 81.8000 % 4.89 C
433 13-05-2010 00:00:00 7.58 C 80.4000 % 4.43 C
434 13-05-2010 01:00:00 7.34 C 82.2000 % 4.51 C
435 13-05-2010 02:00:00 7.42 C 82.6000 % 4.66 C
436 13-05-2010 03:00:00 7.3 C 82.4000 % 4.51 C
437 13-05-2010 04:00:00 7 C 85.0000 % 4.66 C
438 13-05-2010 05:00:00 6.76 C 87.2000 % 4.79 C
439 13-05-2010 06:00:00 6.64 C 88.0000 % 4.8 C
440 13-05-2010 07:00:00 6.8 C 87.6000 % 4.89 C
441 13-05-2010 08:00:00 6.94 C 81.2000 % 3.95 C
442 13-05-2010 09:00:00 7.94 C 72.8000 % 3.37 C
443 13-05-2010 10:00:00 9.46 C 59.8000 % 2.05 C
444 13-05-2010 11:00:00 9.9 C 54.2000 % 1.09 C
445 13-05-2010 12:00:00 10.06 C 51.4000 % 0.51 C
446 13-05-2010 13:00:00 9.74 C 54.0000 % 0.89 C
447 13-05-2010 14:00:00 10.6 C 51.4000 % 1.01 C
448 13-05-2010 15:00:00 10.1 C 52.8000 % 0.92 C
449 13-05-2010 16:00:00 8.66 C 69.8000 % 3.46 C
450 13-05-2010 17:00:00 8.22 C 76.0000 % 4.25 C
Sensor: Nr:Datum:Temp:Feuchte:Taupunkt:
Aussen-T/F 451 13-05-2010 18:00:00 8.56 C 80.6000 % 5.42 C
452 13-05-2010 19:00:00 7.4 C 85.2000 % 5.08 C
453 13-05-2010 20:00:00 7.44 C 87.6000 % 5.52 C
454 13-05-2010 21:00:00 7.44 C 89.2000 % 5.78 C
455 13-05-2010 22:00:00 7.3 C 90.0000 % 5.77 C
456 13-05-2010 23:00:00 7.24 C 90.6000 % 5.81 C
457 14-05-2010 00:00:00 6.96 C 92.6000 % 5.85 C
458 14-05-2010 01:00:00 7.04 C 93.2000 % 6.02 C
459 14-05-2010 02:00:00 7 C 93.4000 % 6.01 C
460 14-05-2010 03:00:00 6.98 C 94.0000 % 6.08 C
461 14-05-2010 04:00:00 6.94 C 94.0000 % 6.04 C
462 14-05-2010 05:00:00 6.88 C 94.4000 % 6.04 C
463 14-05-2010 06:00:00 7.1 C 94.0000 % 6.2 C
464 14-05-2010 07:00:00 7.4 C 92.8000 % 6.31 C
465 14-05-2010 08:00:00 7.92 C 89.4000 % 6.29 C
466 14-05-2010 09:00:00 8.18 C 85.8000 % 5.95 C
467 14-05-2010 10:00:00 9.58 C 78.6000 % 6.05 C
468 14-05-2010 11:00:00 10.38 C 70.2000 % 5.19 C
469 14-05-2010 12:00:00 9.16 C 77.4000 % 5.42 C
470 14-05-2010 13:00:00 9.46 C 83.6000 % 6.83 C
471 14-05-2010 14:00:00 9.58 C 84.6000 % 7.12 C
472 14-05-2010 15:00:00 11.86 C 72.0000 % 6.98 C
473 14-05-2010 16:00:00 12.98 C 59.8000 % 5.36 C
474 14-05-2010 17:00:00 11.54 C 63.8000 % 4.93 C
475 14-05-2010 18:00:00 11.56 C 65.2000 % 5.26 C
Sensor: Nr:Datum:Temp:Feuchte:Taupunkt:
Aussen-T/F 476 14-05-2010 19:00:00 10.46 C 72.4000 % 5.71 C
477 14-05-2010 20:00:00 9.94 C 74.0000 % 5.53 C
478 14-05-2010 21:00:00 9.14 C 77.2000 % 5.36 C
479 14-05-2010 22:00:00 9.08 C 79.8000 % 5.78 C
480 14-05-2010 23:00:00 8.24 C 85.4000 % 5.94 C
481 15-05-2010 00:00:00 7.9 C 87.6000 % 5.97 C
482 15-05-2010 01:00:00 7.7 C 88.0000 % 5.84 C
483 15-05-2010 02:00:00 7.64 C 88.8000 % 5.91 C
484 15-05-2010 03:00:00 7.6 C 89.6000 % 6 C
485 15-05-2010 04:00:00 7.6 C 90.0000 % 6.07 C
486 15-05-2010 05:00:00 7.26 C 91.0000 % 5.89 C
487 15-05-2010 06:00:00 7.1 C 91.6000 % 5.83 C
488 15-05-2010 07:00:00 7.6 C 91.8000 % 6.35 C
489 15-05-2010 08:00:00 8.48 C 85.2000 % 6.14 C
490 15-05-2010 09:00:00 9.48 C 75.0000 % 5.28 C
491 15-05-2010 10:00:00 10.8 C 65.0000 % 4.49 C
492 15-05-2010 11:00:00 11.2 C 60.4000 % 3.83 C
493 15-05-2010 12:00:00 11.64 C 52.2000 % 2.18 C
494 15-05-2010 13:00:00 12.06 C 45.2000 % 0.57 C
495 15-05-2010 14:00:00 14.26 C 34.2000 % -1.28 C
496 15-05-2010 15:00:00 15.5 C 22.8000 % -5.63 C
497 15-05-2010 16:00:00 14.78 C 21.8000 % -6.82 C
498 15-05-2010 17:00:00 14 C 26.2000 % -5.07 C
499 15-05-2010 18:00:00 13.82 C 29.0000 % -3.89 C
500 15-05-2010 19:00:00 14.58 C 27.2000 % -4.08 C
Sensor: Nr:Datum:Temp:Feuchte:Taupunkt:
Aussen-T/F 501 15-05-2010 20:00:00 12.5 C 40.8000 % -0.44 C
502 15-05-2010 21:00:00 10.98 C 46.8000 % 0.06 C
503 15-05-2010 22:00:00 11.06 C 48.0000 % 0.48 C
504 15-05-2010 23:00:00 10.84 C 50.2000 % 0.9 C
505 16-05-2010 00:00:00 10.1 C 56.4000 % 1.83 C
506 16-05-2010 01:00:00 9.34 C 63.0000 % 2.67 C
507 16-05-2010 02:00:00 8.04 C 71.0000 % 3.11 C
508 16-05-2010 03:00:00 7.48 C 73.8000 % 3.12 C
509 16-05-2010 04:00:00 7.6 C 73.8000 % 3.23 C
510 16-05-2010 05:00:00 7.3 C 75.0000 % 3.17 C
511 16-05-2010 06:00:00 7.42 C 75.2000 % 3.32 C
512 16-05-2010 07:00:00 7.84 C 74.2000 % 3.54 C
513 16-05-2010 08:00:00 8.72 C 70.4000 % 3.64 C
514 16-05-2010 09:00:00 10.96 C 48.8000 % 0.62 C
515 16-05-2010 10:00:00 12.56 C 38.0000 % -1.36 C
516 16-05-2010 11:00:00 14.84 C 31.4000 % -1.93 C
517 16-05-2010 12:00:00 16.64 C 25.4000 % -3.24 C
518 16-05-2010 13:00:00 17.66 C 23.4000 % -3.47 C
519 16-05-2010 14:00:00 17.92 C 23.2000 % -3.37 C
520 16-05-2010 15:00:00 19.5 C 20.0000 % -4.03 C
521 16-05-2010 16:00:00 20.54 C 20.0000 % -3.17 C
522 16-05-2010 17:00:00 21.3 C 20.0000 % -2.54 C
523 16-05-2010 18:00:00 19.82 C 20.6000 % -3.37 C
524 16-05-2010 19:00:00 18.86 C 22.8000 % -2.81 C
525 16-05-2010 20:00:00 17.96 C 29.2000 % -0.22 C
Sensor: Nr:Datum:Temp:Feuchte:Taupunkt:
Aussen-T/F 526 16-05-2010 21:00:00 14.28 C 39.2000 % 0.6 C
527 16-05-2010 22:00:00 12.36 C 49.0000 % 1.96 C
528 16-05-2010 23:00:00 10.86 C 58.6000 % 3.08 C
529 17-05-2010 00:00:00 10.12 C 63.0000 % 3.41 C
530 17-05-2010 01:00:00 9.36 C 66.4000 % 3.43 C
531 17-05-2010 02:00:00 8.56 C 71.6000 % 3.73 C
532 17-05-2010 03:00:00 7.64 C 75.8000 % 3.65 C
533 17-05-2010 04:00:00 6.96 C 79.0000 % 3.58 C
534 17-05-2010 05:00:00 6.22 C 82.6000 % 3.48 C
535 17-05-2010 06:00:00 6 C 83.4000 % 3.41 C
536 17-05-2010 07:00:00 7.08 C 79.4000 % 3.76 C
537 17-05-2010 08:00:00 9.42 C 69.4000 % 4.11 C
538 17-05-2010 09:00:00 11.88 C 60.8000 % 4.56 C
539 17-05-2010 10:00:00 13.7 C 54.0000 % 4.57 C
540 17-05-2010 11:00:00 13.6 C 58.4000 % 5.6 C
541 17-05-2010 12:00:00 13.88 C 62.2000 % 6.78 C
542 17-05-2010 13:00:00 16.62 C 47.2000 % 5.33 C
543 17-05-2010 14:00:00 15.88 C 51.6000 % 5.94 C
544 17-05-2010 15:00:00 12.66 C 83.0000 % 9.85 C
545 17-05-2010 16:00:00 13.44 C 81.2000 % 10.29 C
546 17-05-2010 17:00:00 13.86 C 74.6000 % 9.43 C
547 17-05-2010 18:00:00 12.1 C 70.8000 % 6.97 C
548 17-05-2010 19:00:00 10.04 C 82.8000 % 7.25 C
549 17-05-2010 20:00:00 9.46 C 86.6000 % 7.34 C
550 17-05-2010 21:00:00 8.88 C 89.4000 % 7.23 C
Sensor: Nr:Datum:Temp:Feuchte:Taupunkt:
Aussen-T/F 551 17-05-2010 22:00:00 8.5 C 91.6000 % 7.21 C
552 17-05-2010 23:00:00 7.8 C 92.2000 % 6.62 C
553 18-05-2010 00:00:00 7.08 C 92.2000 % 5.9 C
554 18-05-2010 01:00:00 6.46 C 92.8000 % 5.38 C
555 18-05-2010 02:00:00 6.1 C 93.0000 % 5.06 C
556 18-05-2010 03:00:00 5.8 C 93.4000 % 4.82 C
557 18-05-2010 04:00:00 6.28 C 93.8000 % 5.36 C
558 18-05-2010 05:00:00 6.5 C 93.4000 % 5.51 C
559 18-05-2010 06:00:00 7.14 C 92.2000 % 5.96 C
560 18-05-2010 07:00:00 8.2 C 89.2000 % 6.53 C
561 18-05-2010 08:00:00 9.04 C 75.6000 % 4.97 C
562 18-05-2010 09:00:00 9.7 C 68.0000 % 4.09 C
563 18-05-2010 10:00:00 10.84 C 58.4000 % 3.01 C
564 18-05-2010 11:00:00 12.74 C 47.6000 % 1.91 C
565 18-05-2010 12:00:00 14.04 C 40.8000 % 0.94 C
566 18-05-2010 13:00:00 16.76 C 31.4000 % -0.26 C
567 18-05-2010 14:00:00 15.6 C 31.6000 % -1.19 C
568 18-05-2010 15:00:00 16.48 C 29.6000 % -1.31 C
569 18-05-2010 16:00:00 17.74 C 23.2000 % -3.52 C
570 18-05-2010 17:00:00 17.16 C 25.8000 % -2.59 C
571 18-05-2010 18:00:00 17.18 C 27.0000 % -1.96 C
572 18-05-2010 19:00:00 15.32 C 34.0000 % -0.43 C
573 18-05-2010 20:00:00 14.26 C 39.4000 % 0.65 C
574 18-05-2010 21:00:00 12.8 C 41.8000 % 0.16 C
575 18-05-2010 22:00:00 11.44 C 44.4000 % -0.24 C
Sensor: Nr:Datum:Temp:Feuchte:Taupunkt:
Aussen-T/F 576 18-05-2010 23:00:00 9.98 C 57.6000 % 2.01 C
577 19-05-2010 00:00:00 9.32 C 64.0000 % 2.87 C
578 19-05-2010 01:00:00 9.28 C 59.8000 % 1.88 C
579 19-05-2010 02:00:00 9.06 C 60.2000 % 1.77 C
580 19-05-2010 03:00:00 8.68 C 62.0000 % 1.82 C
581 19-05-2010 04:00:00 8.16 C 66.4000 % 2.28 C
582 19-05-2010 05:00:00 7.92 C 71.2000 % 3.03 C
583 19-05-2010 06:00:00 8.04 C 71.6000 % 3.23 C
584 19-05-2010 07:00:00 8.66 C 68.4000 % 3.18 C
585 19-05-2010 08:00:00 9.14 C 63.2000 % 2.52 C
586 19-05-2010 09:00:00 9.18 C 64.2000 % 2.78 C
587 19-05-2010 10:00:00 9.62 C 62.4000 % 2.8 C
588 19-05-2010 11:00:00 10.22 C 61.0000 % 3.04 C
589 19-05-2010 12:00:00 11.02 C 58.2000 % 3.13 C
590 19-05-2010 13:00:00 11.54 C 57.2000 % 3.38 C
591 19-05-2010 14:00:00 11.46 C 65.8000 % 5.3 C
592 19-05-2010 15:00:00 11.4 C 75.6000 % 7.25 C
593 19-05-2010 16:00:00 10.78 C 81.8000 % 7.8 C
594 19-05-2010 17:00:00 10.68 C 84.8000 % 8.23 C
595 19-05-2010 18:00:00 11.14 C 81.4000 % 8.08 C
596 19-05-2010 19:00:00 11.48 C 77.8000 % 7.75 C
597 19-05-2010 20:00:00 11.76 C 73.6000 % 7.21 C
598 19-05-2010 21:00:00 12.94 C 51.6000 % 3.22 C
599 19-05-2010 22:00:00 13.06 C 50.0000 % 2.89 C
600 19-05-2010 23:00:00 12.8 C 52.0000 % 3.2 C
Sensor: Nr:Datum:Temp:Feuchte:Taupunkt:
Aussen-T/F 601 20-05-2010 00:00:00 12.9 C 46.2000 % 1.64 C
602 20-05-2010 01:00:00 12.5 C 49.2000 % 2.15 C
603 20-05-2010 02:00:00 11.9 C 53.0000 % 2.64 C
604 20-05-2010 03:00:00 11.52 C 53.2000 % 2.34 C
605 20-05-2010 04:00:00 11.16 C 52.4000 % 1.79 C
606 20-05-2010 05:00:00 11.02 C 52.2000 % 1.61 C
607 20-05-2010 06:00:00 11.02 C 51.8000 % 1.5 C
608 20-05-2010 07:00:00 11.26 C 51.6000 % 1.67 C
609 20-05-2010 08:00:00 11.14 C 53.0000 % 1.93 C
610 20-05-2010 09:00:00 11.82 C 51.4000 % 2.13 C
611 20-05-2010 10:00:00 12.3 C 49.6000 % 2.08 C
612 20-05-2010 11:00:00 13.1 C 45.2000 % 1.51 C
613 20-05-2010 12:00:00 14.04 C 40.4000 % 0.8 C
614 20-05-2010 13:00:00 13.42 C 52.2000 % 3.83 C
615 20-05-2010 14:00:00 13.58 C 64.6000 % 7.04 C
616 20-05-2010 15:00:00 12.74 C 68.8000 % 7.16 C
617 20-05-2010 16:00:00 12.76 C 69.0000 % 7.22 C
618 20-05-2010 17:00:00 14 C 64.2000 % 7.35 C
619 20-05-2010 18:00:00 14.7 C 62.6000 % 7.64 C
620 20-05-2010 19:00:00 14.8 C 64.6000 % 8.2 C
621 20-05-2010 20:00:00 14.36 C 64.2000 % 7.69 C
622 20-05-2010 21:00:00 12.98 C 67.2000 % 7.05 C
623 20-05-2010 22:00:00 12.3 C 66.4000 % 6.23 C
624 20-05-2010 23:00:00 11.9 C 71.2000 % 6.86 C
625 21-05-2010 00:00:00 10.64 C 74.6000 % 6.32 C
Sensor: Nr:Datum:Temp:Feuchte:Taupunkt:
Aussen-T/F 626 21-05-2010 01:00:00 10.14 C 77.0000 % 6.3 C
627 21-05-2010 02:00:00 9.5 C 79.8000 % 6.19 C
628 21-05-2010 03:00:00 8.62 C 84.4000 % 6.14 C
629 21-05-2010 04:00:00 7.88 C 86.8000 % 5.82 C
630 21-05-2010 05:00:00 8.1 C 88.0000 % 6.24 C
631 21-05-2010 06:00:00 8.08 C 89.4000 % 6.44 C
632 21-05-2010 07:00:00 8.52 C 88.6000 % 6.75 C
633 21-05-2010 08:00:00 9.2 C 84.6000 % 6.75 C
634 21-05-2010 09:00:00 10.82 C 79.8000 % 7.48 C
635 21-05-2010 10:00:00 14.58 C 66.4000 % 8.4 C
636 21-05-2010 11:00:00 18.46 C 46.6000 % 6.83 C
637 21-05-2010 12:00:00 20.54 C 33.8000 % 4.07 C
638 21-05-2010 13:00:00 23.78 C 23.8000 % 1.9 C
639 21-05-2010 14:00:00 23.88 C 24.2000 % 2.22 C
640 21-05-2010 15:00:00 25.42 C 21.8000 % 2.05 C
641 21-05-2010 16:00:00 25.28 C 20.8000 % 1.28 C
642 21-05-2010 17:00:00 26.14 C 20.0000 % 1.44 C
643 21-05-2010 18:00:00 25.94 C 20.8000 % 1.82 C
644 21-05-2010 19:00:00 24.44 C 26.0000 % 3.7 C
645 21-05-2010 20:00:00 22.66 C 31.0000 % 4.68 C
646 21-05-2010 21:00:00 20.08 C 38.0000 % 5.34 C
647 21-05-2010 22:00:00 18.08 C 46.4000 % 6.42 C
648 21-05-2010 23:00:00 16.26 C 52.6000 % 6.57 C
649 22-05-2010 00:00:00 15.08 C 59.2000 % 7.19 C
650 22-05-2010 01:00:00 13.88 C 65.4000 % 7.51 C
Sensor: Nr:Datum:Temp:Feuchte:Taupunkt:
Aussen-T/F 651 22-05-2010 02:00:00 12.74 C 71.0000 % 7.62 C
652 22-05-2010 03:00:00 12 C 74.4000 % 7.59 C
653 22-05-2010 04:00:00 11.06 C 78.6000 % 7.49 C
654 22-05-2010 05:00:00 10.3 C 81.2000 % 7.22 C
655 22-05-2010 06:00:00 9.96 C 82.6000 % 7.14 C
656 22-05-2010 07:00:00 10.54 C 82.0000 % 7.6 C
657 22-05-2010 08:00:00 12.32 C 73.2000 % 7.66 C
658 22-05-2010 09:00:00 14 C 60.8000 % 6.56 C
659 22-05-2010 10:00:00 16.16 C 45.8000 % 4.48 C
660 22-05-2010 11:00:00 18.3 C 39.0000 % 4.12 C
661 22-05-2010 12:00:00 21.18 C 31.6000 % 3.67 C
662 22-05-2010 13:00:00 24.24 C 25.4000 % 3.21 C
663 22-05-2010 14:00:00 23.96 C 25.8000 % 3.19 C
664 22-05-2010 15:00:00 25.34 C 25.4000 % 4.13 C
665 22-05-2010 16:00:00 25.9 C 25.4000 % 4.61 C
666 22-05-2010 17:00:00 26.88 C 25.0000 % 5.21 C
667 22-05-2010 18:00:00 26.56 C 26.0000 % 5.5 C
668 22-05-2010 19:00:00 26.3 C 27.0000 % 5.82 C
669 22-05-2010 20:00:00 24.48 C 32.4000 % 6.9 C
670 22-05-2010 21:00:00 21.4 C 39.4000 % 7.03 C
671 22-05-2010 22:00:00 19.34 C 42.8000 % 6.39 C
672 22-05-2010 23:00:00 17.9 C 49.0000 % 7.05 C
673 23-05-2010 00:00:00 16.64 C 55.4000 % 7.67 C
674 23-05-2010 01:00:00 15.14 C 63.6000 % 8.29 C
675 23-05-2010 02:00:00 14.14 C 69.0000 % 8.54 C
Sensor: Nr:Datum:Temp:Feuchte:Taupunkt:
Aussen-T/F 676 23-05-2010 03:00:00 13.42 C 73.0000 % 8.68 C
677 23-05-2010 04:00:00 12.58 C 76.8000 % 8.62 C
678 23-05-2010 05:00:00 11.92 C 79.0000 % 8.4 C
679 23-05-2010 06:00:00 11.52 C 80.6000 % 8.3 C
680 23-05-2010 07:00:00 11.94 C 81.6000 % 8.9 C
681 23-05-2010 08:00:00 13.84 C 77.4000 % 9.96 C
682 23-05-2010 09:00:00 16.18 C 67.4000 % 10.14 C
683 23-05-2010 10:00:00 19.2 C 56.6000 % 10.38 C
684 23-05-2010 11:00:00 20.9 C 47.4000 % 9.3 C
685 23-05-2010 12:00:00 23.64 C 33.0000 % 6.43 C
686 23-05-2010 13:00:00 26.36 C 20.4000 % 1.9 C
687 23-05-2010 14:00:00 26.1 C 23.0000 % 3.37 C
688 23-05-2010 15:00:00 27.88 C 21.4000 % 3.82 C
689 23-05-2010 16:00:00 28.74 C 20.0000 % 3.57 C
690 23-05-2010 17:00:00 29.64 C 20.4000 % 4.59 C
691 23-05-2010 18:00:00 28.82 C 23.2000 % 5.76 C
692 23-05-2010 19:00:00 28.12 C 24.8000 % 6.14 C
693 23-05-2010 20:00:00 26.48 C 29.4000 % 7.21 C
694 23-05-2010 21:00:00 23.54 C 36.8000 % 7.94 C
695 23-05-2010 22:00:00 21.36 C 45.4000 % 9.08 C
696 23-05-2010 23:00:00 19.6 C 53.0000 % 9.77 C
697 24-05-2010 00:00:00 17.84 C 60.4000 % 10.07 C
698 24-05-2010 01:00:00 16.58 C 66.6000 % 10.34 C
699 24-05-2010 02:00:00 15.46 C 71.6000 % 10.36 C
700 24-05-2010 03:00:00 14.5 C 74.8000 % 10.09 C
Sensor: Nr:Datum:Temp:Feuchte:Taupunkt:
Aussen-T/F 701 24-05-2010 04:00:00 13.82 C 77.0000 % 9.86 C
702 24-05-2010 05:00:00 13.12 C 77.6000 % 9.3 C
703 24-05-2010 06:00:00 12.74 C 80.2000 % 9.42 C
704 24-05-2010 07:00:00 13.6 C 78.6000 % 9.95 C
705 24-05-2010 08:00:00 14.88 C 74.8000 % 10.45 C
706 24-05-2010 09:00:00 17.62 C 65.2000 % 11.01 C
707 24-05-2010 10:00:00 21.1 C 51.6000 % 10.75 C
708 24-05-2010 11:00:00 23.82 C 40.8000 % 9.71 C
709 24-05-2010 12:00:00 26.18 C 29.4000 % 6.96 C
710 24-05-2010 13:00:00 26.9 C 25.4000 % 5.45 C
711 24-05-2010 14:00:00 28.28 C 23.2000 % 5.31 C
712 24-05-2010 15:00:00 28.18 C 23.4000 % 5.35 C
713 24-05-2010 16:00:00 27.62 C 24.4000 % 5.48 C
714 24-05-2010 17:00:00 28.2 C 20.6000 % 3.55 C
715 24-05-2010 18:00:00 28.58 C 20.2000 % 3.58 C
716 24-05-2010 19:00:00 28.36 C 20.8000 % 3.82 C
717 24-05-2010 20:00:00 26.64 C 26.2000 % 5.68 C
718 24-05-2010 21:00:00 23.78 C 33.6000 % 6.82 C
719 24-05-2010 22:00:00 21.86 C 41.2000 % 8.1 C
720 24-05-2010 23:00:00 19.86 C 48.4000 % 8.66 C
721 25-05-2010 00:00:00 18.5 C 54.0000 % 9.03 C
722 25-05-2010 01:00:00 17.18 C 60.6000 % 9.5 C
723 25-05-2010 02:00:00 16 C 65.6000 % 9.57 C
724 25-05-2010 03:00:00 14.96 C 71.2000 % 9.79 C
725 25-05-2010 04:00:00 14.18 C 75.2000 % 9.86 C
Sensor: Nr:Datum:Temp:Feuchte:Taupunkt:
Aussen-T/F 726 25-05-2010 05:00:00 13.9 C 76.0000 % 9.74 C
727 25-05-2010 06:00:00 14.58 C 73.8000 % 9.96 C
728 25-05-2010 07:00:00 15.6 C 68.6000 % 9.85 C
729 25-05-2010 08:00:00 16.78 C 64.0000 % 9.94 C
730 25-05-2010 09:00:00 18.62 C 50.4000 % 8.12 C
731 25-05-2010 10:00:00 20.62 C 38.2000 % 5.89 C
732 25-05-2010 11:00:00 21.64 C 34.0000 % 5.12 C
733 25-05-2010 12:00:00 23.94 C 26.2000 % 3.39 C
734 25-05-2010 13:00:00 26.72 C 21.0000 % 2.6 C
735 25-05-2010 14:00:00 26.32 C 22.4000 % 3.18 C
736 25-05-2010 15:00:00 26.9 C 22.4000 % 3.66 C
737 25-05-2010 16:00:00 27.92 C 21.6000 % 3.99 C
738 25-05-2010 17:00:00 28.06 C 22.0000 % 4.37 C
739 25-05-2010 18:00:00 26.32 C 23.0000 % 3.55 C
740 25-05-2010 19:00:00 24.46 C 26.6000 % 4.05 C
741 25-05-2010 20:00:00 22.84 C 30.6000 % 4.65 C
742 25-05-2010 21:00:00 21.18 C 37.2000 % 6 C
743 25-05-2010 22:00:00 19.44 C 41.2000 % 5.93 C
744 25-05-2010 23:00:00 18.84 C 42.4000 % 5.8 C
745 26-05-2010 00:00:00 18.52 C 41.4000 % 5.17 C
746 26-05-2010 01:00:00 16.86 C 48.4000 % 5.91 C
747 26-05-2010 02:00:00 14.42 C 69.2000 % 8.85 C
748 26-05-2010 03:00:00 14.6 C 67.4000 % 8.64 C
749 26-05-2010 04:00:00 14.72 C 61.0000 % 7.29 C
750 26-05-2010 05:00:00 14.66 C 58.6000 % 6.64 C
Sensor: Nr:Datum:Temp:Feuchte:Taupunkt:
Aussen-T/F 751 26-05-2010 06:00:00 14.68 C 62.0000 % 7.48 C
752 26-05-2010 07:00:00 15.68 C 49.8000 % 5.24 C
753 26-05-2010 08:00:00 15.96 C 47.4000 % 4.79 C
754 26-05-2010 09:00:00 16.68 C 45.6000 % 4.89 C
755 26-05-2010 10:00:00 15.12 C 62.8000 % 8.09 C
756 26-05-2010 11:00:00 13.24 C 83.4000 % 10.49 C
757 26-05-2010 12:00:00 13.1 C 86.4000 % 10.88 C
758 26-05-2010 13:00:00 12.88 C 86.8000 % 10.74 C
759 26-05-2010 14:00:00 15.2 C 75.0000 % 10.8 C
760 26-05-2010 15:00:00 14.76 C 77.8000 % 10.93 C
761 26-05-2010 16:00:00 18.96 C 65.4000 % 12.33 C
762 26-05-2010 17:00:00 16.38 C 81.6000 % 13.23 C
763 26-05-2010 18:00:00 17.22 C 86.2000 % 14.89 C
764 26-05-2010 19:00:00 18.98 C 78.8000 % 15.22 C
765 26-05-2010 20:00:00 16.86 C 82.0000 % 13.77 C
766 26-05-2010 21:00:00 15.2 C 82.0000 % 12.15 C
767 26-05-2010 22:00:00 12.86 C 78.6000 % 9.24 C
768 26-05-2010 23:00:00 12.52 C 77.2000 % 8.64 C
769 27-05-2010 00:00:00 12.36 C 77.0000 % 8.45 C
770 27-05-2010 01:00:00 11.9 C 77.0000 % 8 C
771 27-05-2010 02:00:00 11.24 C 79.8000 % 7.88 C
772 27-05-2010 03:00:00 11.16 C 78.8000 % 7.62 C
773 27-05-2010 04:00:00 10.88 C 79.0000 % 7.39 C
774 27-05-2010 05:00:00 10.74 C 79.0000 % 7.25 C
775 27-05-2010 06:00:00 11 C 78.4000 % 7.39 C
Sensor: Nr:Datum:Temp:Feuchte:Taupunkt:
Aussen-T/F 776 27-05-2010 07:00:00 11.3 C 78.0000 % 7.61 C
777 27-05-2010 08:00:00 11.72 C 77.0000 % 7.83 C
778 27-05-2010 09:00:00 12.02 C 73.0000 % 7.34 C
779 27-05-2010 10:00:00 13.04 C 66.4000 % 6.93 C
780 27-05-2010 11:00:00 14.8 C 56.2000 % 6.17 C
781 27-05-2010 12:00:00 16.14 C 49.0000 % 5.43 C
782 27-05-2010 13:00:00 17.44 C 44.2000 % 5.14 C
783 27-05-2010 14:00:00 20.62 C 37.0000 % 5.43 C
784 27-05-2010 15:00:00 22.3 C 32.4000 % 5 C
785 27-05-2010 16:00:00 23.36 C 30.8000 % 5.2 C
786 27-05-2010 17:00:00 23.44 C 31.6000 % 5.63 C
787 27-05-2010 18:00:00 23.08 C 34.6000 % 6.63 C
788 27-05-2010 19:00:00 20.84 C 46.0000 % 8.8 C
789 27-05-2010 20:00:00 18.04 C 57.8000 % 9.61 C
790 27-05-2010 21:00:00 15.78 C 71.0000 % 10.54 C
791 27-05-2010 22:00:00 16.06 C 67.8000 % 10.12 C
792 27-05-2010 23:00:00 15.56 C 73.2000 % 10.78 C
793 28-05-2010 00:00:00 15 C 75.2000 % 10.65 C
794 28-05-2010 01:00:00 15.14 C 70.8000 % 9.88 C
795 28-05-2010 02:00:00 14.86 C 72.6000 % 9.99 C
796 28-05-2010 03:00:00 14.78 C 72.4000 % 9.87 C
797 28-05-2010 04:00:00 14.36 C 74.6000 % 9.91 C
798 28-05-2010 05:00:00 13.7 C 83.4000 % 10.94 C
799 28-05-2010 06:00:00 13.62 C 85.8000 % 11.29 C
800 28-05-2010 07:00:00 13.98 C 87.0000 % 11.85 C
Sensor: Nr:Datum:Temp:Feuchte:Taupunkt:
Aussen-T/F 801 28-05-2010 08:00:00 14.36 C 85.8000 % 12.02 C
802 28-05-2010 09:00:00 15.12 C 75.2000 % 10.76 C
803 28-05-2010 10:00:00 15.64 C 64.2000 % 8.91 C
804 28-05-2010 11:00:00 17.2 C 49.6000 % 6.58 C
805 28-05-2010 12:00:00 18.4 C 45.4000 % 6.39 C
806 28-05-2010 13:00:00 20.24 C 37.8000 % 5.4 C
807 28-05-2010 14:00:00 19.4 C 37.2000 % 4.43 C
808 28-05-2010 15:00:00 21.72 C 28.6000 % 2.73 C
809 28-05-2010 16:00:00 23.06 C 21.2000 % -0.3 C
810 28-05-2010 17:00:00 23.2 C 20.0000 % -0.98 C
811 28-05-2010 18:00:00 22.62 C 20.4000 % -1.19 C
812 28-05-2010 19:00:00 22.14 C 23.8000 % 0.53 C
813 28-05-2010 20:00:00 19.68 C 29.4000 % 1.36 C
814 28-05-2010 21:00:00 17.54 C 35.8000 % 2.24 C
815 28-05-2010 22:00:00 15.56 C 44.8000 % 3.62 C
816 28-05-2010 23:00:00 14.06 C 51.4000 % 4.2 C
817 29-05-2010 00:00:00 12.86 C 59.0000 % 5.05 C
818 29-05-2010 01:00:00 11.92 C 63.8000 % 5.29 C
819 29-05-2010 02:00:00 10.82 C 70.2000 % 5.62 C
820 29-05-2010 03:00:00 9.98 C 74.8000 % 5.72 C
821 29-05-2010 04:00:00 9.7 C 76.8000 % 5.83 C
822 29-05-2010 05:00:00 9.48 C 77.0000 % 5.66 C
823 29-05-2010 06:00:00 9.78 C 77.0000 % 5.95 C
824 29-05-2010 07:00:00 10.18 C 75.2000 % 5.99 C
825 29-05-2010 08:00:00 11.24 C 70.8000 % 6.14 C
Sensor: Nr:Datum:Temp:Feuchte:Taupunkt:
Aussen-T/F 826 29-05-2010 09:00:00 12.86 C 62.8000 % 5.95 C
827 29-05-2010 10:00:00 16.9 C 49.4000 % 6.25 C
828 29-05-2010 11:00:00 18.66 C 45.8000 % 6.76 C
829 29-05-2010 12:00:00 21.72 C 28.6000 % 2.73 C
830 29-05-2010 13:00:00 24.84 C 21.2000 % 1.18 C
831 29-05-2010 14:00:00 23.42 C 25.2000 % 2.4 C
832 29-05-2010 15:00:00 23.02 C 26.0000 % 2.5 C
833 29-05-2010 16:00:00 24.42 C 22.4000 % 1.59 C
834 29-05-2010 17:00:00 23.96 C 27.4000 % 4.04 C
835 29-05-2010 18:00:00 21.7 C 31.6000 % 4.12 C
836 29-05-2010 19:00:00 20.66 C 29.8000 % 2.39 C
837 29-05-2010 20:00:00 19.3 C 36.0000 % 3.87 C
838 29-05-2010 21:00:00 17.06 C 47.0000 % 5.67 C
839 29-05-2010 22:00:00 13.96 C 75.4000 % 9.68 C
840 29-05-2010 23:00:00 13.72 C 75.2000 % 9.41 C
841 30-05-2010 00:00:00 13.38 C 80.6000 % 10.12 C
842 30-05-2010 01:00:00 13.2 C 82.6000 % 10.31 C
843 30-05-2010 02:00:00 12.9 C 89.0000 % 11.13 C
844 30-05-2010 03:00:00 12.9 C 91.2000 % 11.5 C
845 30-05-2010 04:00:00 12.8 C 91.8000 % 11.5 C
846 30-05-2010 05:00:00 12.96 C 90.6000 % 11.46 C
847 30-05-2010 06:00:00 13.36 C 88.4000 % 11.48 C
848 30-05-2010 07:00:00 13.8 C 87.6000 % 11.78 C
849 30-05-2010 08:00:00 14.66 C 80.2000 % 11.29 C
850 30-05-2010 09:00:00 15.62 C 75.2000 % 11.25 C
Sensor: Nr:Datum:Temp:Feuchte:Taupunkt:
Aussen-T/F 851 30-05-2010 10:00:00 14.98 C 79.6000 % 11.49 C
852 30-05-2010 11:00:00 17.44 C 61.6000 % 9.99 C
853 30-05-2010 12:00:00 18 C 52.8000 % 8.23 C
854 30-05-2010 13:00:00 17.94 C 49.4000 % 7.2 C
855 30-05-2010 14:00:00 18 C 53.6000 % 8.45 C
856 30-05-2010 15:00:00 19.18 C 46.8000 % 7.54 C
857 30-05-2010 16:00:00 19.4 C 41.4000 % 5.96 C
858 30-05-2010 17:00:00 16.3 C 60.2000 % 8.58 C
859 30-05-2010 18:00:00 14.42 C 77.6000 % 10.56 C
860 30-05-2010 19:00:00 13.16 C 83.0000 % 10.34 C
861 30-05-2010 20:00:00 12.46 C 66.8000 % 6.47 C
862 30-05-2010 21:00:00 11.74 C 63.2000 % 4.98 C
863 30-05-2010 22:00:00 11.14 C 60.8000 % 3.87 C
864 30-05-2010 23:00:00 10.6 C 59.0000 % 2.93 C
865 31-05-2010 00:00:00 9.88 C 62.8000 % 3.13 C
866 31-05-2010 01:00:00 9.84 C 66.4000 % 3.88 C
867 31-05-2010 02:00:00 8.94 C 85.4000 % 6.63 C
868 31-05-2010 03:00:00 8.62 C 90.0000 % 7.07 C
869 31-05-2010 04:00:00 8.52 C 90.2000 % 7.01 C
870 31-05-2010 05:00:00 8.54 C 90.0000 % 7 C
871 31-05-2010 06:00:00 8.72 C 91.2000 % 7.37 C
872 31-05-2010 07:00:00 8.94 C 92.2000 % 7.74 C
873 31-05-2010 08:00:00 9.88 C 91.2000 % 8.51 C
874 31-05-2010 09:00:00 10.8 C 84.8000 % 8.35 C
875 31-05-2010 10:00:00 11.06 C 83.0000 % 8.29 C
Sensor: Nr:Datum:Temp:Feuchte:Taupunkt:
Aussen-T/F 876 31-05-2010 11:00:00 11.96 C 78.6000 % 8.36 C
877 31-05-2010 12:00:00 13.78 C 64.2000 % 7.14 C
878 31-05-2010 13:00:00 14.32 C 59.6000 % 6.57 C
879 31-05-2010 14:00:00 14.96 C 57.2000 % 6.57 C
880 31-05-2010 15:00:00 14.76 C 59.8000 % 7.03 C
881 31-05-2010 16:00:00 13.96 C 67.2000 % 7.98 C
882 31-05-2010 17:00:00 14.18 C 65.0000 % 7.7 C
883 31-05-2010 18:00:00 13.1 C 76.2000 % 9.01 C
884 31-05-2010 19:00:00 12.7 C 83.0000 % 9.89 C
885 31-05-2010 20:00:00 12.48 C 86.6000 % 10.31 C
886 31-05-2010 21:00:00 12.5 C 86.8000 % 10.36 C
887 31-05-2010 22:00:00 12.54 C 88.6000 % 10.71 C
888 31-05-2010 23:00:00 12.62 C 88.0000 % 10.69 C
889 01-06-2010 00:00:00 11.7 C 90.0000 % 10.12 C
890 01-06-2010 01:00:00 11.44 C 92.0000 % 10.19 C
891 01-06-2010 02:00:00 10.92 C 92.8000 % 9.8 C
892 01-06-2010 03:00:00 11.38 C 93.8000 % 10.42 C
893 01-06-2010 04:00:00 11.06 C 93.0000 % 9.97 C
894 01-06-2010 05:00:00 11.18 C 93.2000 % 10.12 C
895 01-06-2010 06:00:00 11.22 C 91.6000 % 9.9 C
896 01-06-2010 07:00:00 12.04 C 87.4000 % 10.01 C
897 01-06-2010 08:00:00 13.68 C 78.8000 % 10.07 C
898 01-06-2010 09:00:00 15 C 69.6000 % 9.49 C
899 01-06-2010 10:00:00 15.08 C 67.0000 % 9.01 C
900 01-06-2010 11:00:00 17.08 C 56.2000 % 8.3 C
Sensor: Nr:Datum:Temp:Feuchte:Taupunkt:
Aussen-T/F 901 01-06-2010 12:00:00 19.42 C 43.2000 % 6.6 C
902 01-06-2010 13:00:00 20.58 C 37.4000 % 5.55 C
903 01-06-2010 14:00:00 20.98 C 34.8000 % 4.87 C
904 01-06-2010 15:00:00 22.14 C 27.4000 % 2.49 C
905 01-06-2010 16:00:00 22.8 C 24.4000 % 1.43 C
906 01-06-2010 17:00:00 22.5 C 26.4000 % 2.27 C
907 01-06-2010 18:00:00 20.56 C 28.6000 % 1.73 C
908 01-06-2010 19:00:00 19.54 C 36.2000 % 4.16 C
909 01-06-2010 20:00:00 18.2 C 45.4000 % 6.21 C
910 01-06-2010 21:00:00 16.16 C 51.6000 % 6.2 C
911 01-06-2010 22:00:00 15.04 C 57.4000 % 6.7 C
912 01-06-2010 23:00:00 14.74 C 61.4000 % 7.4 C
913 02-06-2010 00:00:00 14.44 C 67.4000 % 8.48 C
914 02-06-2010 01:00:00 14.22 C 68.6000 % 8.53 C
915 02-06-2010 02:00:00 13.58 C 74.0000 % 9.04 C
916 02-06-2010 03:00:00 13.34 C 76.0000 % 9.2 C
917 02-06-2010 04:00:00 13.36 C 72.4000 % 8.5 C
918 02-06-2010 05:00:00 13.3 C 72.6000 % 8.49 C
919 02-06-2010 06:00:00 13.28 C 74.2000 % 8.79 C
920 02-06-2010 07:00:00 13.84 C 71.8000 % 8.84 C
921 02-06-2010 08:00:00 15.1 C 63.2000 % 8.16 C
922 02-06-2010 09:00:00 15.08 C 60.0000 % 7.38 C
923 02-06-2010 10:00:00 17.56 C 43.4000 % 4.98 C
924 02-06-2010 11:00:00 19.3 C 36.2000 % 3.95 C
925 02-06-2010 12:00:00 21.86 C 27.6000 % 2.35 C
Sensor: Nr:Datum:Temp:Feuchte:Taupunkt:
Aussen-T/F 926 02-06-2010 13:00:00 23.68 C 21.6000 % 0.47 C
927 02-06-2010 14:00:00 23.5 C 21.0000 % -0.06 C
928 02-06-2010 15:00:00 22.58 C 27.8000 % 3.07 C
929 02-06-2010 16:00:00 21.08 C 36.6000 % 5.68 C
930 02-06-2010 17:00:00 20.44 C 40.0000 % 6.4 C
931 02-06-2010 18:00:00 21.46 C 37.6000 % 6.41 C
932 02-06-2010 19:00:00 20.68 C 41.0000 % 6.97 C
933 02-06-2010 20:00:00 19.78 C 44.6000 % 7.39 C
934 02-06-2010 21:00:00 18.34 C 50.8000 % 7.98 C
935 02-06-2010 22:00:00 17.725 C 54.7500 % 8.51 C
936 02-06-2010 23:00:00 16.44 C 60.0000 % 8.66 C
937 03-06-2010 00:00:00 15.62 C 63.8000 % 8.79 C
938 03-06-2010 01:00:00 14.96 C 68.0000 % 9.11 C
939 03-06-2010 02:00:00 14.42 C 70.2000 % 9.07 C
940 03-06-2010 03:00:00 14.02 C 70.6000 % 8.77 C
941 03-06-2010 04:00:00 13.2 C 72.8000 % 8.43 C
942 03-06-2010 05:00:00 12.7 C 74.8000 % 8.35 C
943 03-06-2010 06:00:00 12.6 C 75.6000 % 8.41 C
944 03-06-2010 07:00:00 13.08 C 72.8000 % 8.32 C
945 03-06-2010 08:00:00 13.98 C 65.8000 % 7.69 C
946 03-06-2010 09:00:00 15.94 C 54.8000 % 6.86 C
947 03-06-2010 10:00:00 18.62 C 43.6000 % 6.01 C
948 03-06-2010 11:00:00 21.14 C 33.8000 % 4.59 C
949 03-06-2010 12:00:00 24.16 C 25.6000 % 3.25 C
950 03-06-2010 13:00:00 26.36 C 21.2000 % 2.43 C
Sensor: Nr:Datum:Temp:Feuchte:Taupunkt:
Aussen-T/F 951 03-06-2010 14:00:00 25.98 C 20.0000 % 1.31 C
952 03-06-2010 15:00:00 27.94 C 20.0000 % 2.92 C
953 03-06-2010 16:00:00 29.48 C 20.0000 % 4.18 C
954 03-06-2010 17:00:00 29.98 C 20.0000 % 4.59 C
955 03-06-2010 18:00:00 28.98 C 20.0000 % 3.77 C
956 03-06-2010 19:00:00 29.08 C 20.0000 % 3.85 C
957 03-06-2010 20:00:00 27 C 20.8000 % 2.7 C
958 03-06-2010 21:00:00 23.74 C 30.8000 % 5.52 C
959 03-06-2010 22:00:00 20.16 C 37.0000 % 5.02 C
960 03-06-2010 23:00:00 18.64 C 41.2000 % 5.21 C
961 04-06-2010 00:00:00 17.44 C 46.2000 % 5.77 C
962 04-06-2010 01:00:00 15.9 C 52.0000 % 6.07 C
963 04-06-2010 02:00:00 14.64 C 57.6000 % 6.38 C
964 04-06-2010 03:00:00 13.64 C 63.0000 % 6.74 C
965 04-06-2010 04:00:00 12.78 C 68.0000 % 7.03 C
966 04-06-2010 05:00:00 12.12 C 70.8000 % 6.99 C
967 04-06-2010 06:00:00 11.94 C 73.8000 % 7.42 C
968 04-06-2010 07:00:00 12.44 C 73.4000 % 7.82 C
969 04-06-2010 08:00:00 13.72 C 69.8000 % 8.31 C
970 04-06-2010 09:00:00 16.78 C 58.6000 % 8.63 C
971 04-06-2010 10:00:00 20.06 C 46.8000 % 8.35 C
972 04-06-2010 11:00:00 22.1 C 36.8000 % 6.66 C
973 04-06-2010 12:00:00 25.82 C 24.4000 % 3.97 C
974 04-06-2010 13:00:00 28.98 C 20.6000 % 4.19 C
975 04-06-2010 14:00:00 27.9 C 21.0000 % 3.57 C
Sensor: Nr:Datum:Temp:Feuchte:Taupunkt:
Aussen-T/F 976 04-06-2010 15:00:00 29.14 C 20.0000 % 3.9 C
977 04-06-2010 16:00:00 30.38 C 20.0000 % 4.92 C
978 04-06-2010 17:00:00 31.04 C 20.0000 % 5.46 C
979 04-06-2010 18:00:00 31.88 C 20.0000 % 6.14 C
980 04-06-2010 19:00:00 30.44 C 20.0000 % 4.97 C
981 04-06-2010 20:00:00 29.04 C 20.4000 % 4.1 C
982 04-06-2010 21:00:00 24.3 C 28.4000 % 4.84 C
983 04-06-2010 22:00:00 22.02 C 35.4000 % 6.03 C
984 04-06-2010 23:00:00 19.82 C 44.2000 % 7.29 C
985 05-06-2010 00:00:00 18.16 C 51.0000 % 7.87 C
986 05-06-2010 01:00:00 17.14 C 54.6000 % 7.93 C
987 05-06-2010 02:00:00 15.82 C 60.6000 % 8.22 C
988 05-06-2010 03:00:00 14.84 C 66.4000 % 8.64 C
989 05-06-2010 04:00:00 14.34 C 67.8000 % 8.48 C
990 05-06-2010 05:00:00 13.44 C 71.0000 % 8.29 C
991 05-06-2010 06:00:00 13.12 C 74.0000 % 8.6 C
992 05-06-2010 07:00:00 13.76 C 72.2000 % 8.85 C
993 05-06-2010 08:00:00 15.12 C 65.2000 % 8.64 C
994 05-06-2010 09:00:00 17.9 C 56.6000 % 9.16 C
995 05-06-2010 10:00:00 21.54 C 47.6000 % 9.95 C
996 05-06-2010 11:00:00 25.04 C 36.6000 % 9.18 C
997 05-06-2010 12:00:00 28.26 C 23.4000 % 5.42 C
998 05-06-2010 13:00:00 30.56 C 20.0000 % 5.06 C
999 05-06-2010 14:00:00 30.24 C 20.0000 % 4.8 C
1000 05-06-2010 15:00:00 31.8 C 20.0000 % 6.08 C
Sensor: Nr:Datum:Temp:Feuchte:Taupunkt:
Aussen-T/F 1001 05-06-2010 16:00:00 32.68 C 20.0000 % 6.8 C
1002 05-06-2010 17:00:00 33.16 C 20.0000 % 7.19 C
1003 05-06-2010 18:00:00 33.08 C 20.0000 % 7.13 C
1004 05-06-2010 19:00:00 31.78 C 21.2000 % 6.91 C
1005 05-06-2010 20:00:00 29.04 C 27.2000 % 8.26 C
1006 05-06-2010 21:00:00 25.36 C 33.0000 % 7.93 C
1007 05-06-2010 22:00:00 23.38 C 39.4000 % 8.8 C
1008 05-06-2010 23:00:00 21.88 C 43.0000 % 8.75 C
1009 06-06-2010 00:00:00 20.7 C 48.0000 % 9.3 C
1010 06-06-2010 01:00:00 19.28 C 54.0000 % 9.75 C
1011 06-06-2010 02:00:00 18.18 C 60.0000 % 10.3 C
1012 06-06-2010 03:00:00 17.36 C 62.4000 % 10.11 C
1013 06-06-2010 04:00:00 16.4 C 65.4000 % 9.9 C
1014 06-06-2010 05:00:00 15.46 C 69.8000 % 9.98 C
1015 06-06-2010 06:00:00 15.32 C 72.0000 % 10.31 C
1016 06-06-2010 07:00:00 16.06 C 69.6000 % 10.51 C
1017 06-06-2010 08:00:00 17.32 C 63.2000 % 10.26 C
1018 06-06-2010 09:00:00 19.54 C 53.4000 % 9.82 C
1019 06-06-2010 10:00:00 23.1 C 45.4000 % 10.66 C
1020 06-06-2010 11:00:00 27.14 C 37.0000 % 11.2 C
1021 06-06-2010 12:00:00 29.56 C 29.4000 % 9.86 C
1022 06-06-2010 13:00:00 30.1 C 27.0000 % 9.05 C
1023 06-06-2010 14:00:00 30.16 C 27.2000 % 9.21 C
1024 06-06-2010 15:00:00 31.12 C 24.0000 % 8.17 C
1025 06-06-2010 16:00:00 23.76 C 49.6000 % 12.6 C
Sensor: Nr:Datum:Temp:Feuchte:Taupunkt:
Aussen-T/F 1026 06-06-2010 17:00:00 18.7 C 85.0000 % 16.13 C
1027 06-06-2010 18:00:00 19.2 C 86.2000 % 16.84 C
1028 06-06-2010 19:00:00 19.22 C 86.2000 % 16.86 C
1029 06-06-2010 20:00:00 19 C 86.8000 % 16.75 C
1030 06-06-2010 21:00:00 18.6 C 87.0000 % 16.39 C
1031 06-06-2010 22:00:00 18.34 C 87.2000 % 16.17 C
1032 06-06-2010 23:00:00 18.3 C 86.4000 % 15.99 C
1033 07-06-2010 00:00:00 17.92 C 88.0000 % 15.9 C
1034 07-06-2010 01:00:00 17.82 C 90.6000 % 16.26 C
1035 07-06-2010 02:00:00 17.36 C 84.4000 % 14.7 C
1036 07-06-2010 03:00:00 15.46 C 76.4000 % 11.33 C
1037 07-06-2010 04:00:00 14 C 75.4000 % 9.72 C
1038 07-06-2010 05:00:00 13.6 C 77.8000 % 9.8 C
1039 07-06-2010 06:00:00 14.4 C 75.8000 % 10.19 C
1040 07-06-2010 07:00:00 15.04 C 71.4000 % 9.91 C
1041 07-06-2010 08:00:00 15.54 C 70.4000 % 10.18 C
1042 07-06-2010 09:00:00 17.08 C 63.4000 % 10.08 C
1043 07-06-2010 10:00:00 18.32 C 57.2000 % 9.71 C
1044 07-06-2010 11:00:00 19.46 C 52.0000 % 9.35 C
1045 07-06-2010 12:00:00 21.94 C 41.0000 % 8.1 C
1046 07-06-2010 13:00:00 23.78 C 33.8000 % 6.9 C
1047 07-06-2010 14:00:00 24 C 32.0000 % 6.3 C
1048 07-06-2010 15:00:00 24.3 C 30.0000 % 5.63 C
1049 07-06-2010 16:00:00 25.22 C 27.4000 % 5.12 C
1050 07-06-2010 17:00:00 24.66 C 26.4000 % 4.11 C
Sensor: Nr:Datum:Temp:Feuchte:Taupunkt:
Aussen-T/F 1051 07-06-2010 18:00:00 25.92 C 21.8000 % 2.46 C
1052 07-06-2010 19:00:00 25.44 C 22.4000 % 2.44 C
1053 07-06-2010 20:00:00 23.08 C 29.0000 % 4.09 C
1054 07-06-2010 21:00:00 20.04 C 39.2000 % 5.75 C
1055 07-06-2010 22:00:00 18.48 C 46.4000 % 6.78 C
1056 07-06-2010 23:00:00 17.26 C 55.0000 % 8.15 C
1057 08-06-2010 00:00:00 16.34 C 61.0000 % 8.81 C
1058 08-06-2010 01:00:00 15.22 C 65.4000 % 8.78 C
1059 08-06-2010 02:00:00 14.26 C 68.2000 % 8.49 C
1060 08-06-2010 03:00:00 13.84 C 70.0000 % 8.47 C
1061 08-06-2010 04:00:00 13.2 C 71.6000 % 8.19 C
1062 08-06-2010 05:00:00 13.4 C 72.4000 % 8.54 C
1063 08-06-2010 06:00:00 13.66 C 73.0000 % 8.91 C
1064 08-06-2010 07:00:00 14.36 C 71.4000 % 9.26 C
1065 08-06-2010 08:00:00 16.5 C 63.4000 % 9.53 C
1066 08-06-2010 09:00:00 19.18 C 54.4000 % 9.77 C
1067 08-06-2010 10:00:00 21.92 C 45.2000 % 9.52 C
1068 08-06-2010 11:00:00 25.46 C 34.2000 % 8.55 C
1069 08-06-2010 12:00:00 27.92 C 26.6000 % 6.98 C
1070 08-06-2010 13:00:00 27.58 C 25.4000 % 6.03 C
1071 08-06-2010 14:00:00 26.28 C 33.2000 % 8.83 C
1072 08-06-2010 15:00:00 26.36 C 33.8000 % 9.16 C
1073 08-06-2010 16:00:00 22.62 C 42.2000 % 9.13 C
1074 08-06-2010 17:00:00 20.84 C 57.8000 % 12.22 C
1075 08-06-2010 18:00:00 23.06 C 49.2000 % 11.83 C
Sensor: Nr:Datum:Temp:Feuchte:Taupunkt:
Aussen-T/F 1076 08-06-2010 19:00:00 23.2 C 48.8000 % 11.84 C
1077 08-06-2010 20:00:00 22 C 53.8000 % 12.21 C
1078 08-06-2010 21:00:00 20.6 C 60.6000 % 12.72 C
1079 08-06-2010 22:00:00 18.56 C 77.4000 % 14.53 C
1080 08-06-2010 23:00:00 18.08 C 81.0000 % 14.77 C
1081 09-06-2010 00:00:00 17.74 C 83.0000 % 14.82 C
1082 09-06-2010 01:00:00 17.68 C 81.8000 % 14.53 C
1083 09-06-2010 02:00:00 17.08 C 81.6000 % 13.91 C
1084 09-06-2010 03:00:00 17.06 C 83.2000 % 14.19 C
1085 09-06-2010 04:00:00 16.96 C 83.6000 % 14.17 C
1086 09-06-2010 05:00:00 16.84 C 83.8000 % 14.08 C
1087 09-06-2010 06:00:00 17.06 C 82.4000 % 14.04 C
1088 09-06-2010 07:00:00 18.2 C 78.8000 % 14.46 C
1089 09-06-2010 08:00:00 19.94 C 71.6000 % 14.66 C
1090 09-06-2010 09:00:00 21.8 C 61.8000 % 14.15 C
1091 09-06-2010 10:00:00 23.72 C 53.4000 % 13.69 C
1092 09-06-2010 11:00:00 25.56 C 42.8000 % 11.99 C
1093 09-06-2010 12:00:00 26.4 C 35.8000 % 10.05 C
1094 09-06-2010 13:00:00 26.72 C 35.4000 % 10.16 C
1095 09-06-2010 14:00:00 28.74 C 32.2000 % 10.51 C
1096 09-06-2010 15:00:00 29.54 C 27.6000 % 8.9 C
1097 09-06-2010 16:00:00 29.34 C 25.8000 % 7.74 C
1098 09-06-2010 17:00:00 27.86 C 34.0000 % 10.56 C
1099 09-06-2010 18:00:00 26.7 C 36.6000 % 10.65 C
1100 09-06-2010 19:00:00 26.16 C 39.6000 % 11.35 C
Sensor: Nr:Datum:Temp:Feuchte:Taupunkt:
Aussen-T/F 1101 09-06-2010 20:00:00 24.78 C 41.4000 % 10.79 C
1102 09-06-2010 21:00:00 23.4 C 43.8000 % 10.39 C
1103 09-06-2010 22:00:00 22.96 C 42.0000 % 9.37 C
1104 09-06-2010 23:00:00 19.26 C 75.6000 % 14.84 C
1105 10-06-2010 00:00:00 18.04 C 86.8000 % 15.81 C
1106 10-06-2010 01:00:00 17.6 C 90.6000 % 16.04 C
1107 10-06-2010 02:00:00 17.18 C 91.8000 % 15.84 C
1108 10-06-2010 03:00:00 16.98 C 91.4000 % 15.57 C
1109 10-06-2010 04:00:00 17.06 C 90.2000 % 15.44 C
1110 10-06-2010 05:00:00 16.88 C 91.6000 % 15.5 C
1111 10-06-2010 06:00:00 17.28 C 92.0000 % 15.97 C
1112 10-06-2010 07:00:00 17.9 C 90.8000 % 16.38 C
1113 10-06-2010 08:00:00 18.96 C 88.2000 % 16.96 C
1114 10-06-2010 09:00:00 19.46 C 85.2000 % 16.91 C
1115 10-06-2010 10:00:00 21.34 C 73.4000 % 16.39 C
1116 10-06-2010 11:00:00 22.12 C 65.6000 % 15.38 C
1117 10-06-2010 12:00:00 24.96 C 49.4000 % 13.63 C
1118 10-06-2010 13:00:00 27.26 C 41.2000 % 12.94 C
1119 10-06-2010 14:00:00 27.86 C 44.8000 % 14.76 C
1120 10-06-2010 15:00:00 28.3 C 42.8000 % 14.45 C
1121 10-06-2010 16:00:00 26.8 C 52.0000 % 16.12 C
1122 10-06-2010 17:00:00 28.94 C 44.4000 % 15.6 C
1123 10-06-2010 18:00:00 30.9 C 34.6000 % 13.48 C
1124 10-06-2010 19:00:00 31.24 C 36.2000 % 14.48 C
1125 10-06-2010 20:00:00 28.08 C 51.0000 % 16.99 C
Sensor: Nr:Datum:Temp:Feuchte:Taupunkt:
Aussen-T/F 1126 10-06-2010 21:00:00 24.96 C 55.8000 % 15.52 C
1127 10-06-2010 22:00:00 24.24 C 55.0000 % 14.63 C
1128 10-06-2010 23:00:00 22 C 59.2000 % 13.67 C
1129 11-06-2010 00:00:00 18.88 C 75.8000 % 14.52 C
1130 11-06-2010 01:00:00 17.84 C 88.8000 % 15.97 C
1131 11-06-2010 02:00:00 17.58 C 91.6000 % 16.2 C
1132 11-06-2010 03:00:00 17.4 C 92.8000 % 16.22 C
1133 11-06-2010 04:00:00 17.1 C 93.0000 % 15.96 C
1134 11-06-2010 05:00:00 17 C 93.8000 % 15.99 C
1135 11-06-2010 06:00:00 16.98 C 94.2000 % 16.04 C
1136 11-06-2010 07:00:00 16.88 C 95.0000 % 16.07 C
1137 11-06-2010 08:00:00 17.04 C 91.2000 % 15.59 C
1138 11-06-2010 09:00:00 19.32 C 82.2000 % 16.21 C
1139 11-06-2010 10:00:00 20.7 C 65.4000 % 13.98 C
1140 11-06-2010 11:00:00 22.76 C 53.4000 % 12.8 C
1141 11-06-2010 12:00:00 25.64 C 36.4000 % 9.63 C
1142 11-06-2010 13:00:00 27.58 C 29.0000 % 7.96 C
1143 11-06-2010 14:00:00 27.12 C 29.4000 % 7.76 C
1144 11-06-2010 15:00:00 28.68 C 26.0000 % 7.29 C
1145 11-06-2010 16:00:00 29.92 C 22.8000 % 6.42 C
1146 11-06-2010 17:00:00 30.58 C 20.2000 % 5.22 C
1147 11-06-2010 18:00:00 30.74 C 20.0000 % 5.21 C
1148 11-06-2010 19:00:00 30.7 C 20.6000 % 5.6 C
1149 11-06-2010 20:00:00 28.08 C 26.6000 % 7.12 C
1150 11-06-2010 21:00:00 24.48 C 38.0000 % 9.24 C
Sensor: Nr:Datum:Temp:Feuchte:Taupunkt:
Aussen-T/F 1151 11-06-2010 22:00:00 23.54 C 38.0000 % 8.41 C
1152 11-06-2010 23:00:00 22.86 C 37.6000 % 7.65 C
1153 12-06-2010 00:00:00 21.9 C 46.0000 % 9.77 C
1154 12-06-2010 01:00:00 20.94 C 53.6000 % 11.18 C
1155 12-06-2010 02:00:00 20.24 C 57.0000 % 11.45 C
1156 12-06-2010 03:00:00 19.74 C 59.6000 % 11.66 C
1157 12-06-2010 04:00:00 19.32 C 63.6000 % 12.25 C
1158 12-06-2010 05:00:00 18.72 C 69.4000 % 13.01 C
1159 12-06-2010 06:00:00 18.58 C 70.2000 % 13.05 C
1160 12-06-2010 07:00:00 18.38 C 77.4000 % 14.36 C
1161 12-06-2010 08:00:00 18.78 C 77.2000 % 14.71 C
1162 12-06-2010 09:00:00 19.28 C 70.0000 % 13.68 C
1163 12-06-2010 10:00:00 20.34 C 59.2000 % 12.12 C
1164 12-06-2010 11:00:00 22.44 C 48.2000 % 10.96 C
1165 12-06-2010 12:00:00 23.3 C 41.6000 % 9.53 C
1166 12-06-2010 13:00:00 24.16 C 38.6000 % 9.19 C
1167 12-06-2010 14:00:00 24.48 C 37.8000 % 9.16 C
1168 12-06-2010 15:00:00 22.98 C 45.0000 % 10.42 C
1169 12-06-2010 16:00:00 17.04 C 70.6000 % 11.66 C
1170 12-06-2010 17:00:00 14.22 C 80.6000 % 10.93 C
1171 12-06-2010 18:00:00 14.62 C 80.8000 % 11.36 C
1172 12-06-2010 19:00:00 14.82 C 77.2000 % 10.87 C
1173 12-06-2010 20:00:00 15.34 C 72.8000 % 10.49 C
1174 12-06-2010 21:00:00 14.98 C 73.4000 % 10.27 C
1175 12-06-2010 22:00:00 14.5 C 75.8000 % 10.28 C
Sensor: Nr:Datum:Temp:Feuchte:Taupunkt:
Aussen-T/F 1176 12-06-2010 23:00:00 13.28 C 77.8000 % 9.49 C
1177 13-06-2010 00:00:00 12.68 C 80.2000 % 9.36 C
1178 13-06-2010 01:00:00 13.3 C 81.4000 % 10.19 C
1179 13-06-2010 02:00:00 13.14 C 82.8000 % 10.28 C
1180 13-06-2010 03:00:00 12.16 C 86.4000 % 9.96 C
1181 13-06-2010 04:00:00 11.32 C 85.2000 % 8.93 C
1182 13-06-2010 05:00:00 10.82 C 84.2000 % 8.26 C
1183 13-06-2010 06:00:00 10.5 C 84.8000 % 8.05 C
1184 13-06-2010 07:00:00 11.38 C 84.4000 % 8.85 C
1185 13-06-2010 08:00:00 13.16 C 71.4000 % 8.11 C
1186 13-06-2010 09:00:00 15.84 C 56.6000 % 7.24 C
1187 13-06-2010 10:00:00 17.76 C 41.6000 % 4.56 C
1188 13-06-2010 11:00:00 19.54 C 35.2000 % 3.76 C
1189 13-06-2010 12:00:00 22.84 C 26.0000 % 2.35 C
1190 13-06-2010 13:00:00 24.8 C 21.4000 % 1.27 C
1191 13-06-2010 14:00:00 24.12 C 22.4000 % 1.34 C
1192 13-06-2010 15:00:00 24.62 C 20.8000 % 0.73 C
1193 13-06-2010 16:00:00 25.02 C 20.0000 % 0.52 C
1194 13-06-2010 17:00:00 26.06 C 20.0000 % 1.37 C
1195 13-06-2010 18:00:00 26.44 C 20.0000 % 1.69 C
1196 13-06-2010 19:00:00 25.06 C 21.0000 % 1.23 C
1197 13-06-2010 20:00:00 23.9 C 24.2000 % 2.24 C
1198 13-06-2010 21:00:00 19.64 C 37.6000 % 4.79 C
1199 13-06-2010 22:00:00 17.64 C 43.0000 % 4.92 C
1200 13-06-2010 23:00:00 16.28 C 50.0000 % 5.85 C
Sensor: Nr:Datum:Temp:Feuchte:Taupunkt:
Aussen-T/F 1201 14-06-2010 00:00:00 15.44 C 56.8000 % 6.92 C
1202 14-06-2010 01:00:00 14.52 C 59.2000 % 6.66 C
1203 14-06-2010 02:00:00 13.46 C 65.8000 % 7.2 C
1204 14-06-2010 03:00:00 12.66 C 70.8000 % 7.5 C
1205 14-06-2010 04:00:00 11.98 C 73.8000 % 7.46 C
1206 14-06-2010 05:00:00 11.48 C 74.2000 % 7.05 C
1207 14-06-2010 06:00:00 11.28 C 76.8000 % 7.36 C
1208 14-06-2010 07:00:00 11.7 C 78.6000 % 8.11 C
1209 14-06-2010 08:00:00 13.38 C 72.6000 % 8.56 C
1210 14-06-2010 09:00:00 16.82 C 56.2000 % 8.05 C
1211 14-06-2010 10:00:00 19.96 C 42.6000 % 6.88 C
1212 14-06-2010 11:00:00 22.92 C 31.8000 % 5.27 C
1213 14-06-2010 12:00:00 25.18 C 23.8000 % 3.08 C
1214 14-06-2010 13:00:00 26.34 C 21.0000 % 2.29 C
1215 14-06-2010 14:00:00 27.44 C 20.0000 % 2.51 C
1216 14-06-2010 15:00:00 26.9 C 20.8000 % 2.61 C
1217 14-06-2010 16:00:00 29.82 C 20.0000 % 4.46 C
1218 14-06-2010 17:00:00 29.14 C 20.0000 % 3.9 C
1219 14-06-2010 18:00:00 28.48 C 20.0000 % 3.36 C
1220 14-06-2010 19:00:00 25.2 C 27.0000 % 4.89 C
1221 14-06-2010 20:00:00 23.26 C 30.4000 % 4.92 C
1222 14-06-2010 21:00:00 20.06 C 35.4000 % 4.3 C
1223 14-06-2010 22:00:00 18.62 C 46.6000 % 6.97 C
1224 14-06-2010 23:00:00 18.36 C 54.6000 % 9.06 C
1225 15-06-2010 00:00:00 17.08 C 60.0000 % 9.26 C
Sensor: Nr:Datum:Temp:Feuchte:Taupunkt:
Aussen-T/F 1226 15-06-2010 01:00:00 16.02 C 66.2000 % 9.72 C
1227 15-06-2010 02:00:00 15.26 C 70.8000 % 10 C
1228 15-06-2010 03:00:00 14.64 C 74.2000 % 10.1 C
1229 15-06-2010 04:00:00 13.76 C 77.2000 % 9.84 C
1230 15-06-2010 05:00:00 13.48 C 79.8000 % 10.06 C
1231 15-06-2010 06:00:00 13.58 C 80.4000 % 10.27 C
1232 15-06-2010 07:00:00 14.92 C 77.0000 % 10.93 C
1233 15-06-2010 08:00:00 16.68 C 64.2000 % 9.89 C
1234 15-06-2010 09:00:00 17.7 C 55.4000 % 8.66 C
1235 15-06-2010 10:00:00 19.72 C 46.8000 % 8.04 C
1236 15-06-2010 11:00:00 20.7 C 44.6000 % 8.22 C
1237 15-06-2010 12:00:00 21.26 C 44.0000 % 8.53 C
1238 15-06-2010 13:00:00 21.56 C 40.8000 % 7.69 C
1239 15-06-2010 14:00:00 22.5 C 34.4000 % 6.04 C
1240 15-06-2010 15:00:00 23.76 C 28.0000 % 4.18 C
1241 15-06-2010 16:00:00 24.42 C 26.2000 % 3.8 C
1242 15-06-2010 17:00:00 24.16 C 25.6000 % 3.25 C
1243 15-06-2010 18:00:00 24.32 C 25.4000 % 3.27 C
1244 15-06-2010 19:00:00 23.36 C 26.0000 % 2.79 C
1245 15-06-2010 20:00:00 21.58 C 30.0000 % 3.28 C
1246 15-06-2010 21:00:00 19.18 C 34.2000 % 3.04 C
1247 15-06-2010 22:00:00 17.525 C 36.7500 % 2.59 C
1248 15-06-2010 23:00:00 16.16 C 43.0000 % 3.59 C
1249 16-06-2010 00:00:00 14.68 C 48.0000 % 3.8 C
1250 16-06-2010 01:00:00 13.4 C 53.4000 % 4.13 C
Sensor: Nr:Datum:Temp:Feuchte:Taupunkt:
Aussen-T/F 1251 16-06-2010 02:00:00 12.7 C 55.2000 % 3.95 C
1252 16-06-2010 03:00:00 11.82 C 57.8000 % 3.79 C
1253 16-06-2010 04:00:00 11.2 C 60.6000 % 3.87 C
1254 16-06-2010 05:00:00 10.66 C 63.2000 % 3.96 C
1255 16-06-2010 06:00:00 10.7 C 65.6000 % 4.53 C
1256 16-06-2010 07:00:00 11.82 C 64.4000 % 5.33 C
1257 16-06-2010 08:00:00 13.7 C 53.6000 % 4.47 C
1258 16-06-2010 09:00:00 15.96 C 42.2000 % 3.14 C
1259 16-06-2010 10:00:00 18.16 C 33.6000 % 1.9 C
1260 16-06-2010 11:00:00 20.48 C 25.8000 % 0.24 C
1261 16-06-2010 12:00:00 23.42 C 21.0000 % -0.13 C
1262 16-06-2010 13:00:00 26.24 C 20.0000 % 1.52 C
1263 16-06-2010 14:00:00 25.56 C 20.0000 % 0.96 C
1264 16-06-2010 15:00:00 26.16 C 20.0000 % 1.46 C
1265 16-06-2010 16:00:00 27.08 C 20.0000 % 2.21 C
1266 16-06-2010 17:00:00 26.94 C 20.0000 % 2.1 C
1267 16-06-2010 18:00:00 26.62 C 20.0000 % 1.83 C
1268 16-06-2010 19:00:00 25.08 C 20.8000 % 1.11 C
1269 16-06-2010 20:00:00 22.84 C 25.8000 % 2.24 C
1270 16-06-2010 21:00:00 20.76 C 32.4000 % 3.66 C
1271 16-06-2010 22:00:00 18.58 C 36.2000 % 3.31 C
1272 16-06-2010 23:00:00 17.32 C 40.0000 % 3.6 C
1273 17-06-2010 00:00:00 16.12 C 43.6000 % 3.75 C
1274 17-06-2010 01:00:00 15.38 C 46.2000 % 3.9 C
1275 17-06-2010 02:00:00 14.76 C 48.6000 % 4.05 C
Sensor: Nr:Datum:Temp:Feuchte:Taupunkt:
Aussen-T/F 1276 17-06-2010 03:00:00 14.48 C 49.2000 % 3.97 C
1277 17-06-2010 04:00:00 14.14 C 48.8000 % 3.54 C
1278 17-06-2010 05:00:00 13.62 C 49.6000 % 3.29 C
1279 17-06-2010 06:00:00 13.84 C 51.4000 % 4 C
1280 17-06-2010 07:00:00 15.14 C 48.6000 % 4.4 C
1281 17-06-2010 08:00:00 16.54 C 47.0000 % 5.2 C
1282 17-06-2010 09:00:00 14.46 C 65.0000 % 7.97 C
1283 17-06-2010 10:00:00 13.04 C 84.6000 % 10.51 C
1284 17-06-2010 11:00:00 13.8 C 88.2000 % 11.88 C
1285 17-06-2010 12:00:00 13.86 C 89.4000 % 12.15 C
1286 17-06-2010 13:00:00 13.78 C 90.8000 % 12.3 C
1287 17-06-2010 14:00:00 14.36 C 91.8000 % 13.04 C
1288 17-06-2010 15:00:00 16.58 C 86.6000 % 14.34 C
1289 17-06-2010 16:00:00 16.92 C 83.6000 % 14.13 C
1290 17-06-2010 17:00:00 16.7 C 83.2000 % 13.84 C
1291 17-06-2010 18:00:00 17.12 C 80.2000 % 13.68 C
1292 17-06-2010 19:00:00 16.62 C 84.6000 % 14.02 C
1293 17-06-2010 20:00:00 15.82 C 87.6000 % 13.77 C
1294 17-06-2010 21:00:00 15.46 C 89.0000 % 13.66 C
1295 17-06-2010 22:00:00 15.06 C 90.2000 % 13.47 C
1296 17-06-2010 23:00:00 14.46 C 91.0000 % 13.01 C
1297 18-06-2010 00:00:00 13.8 C 91.6000 % 12.46 C
1298 18-06-2010 01:00:00 14.04 C 92.0000 % 12.76 C
1299 18-06-2010 02:00:00 13.76 C 92.0000 % 12.48 C
1300 18-06-2010 03:00:00 13.48 C 91.8000 % 12.17 C
Sensor: Nr:Datum:Temp:Feuchte:Taupunkt:
Aussen-T/F 1301 18-06-2010 04:00:00 12.5 C 91.0000 % 11.07 C
1302 18-06-2010 05:00:00 12.1 C 91.0000 % 10.68 C
1303 18-06-2010 06:00:00 12.18 C 90.8000 % 10.72 C
1304 18-06-2010 07:00:00 12.74 C 88.4000 % 10.87 C
1305 18-06-2010 08:00:00 13.64 C 83.4000 % 10.88 C
1306 18-06-2010 09:00:00 15.48 C 73.8000 % 10.83 C
1307 18-06-2010 10:00:00 16.56 C 66.2000 % 10.23 C
1308 18-06-2010 11:00:00 16.18 C 64.8000 % 9.56 C
1309 18-06-2010 12:00:00 15.46 C 66.8000 % 9.32 C
1310 18-06-2010 13:00:00 15.84 C 63.6000 % 8.96 C
1311 18-06-2010 14:00:00 14.86 C 66.8000 % 8.75 C
1312 18-06-2010 15:00:00 14.94 C 65.8000 % 8.6 C
1313 18-06-2010 16:00:00 15.38 C 63.4000 % 8.47 C
1314 18-06-2010 17:00:00 19.16 C 44.2000 % 6.69 C
1315 18-06-2010 18:00:00 21.46 C 36.8000 % 6.1 C
1316 18-06-2010 19:00:00 19.52 C 43.0000 % 6.62 C
1317 18-06-2010 20:00:00 17.82 C 50.2000 % 7.32 C
1318 18-06-2010 21:00:00 15.02 C 74.2000 % 10.47 C
1319 18-06-2010 22:00:00 14.86 C 75.0000 % 10.47 C
1320 18-06-2010 23:00:00 14.8 C 59.4000 % 6.97 C
1321 19-06-2010 00:00:00 14.4 C 55.8000 % 5.69 C
1322 19-06-2010 01:00:00 13.6 C 60.6000 % 6.13 C
1323 19-06-2010 02:00:00 12.56 C 62.0000 % 5.48 C
1324 19-06-2010 03:00:00 12.08 C 62.4000 % 5.12 C
1325 19-06-2010 04:00:00 10.94 C 65.8000 % 4.8 C
Sensor: Nr:Datum:Temp:Feuchte:Taupunkt:
Aussen-T/F 1326 19-06-2010 05:00:00 11.14 C 65.2000 % 4.86 C
1327 19-06-2010 06:00:00 11.5 C 66.0000 % 5.38 C
1328 19-06-2010 07:00:00 11.86 C 63.4000 % 5.14 C
1329 19-06-2010 08:00:00 11.96 C 60.8000 % 4.64 C
1330 19-06-2010 09:00:00 12.48 C 60.2000 % 4.99 C
1331 19-06-2010 10:00:00 12.22 C 61.4000 % 5.02 C
1332 19-06-2010 11:00:00 14.74 C 49.6000 % 4.32 C
1333 19-06-2010 12:00:00 16.28 C 38.8000 % 2.25 C
1334 19-06-2010 13:00:00 16.96 C 41.4000 % 3.77 C
1335 19-06-2010 14:00:00 18.26 C 32.2000 % 1.39 C
1336 19-06-2010 15:00:00 18.32 C 30.8000 % 0.83 C
1337 19-06-2010 16:00:00 18.72 C 31.0000 % 1.26 C
1338 19-06-2010 17:00:00 17.66 C 34.0000 % 1.62 C
1339 19-06-2010 18:00:00 16.34 C 39.4000 % 2.52 C
1340 19-06-2010 19:00:00 16.68 C 37.8000 % 2.24 C
1341 19-06-2010 20:00:00 14.7 C 45.4000 % 3.03 C
1342 19-06-2010 21:00:00 14.14 C 50.8000 % 4.11 C
1343 19-06-2010 22:00:00 12.92 C 53.8000 % 3.79 C
1344 19-06-2010 23:00:00 12.08 C 58.2000 % 4.13 C
1345 20-06-2010 00:00:00 10.92 C 63.8000 % 4.34 C
1346 20-06-2010 01:00:00 10.46 C 61.6000 % 3.41 C
1347 20-06-2010 02:00:00 9.64 C 66.0000 % 3.61 C
1348 20-06-2010 03:00:00 9.46 C 72.4000 % 4.75 C
1349 20-06-2010 04:00:00 9.2 C 78.2000 % 5.61 C
1350 20-06-2010 05:00:00 9.34 C 79.0000 % 5.89 C
Sensor: Nr:Datum:Temp:Feuchte:Taupunkt:
Aussen-T/F 1351 20-06-2010 06:00:00 10.08 C 77.4000 % 6.31 C
1352 20-06-2010 07:00:00 10.44 C 76.4000 % 6.47 C
1353 20-06-2010 08:00:00 10.58 C 83.0000 % 7.82 C
1354 20-06-2010 09:00:00 12.48 C 73.0000 % 7.78 C
1355 20-06-2010 10:00:00 13.54 C 61.8000 % 6.36 C
1356 20-06-2010 11:00:00 13.44 C 59.6000 % 5.74 C
1357 20-06-2010 12:00:00 15.26 C 50.0000 % 4.91 C
1358 20-06-2010 13:00:00 16.36 C 46.0000 % 4.73 C
1359 20-06-2010 14:00:00 16.52 C 41.8000 % 3.51 C
1360 20-06-2010 15:00:00 17.86 C 38.6000 % 3.58 C
1361 20-06-2010 16:00:00 16.74 C 40.0000 % 3.09 C
1362 20-06-2010 17:00:00 16.32 C 41.6000 % 3.26 C
1363 20-06-2010 18:00:00 16.32 C 45.0000 % 4.38 C
1364 20-06-2010 19:00:00 15.68 C 45.0000 % 3.8 C
1365 20-06-2010 20:00:00 15.24 C 47.4000 % 4.13 C
1366 20-06-2010 21:00:00 14.58 C 53.4000 % 5.23 C
1367 20-06-2010 22:00:00 13.78 C 57.8000 % 5.62 C
1368 20-06-2010 23:00:00 12.64 C 62.4000 % 5.65 C
1369 21-06-2010 00:00:00 11.5 C 68.4000 % 5.89 C
1370 21-06-2010 01:00:00 10.94 C 70.4000 % 5.77 C
1371 21-06-2010 02:00:00 10.28 C 73.0000 % 5.66 C
1372 21-06-2010 03:00:00 9.64 C 74.2000 % 5.28 C
1373 21-06-2010 04:00:00 9.16 C 77.0000 % 5.35 C
1374 21-06-2010 05:00:00 8.68 C 79.8000 % 5.39 C
1375 21-06-2010 06:00:00 8.62 C 83.0000 % 5.9 C
Sensor: Nr:Datum:Temp:Feuchte:Taupunkt:
Aussen-T/F 1376 21-06-2010 07:00:00 10.1 C 77.6000 % 6.37 C
1377 21-06-2010 08:00:00 12.54 C 62.8000 % 5.65 C
1378 21-06-2010 09:00:00 13.74 C 51.4000 % 3.91 C
1379 21-06-2010 10:00:00 13.76 C 48.2000 % 3.02 C
1380 21-06-2010 11:00:00 14.68 C 42.8000 % 2.18 C
1381 21-06-2010 12:00:00 15.72 C 39.4000 % 1.96 C
1382 21-06-2010 13:00:00 16.7 C 36.2000 % 1.65 C
1383 21-06-2010 14:00:00 18.62 C 29.4000 % 0.44 C
1384 21-06-2010 15:00:00 18.66 C 28.6000 % 0.1 C
1385 21-06-2010 16:00:00 20.76 C 25.0000 % 0.04 C
1386 21-06-2010 17:00:00 19.58 C 27.4000 % 0.3 C
1387 21-06-2010 18:00:00 18.32 C 31.6000 % 1.18 C
1388 21-06-2010 19:00:00 17.54 C 34.4000 % 1.68 C
1389 21-06-2010 20:00:00 16.82 C 43.0000 % 4.18 C
1390 21-06-2010 21:00:00 15.24 C 47.6000 % 4.19 C
1391 21-06-2010 22:00:00 13.74 C 52.4000 % 4.18 C
1392 21-06-2010 23:00:00 13.32 C 56.0000 % 4.74 C
1393 22-06-2010 00:00:00 12.34 C 60.8000 % 5 C
1394 22-06-2010 01:00:00 12.24 C 64.8000 % 5.82 C
1395 22-06-2010 02:00:00 12.02 C 66.2000 % 5.92 C
1396 22-06-2010 03:00:00 11.82 C 69.2000 % 6.37 C
1397 22-06-2010 04:00:00 11.48 C 71.6000 % 6.53 C
1398 22-06-2010 05:00:00 11.44 C 72.8000 % 6.74 C
1399 22-06-2010 06:00:00 11.58 C 73.4000 % 6.99 C
1400 22-06-2010 07:00:00 12.24 C 71.0000 % 7.14 C
Sensor: Nr:Datum:Temp:Feuchte:Taupunkt:
Aussen-T/F 1401 22-06-2010 08:00:00 13 C 66.0000 % 6.8 C
1402 22-06-2010 09:00:00 15 C 57.4000 % 6.66 C
1403 22-06-2010 10:00:00 18.72 C 39.8000 % 4.79 C
1404 22-06-2010 11:00:00 20.24 C 33.2000 % 3.55 C
1405 22-06-2010 12:00:00 21.08 C 29.8000 % 2.76 C
1406 22-06-2010 13:00:00 21.68 C 27.8000 % 2.3 C
1407 22-06-2010 14:00:00 23.3 C 24.8000 % 2.08 C
1408 22-06-2010 15:00:00 24.54 C 22.0000 % 1.44 C
1409 22-06-2010 16:00:00 24.28 C 22.4000 % 1.48 C
1410 22-06-2010 17:00:00 23.3 C 24.8000 % 2.08 C
1411 22-06-2010 18:00:00 23.14 C 30.2000 % 4.72 C
1412 22-06-2010 19:00:00 23.48 C 29.8000 % 4.83 C
1413 22-06-2010 20:00:00 21.04 C 36.2000 % 5.49 C
1414 22-06-2010 21:00:00 18.02 C 42.0000 % 4.93 C
1415 22-06-2010 22:00:00 16.32 C 49.0000 % 5.6 C
1416 22-06-2010 23:00:00 14.98 C 54.6000 % 5.92 C
1417 23-06-2010 00:00:00 13.8 C 63.0000 % 6.89 C
1418 23-06-2010 01:00:00 12.68 C 69.4000 % 7.23 C
1419 23-06-2010 02:00:00 11.84 C 73.8000 % 7.32 C
1420 23-06-2010 03:00:00 11.02 C 77.0000 % 7.15 C
1421 23-06-2010 04:00:00 10.42 C 79.4000 % 7.01 C
1422 23-06-2010 05:00:00 10 C 81.8000 % 7.04 C
1423 23-06-2010 06:00:00 10.06 C 82.2000 % 7.17 C
1424 23-06-2010 07:00:00 10.64 C 79.4000 % 7.23 C
1425 23-06-2010 08:00:00 11.78 C 74.8000 % 7.46 C
Sensor: Nr:Datum:Temp:Feuchte:Taupunkt:
Aussen-T/F 1426 23-06-2010 09:00:00 14.16 C 64.2000 % 7.5 C
1427 23-06-2010 10:00:00 17.76 C 51.0000 % 7.5 C
1428 23-06-2010 11:00:00 21.04 C 40.4000 % 7.08 C
1429 23-06-2010 12:00:00 25.96 C 24.4000 % 4.09 C
1430 23-06-2010 13:00:00 28.04 C 20.4000 % 3.28 C
1431 23-06-2010 14:00:00 27.64 C 20.4000 % 2.95 C
1432 23-06-2010 15:00:00 28.64 C 20.2000 % 3.63 C
1433 23-06-2010 16:00:00 30.16 C 20.0000 % 4.74 C
1434 23-06-2010 17:00:00 29.46 C 20.0000 % 4.16 C
1435 23-06-2010 18:00:00 30.28 C 20.0000 % 4.83 C
1436 23-06-2010 19:00:00 29.14 C 20.0000 % 3.9 C
1437 23-06-2010 20:00:00 27.38 C 25.0000 % 5.63 C
1438 23-06-2010 21:00:00 22.68 C 34.0000 % 6.03 C
1439 23-06-2010 22:00:00 20.52 C 39.0000 % 6.1 C
1440 23-06-2010 23:00:00 19.12 C 44.2000 % 6.66 C
1441 24-06-2010 00:00:00 17.58 C 52.0000 % 7.62 C
1442 24-06-2010 01:00:00 16.08 C 60.2000 % 8.37 C
1443 24-06-2010 02:00:00 14.98 C 64.8000 % 8.42 C
1444 24-06-2010 03:00:00 14.18 C 68.4000 % 8.45 C
1445 24-06-2010 04:00:00 13.2 C 73.2000 % 8.51 C
1446 24-06-2010 05:00:00 12.62 C 76.0000 % 8.51 C
1447 24-06-2010 06:00:00 12.7 C 76.6000 % 8.7 C
1448 24-06-2010 07:00:00 13.42 C 72.4000 % 8.56 C
1449 24-06-2010 08:00:00 14.76 C 68.0000 % 8.92 C
1450 24-06-2010 09:00:00 17.46 C 57.6000 % 9.01 C
Sensor: Nr:Datum:Temp:Feuchte:Taupunkt:
Aussen-T/F 1451 24-06-2010 10:00:00 21.5 C 45.6000 % 9.27 C
1452 24-06-2010 11:00:00 24.96 C 33.6000 % 7.85 C
1453 24-06-2010 12:00:00 28.72 C 21.4000 % 4.52 C
1454 24-06-2010 13:00:00 30.34 C 20.0000 % 4.88 C
1455 24-06-2010 14:00:00 29.72 C 20.0000 % 4.38 C
1456 24-06-2010 15:00:00 30.9 C 20.0000 % 5.34 C
1457 24-06-2010 16:00:00 31.32 C 20.0000 % 5.69 C
1458 24-06-2010 17:00:00 32.64 C 20.0000 % 6.77 C
1459 24-06-2010 18:00:00 32.64 C 20.0000 % 6.77 C
1460 24-06-2010 19:00:00 31.72 C 20.0000 % 6.01 C
1461 24-06-2010 20:00:00 30.14 C 22.6000 % 6.48 C
1462 24-06-2010 21:00:00 25.24 C 30.4000 % 6.63 C
1463 24-06-2010 22:00:00 22.96 C 36.4000 % 7.26 C
1464 24-06-2010 23:00:00 21.38 C 41.2000 % 7.67 C
1465 25-06-2010 00:00:00 20.04 C 46.4000 % 8.2 C
1466 25-06-2010 01:00:00 18.86 C 51.8000 % 8.74 C
1467 25-06-2010 02:00:00 18.4 C 55.8000 % 9.42 C
1468 25-06-2010 03:00:00 17.06 C 62.8000 % 9.92 C
1469 25-06-2010 04:00:00 16.72 C 65.4000 % 10.21 C
1470 25-06-2010 05:00:00 16.16 C 68.0000 % 10.26 C
1471 25-06-2010 06:00:00 16.22 C 69.0000 % 10.53 C
1472 25-06-2010 07:00:00 17.12 C 66.4000 % 10.81 C
1473 25-06-2010 08:00:00 19.04 C 57.6000 % 10.49 C
1474 25-06-2010 09:00:00 20.38 C 51.8000 % 10.15 C
1475 25-06-2010 10:00:00 22.58 C 43.6000 % 9.58 C
Sensor: Nr:Datum:Temp:Feuchte:Taupunkt:
Aussen-T/F 1476 25-06-2010 11:00:00 24.32 C 37.2000 % 8.78 C
1477 25-06-2010 12:00:00 27.72 C 29.2000 % 8.18 C
1478 25-06-2010 13:00:00 29.04 C 25.2000 % 7.14 C
1479 25-06-2010 14:00:00 28.84 C 24.4000 % 6.51 C
1480 25-06-2010 15:00:00 29.6 C 21.8000 % 5.51 C
1481 25-06-2010 16:00:00 30.24 C 20.0000 % 4.8 C
1482 25-06-2010 17:00:00 30.7 C 20.0000 % 5.18 C
1483 25-06-2010 18:00:00 30.74 C 20.0000 % 5.21 C
1484 25-06-2010 19:00:00 30.2 C 20.2000 % 4.91 C
1485 25-06-2010 20:00:00 28.24 C 21.8000 % 4.39 C
1486 25-06-2010 21:00:00 24.98 C 30.8000 % 6.6 C
1487 25-06-2010 22:00:00 22.64 C 37.0000 % 7.22 C
1488 25-06-2010 23:00:00 21.04 C 42.4000 % 7.78 C
1489 26-06-2010 00:00:00 19.68 C 48.2000 % 8.43 C
1490 26-06-2010 01:00:00 18.6 C 52.2000 % 8.62 C
1491 26-06-2010 02:00:00 17.42 C 57.6000 % 8.98 C
1492 26-06-2010 03:00:00 16.46 C 61.8000 % 9.12 C
1493 26-06-2010 04:00:00 15.5 C 66.8000 % 9.36 C
1494 26-06-2010 05:00:00 14.76 C 70.6000 % 9.48 C
1495 26-06-2010 06:00:00 14.74 C 73.0000 % 9.95 C
1496 26-06-2010 07:00:00 15.38 C 71.0000 % 10.15 C
1497 26-06-2010 08:00:00 16.8 C 66.6000 % 10.55 C
1498 26-06-2010 09:00:00 19.56 C 57.0000 % 10.82 C
1499 26-06-2010 10:00:00 23.02 C 43.2000 % 9.84 C
1500 26-06-2010 11:00:00 26.18 C 29.4000 % 6.96 C
Sensor: Nr:Datum:Temp:Feuchte:Taupunkt:
Aussen-T/F 1501 26-06-2010 12:00:00 29.4 C 22.0000 % 5.48 C
1502 26-06-2010 13:00:00 31.08 C 20.0000 % 5.49 C
1503 26-06-2010 14:00:00 29.52 C 20.0000 % 4.21 C
1504 26-06-2010 15:00:00 30.66 C 20.0000 % 5.15 C
1505 26-06-2010 16:00:00 31.64 C 20.0000 % 5.95 C
1506 26-06-2010 17:00:00 32.84 C 20.0000 % 6.93 C
1507 26-06-2010 18:00:00 32.04 C 20.0000 % 6.27 C
1508 26-06-2010 19:00:00 31.24 C 20.0000 % 5.62 C
1509 26-06-2010 20:00:00 30.14 C 21.2000 % 5.56 C
1510 26-06-2010 21:00:00 25.86 C 29.4000 % 6.68 C
1511 26-06-2010 22:00:00 23.16 C 36.4000 % 7.44 C
1512 26-06-2010 23:00:00 21.56 C 41.4000 % 7.9 C
1513 27-06-2010 00:00:00 20.08 C 45.8000 % 8.05 C
1514 27-06-2010 01:00:00 18.76 C 51.8000 % 8.65 C
1515 27-06-2010 02:00:00 17.56 C 57.4000 % 9.05 C
1516 27-06-2010 03:00:00 16.64 C 62.4000 % 9.43 C
1517 27-06-2010 04:00:00 15.76 C 66.2000 % 9.47 C
1518 27-06-2010 05:00:00 15.04 C 69.4000 % 9.49 C
1519 27-06-2010 06:00:00 14.94 C 72.0000 % 9.94 C
1520 27-06-2010 07:00:00 15.36 C 71.4000 % 10.22 C
1521 27-06-2010 08:00:00 17.04 C 63.8000 % 10.14 C
1522 27-06-2010 09:00:00 20.34 C 53.4000 % 10.56 C
1523 27-06-2010 10:00:00 24.16 C 40.6000 % 9.94 C
1524 27-06-2010 11:00:00 27.22 C 30.0000 % 8.15 C
1525 27-06-2010 12:00:00 30.58 C 20.6000 % 5.5 C
Sensor: Nr:Datum:Temp:Feuchte:Taupunkt:
Aussen-T/F 1526 27-06-2010 13:00:00 31.9 C 20.0000 % 6.16 C
1527 27-06-2010 14:00:00 31.34 C 20.0000 % 5.7 C
1528 27-06-2010 15:00:00 32.44 C 20.0000 % 6.6 C
1529 27-06-2010 16:00:00 33.1 C 20.0000 % 7.14 C
1530 27-06-2010 17:00:00 33.26 C 20.0000 % 7.27 C
1531 27-06-2010 18:00:00 33.72 C 20.0000 % 7.65 C
1532 27-06-2010 19:00:00 33.38 C 20.0000 % 7.37 C
1533 27-06-2010 20:00:00 31.46 C 20.2000 % 5.94 C
1534 27-06-2010 21:00:00 26.92 C 28.2000 % 6.98 C
1535 27-06-2010 22:00:00 24.2 C 34.0000 % 7.36 C
1536 27-06-2010 23:00:00 22.66 C 39.4000 % 8.16 C
1537 28-06-2010 00:00:00 21 C 44.8000 % 8.56 C
1538 28-06-2010 01:00:00 19.78 C 48.0000 % 8.46 C
1539 28-06-2010 02:00:00 18.7 C 54.0000 % 9.21 C
1540 28-06-2010 03:00:00 17.78 C 57.8000 % 9.36 C
1541 28-06-2010 04:00:00 16.78 C 63.2000 % 9.75 C
1542 28-06-2010 05:00:00 16.1 C 67.2000 % 10.02 C
1543 28-06-2010 06:00:00 16.42 C 67.8000 % 10.46 C
1544 28-06-2010 07:00:00 16.8 C 67.8000 % 10.82 C
1545 28-06-2010 08:00:00 18.2 C 61.8000 % 10.76 C
1546 28-06-2010 09:00:00 21.24 C 52.2000 % 11.05 C
1547 28-06-2010 10:00:00 25.26 C 41.4000 % 11.22 C
1548 28-06-2010 11:00:00 28.96 C 31.0000 % 10.13 C
1549 28-06-2010 12:00:00 31.7 C 21.2000 % 6.84 C
1550 28-06-2010 13:00:00 33.08 C 20.0000 % 7.13 C
Sensor: Nr:Datum:Temp:Feuchte:Taupunkt:
Aussen-T/F 1551 28-06-2010 14:00:00 32.52 C 20.0000 % 6.67 C
1552 28-06-2010 15:00:00 32.42 C 20.0000 % 6.59 C
1553 28-06-2010 16:00:00 32.74 C 20.0000 % 6.85 C
1554 28-06-2010 17:00:00 33.18 C 20.0000 % 7.21 C
1555 28-06-2010 18:00:00 32.8 C 20.0000 % 6.9 C
1556 28-06-2010 19:00:00 31.6 C 20.0000 % 5.91 C
1557 28-06-2010 20:00:00 30.48 C 22.0000 % 6.37 C
1558 28-06-2010 21:00:00 27.64 C 27.0000 % 6.96 C
1559 28-06-2010 22:00:00 26.15 C 30.7500 % 7.58 C
1560 28-06-2010 23:00:00 24.98 C 36.0000 % 8.88 C
1561 29-06-2010 00:00:00 23.56 C 41.2000 % 9.62 C
1562 29-06-2010 01:00:00 22.18 C 46.0000 % 10.02 C
1563 29-06-2010 02:00:00 21.12 C 50.4000 % 10.42 C
1564 29-06-2010 03:00:00 20.58 C 53.2000 % 10.73 C
1565 29-06-2010 04:00:00 19.52 C 58.0000 % 11.04 C
1566 29-06-2010 05:00:00 18.7 C 63.8000 % 11.71 C
1567 29-06-2010 06:00:00 18.36 C 66.6000 % 12.04 C
1568 29-06-2010 07:00:00 18.88 C 65.8000 % 12.35 C
1569 29-06-2010 08:00:00 20.02 C 60.8000 % 12.22 C
1570 29-06-2010 09:00:00 22.62 C 50.2000 % 11.73 C
1571 29-06-2010 10:00:00 25.84 C 40.6000 % 11.44 C
1572 29-06-2010 11:00:00 28.5 C 34.4000 % 11.29 C
1573 29-06-2010 12:00:00 31.44 C 24.4000 % 8.69 C
1574 29-06-2010 13:00:00 32.64 C 20.0000 % 6.77 C
1575 29-06-2010 14:00:00 31.54 C 20.2000 % 6.01 C
Sensor: Nr:Datum:Temp:Feuchte:Taupunkt:
Aussen-T/F 1576 29-06-2010 15:00:00 28.6 C 28.4000 % 8.52 C
1577 29-06-2010 16:00:00 27.06 C 42.8000 % 13.34 C
1578 29-06-2010 17:00:00 29.54 C 33.0000 % 11.57 C
1579 29-06-2010 18:00:00 29.1 C 29.8000 % 9.66 C
1580 29-06-2010 19:00:00 28.96 C 30.0000 % 9.64 C
1581 29-06-2010 20:00:00 27.68 C 32.2000 % 9.59 C
1582 29-06-2010 21:00:00 25.38 C 40.4000 % 10.96 C
1583 29-06-2010 22:00:00 23 C 48.0000 % 11.41 C
1584 29-06-2010 23:00:00 21.86 C 53.0000 % 11.86 C
1585 30-06-2010 00:00:00 20.6 C 58.6000 % 12.21 C
1586 30-06-2010 01:00:00 19.5 C 64.4000 % 12.61 C
1587 30-06-2010 02:00:00 18.54 C 69.0000 % 12.75 C
1588 30-06-2010 03:00:00 17.76 C 73.4000 % 12.94 C
1589 30-06-2010 04:00:00 16.96 C 76.4000 % 12.78 C
1590 30-06-2010 05:00:00 16.32 C 78.8000 % 12.63 C
1591 30-06-2010 06:00:00 16.18 C 78.4000 % 12.42 C
1592 30-06-2010 07:00:00 17.32 C 73.0000 % 12.44 C
1593 30-06-2010 08:00:00 18.28 C 70.0000 % 12.72 C
1594 30-06-2010 09:00:00 20.5 C 55.8000 % 11.37 C
1595 30-06-2010 10:00:00 23.6 C 43.8000 % 10.57 C
1596 30-06-2010 11:00:00 26.9 C 33.2000 % 9.37 C
1597 30-06-2010 12:00:00 29.24 C 22.6000 % 5.73 C
1598 30-06-2010 13:00:00 31.84 C 20.0000 % 6.11 C
1599 30-06-2010 14:00:00 31.78 C 20.0000 % 6.06 C
1600 30-06-2010 15:00:00 32.34 C 20.0000 % 6.52 C
Sensor: Nr:Datum:Temp:Feuchte:Taupunkt:
Aussen-T/F 1601 30-06-2010 16:00:00 32.36 C 20.0000 % 6.54 C
1602 30-06-2010 17:00:00 32.34 C 20.0000 % 6.52 C
1603 30-06-2010 18:00:00 32.32 C 20.0000 % 6.5 C
1604 30-06-2010 19:00:00 31.08 C 21.6000 % 6.6 C
1605 30-06-2010 20:00:00 29.74 C 26.6000 % 8.53 C
1606 30-06-2010 21:00:00 26.54 C 31.2000 % 8.13 C
1607 30-06-2010 22:00:00 24.98 C 35.2000 % 8.55 C
1608 30-06-2010 23:00:00 23.8 C 39.8000 % 9.32 C
1609 01-07-2010 00:00:00 22.42 C 43.8000 % 9.51 C
1610 01-07-2010 01:00:00 21.16 C 49.2000 % 10.09 C
1611 01-07-2010 02:00:00 20 C 55.0000 % 10.69 C
1612 01-07-2010 03:00:00 19.06 C 60.2000 % 11.17 C
1613 01-07-2010 04:00:00 18.3 C 63.0000 % 11.14 C
1614 01-07-2010 05:00:00 17.36 C 68.8000 % 11.58 C
1615 01-07-2010 06:00:00 17.12 C 71.4000 % 11.91 C
1616 01-07-2010 07:00:00 17.68 C 69.2000 % 11.97 C
1617 01-07-2010 08:00:00 18.82 C 65.4000 % 12.2 C
1618 01-07-2010 09:00:00 21.8 C 54.6000 % 12.25 C
1619 01-07-2010 10:00:00 25.82 C 42.4000 % 12.08 C
1620 01-07-2010 11:00:00 28.68 C 32.6000 % 10.64 C
1621 01-07-2010 12:00:00 31.1 C 21.8000 % 6.75 C
1622 01-07-2010 13:00:00 32.8 C 20.0000 % 6.9 C
1623 01-07-2010 14:00:00 32.22 C 20.0000 % 6.42 C
1624 01-07-2010 15:00:00 32.88 C 20.0000 % 6.96 C
1625 01-07-2010 16:00:00 33.2 C 20.0000 % 7.22 C
Sensor: Nr:Datum:Temp:Feuchte:Taupunkt:
Aussen-T/F 1626 01-07-2010 17:00:00 33.3 C 20.0000 % 7.3 C
1627 01-07-2010 18:00:00 33.86 C 20.0000 % 7.76 C
1628 01-07-2010 19:00:00 33.46 C 20.0000 % 7.44 C
1629 01-07-2010 20:00:00 31.52 C 23.4000 % 8.14 C
1630 01-07-2010 21:00:00 27.42 C 32.6000 % 9.55 C
1631 01-07-2010 22:00:00 25.5 C 36.0000 % 9.34 C
1632 01-07-2010 23:00:00 24.74 C 37.2000 % 9.16 C
1633 02-07-2010 00:00:00 23.48 C 41.8000 % 9.77 C
1634 02-07-2010 01:00:00 22.46 C 45.4000 % 10.08 C
1635 02-07-2010 02:00:00 21.32 C 48.0000 % 9.87 C
1636 02-07-2010 03:00:00 20.6 C 51.2000 % 10.17 C
1637 02-07-2010 04:00:00 19.68 C 57.0000 % 10.93 C
1638 02-07-2010 05:00:00 18.86 C 60.6000 % 11.08 C
1639 02-07-2010 06:00:00 18.68 C 64.2000 % 11.78 C
1640 02-07-2010 07:00:00 19.52 C 62.6000 % 12.2 C
1641 02-07-2010 08:00:00 20.86 C 58.0000 % 12.29 C
1642 02-07-2010 09:00:00 24.14 C 48.8000 % 12.7 C
1643 02-07-2010 10:00:00 27.86 C 38.6000 % 12.48 C
1644 02-07-2010 11:00:00 30.18 C 32.4000 % 11.85 C
1645 02-07-2010 12:00:00 32.12 C 23.6000 % 8.76 C
1646 02-07-2010 13:00:00 33.36 C 20.0000 % 7.35 C
1647 02-07-2010 14:00:00 32.78 C 21.0000 % 7.59 C
1648 02-07-2010 15:00:00 32.2 C 25.0000 % 9.68 C
1649 02-07-2010 16:00:00 32.46 C 25.4000 % 10.14 C
1650 02-07-2010 17:00:00 34.22 C 20.0000 % 8.06 C
Sensor: Nr:Datum:Temp:Feuchte:Taupunkt:
Aussen-T/F 1651 02-07-2010 18:00:00 33.7 C 20.0000 % 7.63 C
1652 02-07-2010 19:00:00 33.76 C 20.0000 % 7.68 C
1653 02-07-2010 20:00:00 32.56 C 23.2000 % 8.88 C
1654 02-07-2010 21:00:00 29.68 C 28.0000 % 9.23 C
1655 02-07-2010 22:00:00 27.1 C 30.6000 % 8.33 C
1656 02-07-2010 23:00:00 25.62 C 34.4000 % 8.77 C
1657 03-07-2010 00:00:00 24.46 C 40.2000 % 10.06 C
1658 03-07-2010 01:00:00 23.38 C 46.8000 % 11.37 C
1659 03-07-2010 02:00:00 22.52 C 52.2000 % 12.24 C
1660 03-07-2010 03:00:00 21.58 C 56.8000 % 12.65 C
1661 03-07-2010 04:00:00 20.68 C 61.4000 % 12.99 C
1662 03-07-2010 05:00:00 20.02 C 65.4000 % 13.34 C
1663 03-07-2010 06:00:00 20.18 C 65.8000 % 13.58 C
1664 03-07-2010 07:00:00 21.32 C 63.0000 % 13.99 C
1665 03-07-2010 08:00:00 22.58 C 58.8000 % 14.11 C
1666 03-07-2010 09:00:00 25.16 C 52.2000 % 14.67 C
1667 03-07-2010 10:00:00 28.84 C 42.6000 % 14.87 C
1668 03-07-2010 11:00:00 31.3 C 33.4000 % 13.29 C
1669 03-07-2010 12:00:00 33.3 C 21.0000 % 8.02 C
1670 03-07-2010 13:00:00 33.78 C 20.8000 % 8.27 C
1671 03-07-2010 14:00:00 33.72 C 20.0000 % 7.65 C
1672 03-07-2010 15:00:00 31.94 C 23.2000 % 8.36 C
1673 03-07-2010 16:00:00 30.8 C 27.6000 % 9.97 C
1674 03-07-2010 17:00:00 29.4 C 33.6000 % 11.72 C
1675 03-07-2010 18:00:00 26.48 C 42.8000 % 12.82 C
Sensor: Nr:Datum:Temp:Feuchte:Taupunkt:
Aussen-T/F 1676 03-07-2010 19:00:00 27.1 C 44.2000 % 13.87 C
1677 03-07-2010 20:00:00 28.08 C 44.2000 % 14.75 C
1678 03-07-2010 21:00:00 26.24 C 54.4000 % 16.31 C
1679 03-07-2010 22:00:00 25.02 C 61.0000 % 16.97 C
1680 03-07-2010 23:00:00 24.04 C 63.2000 % 16.61 C
1681 04-07-2010 00:00:00 23.46 C 66.4000 % 16.84 C
1682 04-07-2010 01:00:00 22.92 C 67.4000 % 16.56 C
1683 04-07-2010 02:00:00 22.38 C 68.6000 % 16.32 C
1684 04-07-2010 03:00:00 22.16 C 70.4000 % 16.52 C
1685 04-07-2010 04:00:00 21.62 C 73.2000 % 16.62 C
1686 04-07-2010 05:00:00 21.12 C 75.6000 % 16.64 C
1687 04-07-2010 06:00:00 21.64 C 73.6000 % 16.72 C
1688 04-07-2010 07:00:00 22.34 C 70.2000 % 16.65 C
1689 04-07-2010 08:00:00 23.16 C 64.8000 % 16.17 C
1690 04-07-2010 09:00:00 23.54 C 61.0000 % 15.58 C
1691 04-07-2010 10:00:00 24.42 C 56.6000 % 15.24 C
1692 04-07-2010 11:00:00 26.02 C 49.6000 % 14.67 C
1693 04-07-2010 12:00:00 27.94 C 40.6000 % 13.32 C
1694 04-07-2010 13:00:00 30.34 C 31.2000 % 11.42 C
1695 04-07-2010 14:00:00 30.56 C 30.4000 % 11.22 C
1696 04-07-2010 15:00:00 31.98 C 25.2000 % 9.62 C
1697 04-07-2010 16:00:00 32.22 C 23.0000 % 8.46 C
1698 04-07-2010 17:00:00 32.48 C 21.8000 % 7.89 C
1699 04-07-2010 18:00:00 32.5 C 21.8000 % 7.91 C
1700 04-07-2010 19:00:00 30.92 C 27.4000 % 9.97 C
Sensor: Nr:Datum:Temp:Feuchte:Taupunkt:
Aussen-T/F 1701 04-07-2010 20:00:00 31.06 C 27.4000 % 10.09 C
1702 04-07-2010 21:00:00 27.74 C 36.0000 % 11.31 C
1703 04-07-2010 22:00:00 26.44 C 38.4000 % 11.14 C
1704 04-07-2010 23:00:00 25.8 C 38.4000 % 10.57 C
1705 05-07-2010 00:00:00 24.34 C 36.8000 % 8.64 C
1706 05-07-2010 01:00:00 23.26 C 34.2000 % 6.62 C
1707 05-07-2010 02:00:00 21.94 C 36.6000 % 6.44 C
1708 05-07-2010 03:00:00 21.02 C 37.2000 % 5.86 C
1709 05-07-2010 04:00:00 19.96 C 36.4000 % 4.61 C
1710 05-07-2010 05:00:00 18.86 C 39.0000 % 4.62 C
1711 05-07-2010 06:00:00 18.34 C 43.2000 % 5.62 C
1712 05-07-2010 07:00:00 18.44 C 47.4000 % 7.06 C
1713 05-07-2010 08:00:00 19.4 C 42.0000 % 6.17 C
1714 05-07-2010 09:00:00 21.28 C 35.8000 % 5.54 C
1715 05-07-2010 10:00:00 23.7 C 30.0000 % 5.11 C
1716 05-07-2010 11:00:00 26.54 C 26.4000 % 5.7 C
1717 05-07-2010 12:00:00 27.94 C 24.4000 % 5.75 C
1718 05-07-2010 13:00:00 27.88 C 28.0000 % 7.7 C
1719 05-07-2010 14:00:00 26.2 C 32.6000 % 8.49 C
1720 05-07-2010 15:00:00 25.86 C 34.2000 % 8.9 C
1721 05-07-2010 16:00:00 24.76 C 39.2000 % 9.95 C
1722 05-07-2010 17:00:00 23.46 C 47.6000 % 11.7 C
1723 05-07-2010 18:00:00 21.1 C 63.8000 % 13.98 C
1724 05-07-2010 19:00:00 19.32 C 82.0000 % 16.17 C
1725 05-07-2010 20:00:00 19.44 C 78.6000 % 15.62 C
Sensor: Nr:Datum:Temp:Feuchte:Taupunkt:
Aussen-T/F 1726 05-07-2010 21:00:00 18.96 C 79.6000 % 15.36 C
1727 05-07-2010 22:00:00 18.62 C 80.2000 % 15.14 C
1728 05-07-2010 23:00:00 17.88 C 81.8000 % 14.73 C
1729 06-07-2010 00:00:00 17.24 C 81.6000 % 14.07 C
1730 06-07-2010 01:00:00 17.24 C 80.2000 % 13.8 C
1731 06-07-2010 02:00:00 16.84 C 78.6000 % 13.1 C
1732 06-07-2010 03:00:00 16.34 C 78.2000 % 12.54 C
1733 06-07-2010 04:00:00 15.2 C 77.8000 % 11.35 C
1734 06-07-2010 05:00:00 14.86 C 80.6000 % 11.56 C
1735 06-07-2010 06:00:00 14.66 C 79.0000 % 11.06 C
1736 06-07-2010 07:00:00 15.08 C 75.4000 % 10.77 C
1737 06-07-2010 08:00:00 15.9 C 68.2000 % 10.05 C
1738 06-07-2010 09:00:00 17.54 C 55.4000 % 8.51 C
1739 06-07-2010 10:00:00 20.02 C 42.0000 % 6.73 C
1740 06-07-2010 11:00:00 21.48 C 35.0000 % 5.39 C
1741 06-07-2010 12:00:00 23.02 C 26.8000 % 2.93 C
1742 06-07-2010 13:00:00 24.6 C 22.4000 % 1.74 C
1743 06-07-2010 14:00:00 24.28 C 21.4000 % 0.84 C
1744 06-07-2010 15:00:00 24.52 C 20.0000 % 0.11 C
1745 06-07-2010 16:00:00 25.84 C 20.0000 % 1.19 C
1746 06-07-2010 17:00:00 26.92 C 20.0000 % 2.08 C
1747 06-07-2010 18:00:00 25.46 C 20.0000 % 0.88 C
1748 06-07-2010 19:00:00 25.06 C 20.8000 % 1.09 C
1749 06-07-2010 20:00:00 24.3 C 24.0000 % 2.46 C
1750 06-07-2010 21:00:00 21.36 C 33.4000 % 4.62 C
Sensor: Nr:Datum:Temp:Feuchte:Taupunkt:
Aussen-T/F 1751 06-07-2010 22:00:00 18.84 C 40.4000 % 5.11 C
1752 06-07-2010 23:00:00 17.68 C 45.2000 % 5.68 C
1753 07-07-2010 00:00:00 16.5 C 49.0000 % 5.76 C
1754 07-07-2010 01:00:00 15.52 C 56.0000 % 6.79 C
1755 07-07-2010 02:00:00 14.8 C 60.6000 % 7.26 C
1756 07-07-2010 03:00:00 13.92 C 64.8000 % 7.41 C
1757 07-07-2010 04:00:00 13.3 C 67.0000 % 7.31 C
1758 07-07-2010 05:00:00 12.76 C 71.6000 % 7.76 C
1759 07-07-2010 06:00:00 12.7 C 74.0000 % 8.19 C
1760 07-07-2010 07:00:00 13.34 C 72.4000 % 8.49 C
1761 07-07-2010 08:00:00 14.76 C 65.8000 % 8.43 C
1762 07-07-2010 09:00:00 17.66 C 54.0000 % 8.25 C
1763 07-07-2010 10:00:00 21.04 C 43.4000 % 8.13 C
1764 07-07-2010 11:00:00 23.62 C 28.2000 % 4.16 C
1765 07-07-2010 12:00:00 26.78 C 21.0000 % 2.65 C
1766 07-07-2010 13:00:00 29.38 C 20.0000 % 4.1 C
1767 07-07-2010 14:00:00 28.34 C 20.0000 % 3.24 C
1768 07-07-2010 15:00:00 30.4 C 20.0000 % 4.93 C
1769 07-07-2010 16:00:00 31.96 C 20.0000 % 6.21 C
1770 07-07-2010 17:00:00 32.54 C 20.0000 % 6.68 C
1771 07-07-2010 18:00:00 32.88 C 20.0000 % 6.96 C
1772 07-07-2010 19:00:00 32.4 C 20.0000 % 6.57 C
1773 07-07-2010 20:00:00 31.26 C 20.0000 % 5.64 C
1774 07-07-2010 21:00:00 26.86 C 26.2000 % 5.87 C
1775 07-07-2010 22:00:00 24.4 C 30.8000 % 6.1 C
Sensor: Nr:Datum:Temp:Feuchte:Taupunkt:
Aussen-T/F 1776 07-07-2010 23:00:00 23.7 C 33.2000 % 6.57 C
1777 08-07-2010 00:00:00 22.38 C 39.0000 % 7.76 C
1778 08-07-2010 01:00:00 20.54 C 44.8000 % 8.14 C
1779 08-07-2010 02:00:00 19.78 C 48.0000 % 8.46 C
1780 08-07-2010 03:00:00 19.4 C 48.8000 % 8.36 C
1781 08-07-2010 04:00:00 18.52 C 53.2000 % 8.82 C
1782 08-07-2010 05:00:00 17.78 C 55.4000 % 8.74 C
1783 08-07-2010 06:00:00 17.38 C 57.4000 % 8.89 C
1784 08-07-2010 07:00:00 17.92 C 58.4000 % 9.65 C
1785 08-07-2010 08:00:00 19.12 C 54.2000 % 9.66 C
1786 08-07-2010 09:00:00 22.24 C 46.6000 % 10.27 C
1787 08-07-2010 10:00:00 25.96 C 36.8000 % 10.07 C
1788 08-07-2010 11:00:00 29.18 C 24.4000 % 6.79 C
1789 08-07-2010 12:00:00 31.5 C 20.0000 % 5.83 C
1790 08-07-2010 13:00:00 32.88 C 20.0000 % 6.96 C
1791 08-07-2010 14:00:00 32.36 C 20.0000 % 6.54 C
1792 08-07-2010 15:00:00 33.26 C 20.0000 % 7.27 C
1793 08-07-2010 16:00:00 33.62 C 20.0000 % 7.57 C
1794 08-07-2010 17:00:00 33.96 C 20.0000 % 7.84 C
1795 08-07-2010 18:00:00 34.38 C 20.0000 % 8.19 C
1796 08-07-2010 19:00:00 34.14 C 20.0000 % 7.99 C
1797 08-07-2010 20:00:00 33 C 20.2000 % 7.2 C
1798 08-07-2010 21:00:00 29.98 C 27.4000 % 9.17 C
1799 08-07-2010 22:00:00 28.02 C 30.2000 % 8.93 C
1800 08-07-2010 23:00:00 27.12 C 31.2000 % 8.64 C
Sensor: Nr:Datum:Temp:Feuchte:Taupunkt:
Aussen-T/F 1801 09-07-2010 00:00:00 25.66 C 35.2000 % 9.15 C
1802 09-07-2010 01:00:00 23.78 C 41.0000 % 9.75 C
1803 09-07-2010 02:00:00 22.4 C 45.0000 % 9.89 C
1804 09-07-2010 03:00:00 21.24 C 49.6000 % 10.29 C
1805 09-07-2010 04:00:00 20.16 C 54.2000 % 10.62 C
1806 09-07-2010 05:00:00 19.22 C 57.4000 % 10.61 C
1807 09-07-2010 06:00:00 19.06 C 61.0000 % 11.37 C
1808 09-07-2010 07:00:00 19.9 C 58.8000 % 11.6 C
1809 09-07-2010 08:00:00 21.5 C 52.8000 % 11.47 C
1810 09-07-2010 09:00:00 24.16 C 46.2000 % 11.88 C
1811 09-07-2010 10:00:00 27.94 C 38.0000 % 12.31 C
1812 09-07-2010 11:00:00 30.82 C 29.0000 % 10.73 C
1813 09-07-2010 12:00:00 33.14 C 20.0000 % 7.17 C
1814 09-07-2010 13:00:00 34.56 C 20.0000 % 8.33 C
1815 09-07-2010 14:00:00 33.26 C 20.0000 % 7.27 C
1816 09-07-2010 15:00:00 33.48 C 20.0000 % 7.45 C
1817 09-07-2010 16:00:00 32.28 C 22.6000 % 8.26 C
1818 09-07-2010 17:00:00 32.32 C 22.6000 % 8.29 C
1819 09-07-2010 18:00:00 33.42 C 20.0000 % 7.4 C
1820 09-07-2010 19:00:00 33.48 C 20.0000 % 7.45 C
1821 09-07-2010 20:00:00 32.04 C 22.4000 % 7.93 C
1822 09-07-2010 21:00:00 29.94 C 28.8000 % 9.88 C
1823 09-07-2010 22:00:00 28.78 C 33.4000 % 11.09 C
1824 09-07-2010 23:00:00 27.78 C 35.8000 % 11.26 C
1825 10-07-2010 00:00:00 26.3 C 40.8000 % 11.93 C
Sensor: Nr:Datum:Temp:Feuchte:Taupunkt:
Aussen-T/F 1826 10-07-2010 01:00:00 24.96 C 46.0000 % 12.54 C
1827 10-07-2010 02:00:00 24.2 C 49.0000 % 12.81 C
1828 10-07-2010 03:00:00 23.1 C 55.2000 % 13.63 C
1829 10-07-2010 04:00:00 22.34 C 58.0000 % 13.68 C
1830 10-07-2010 05:00:00 21.64 C 61.4000 % 13.9 C
1831 10-07-2010 06:00:00 21.3 C 64.2000 % 14.26 C
1832 10-07-2010 07:00:00 21.9 C 63.4000 % 14.64 C
1833 10-07-2010 08:00:00 23.38 C 57.2000 % 14.43 C
1834 10-07-2010 09:00:00 26.04 C 48.2000 % 14.24 C
1835 10-07-2010 10:00:00 29.44 C 39.2000 % 14.11 C
1836 10-07-2010 11:00:00 31.46 C 28.2000 % 10.86 C
1837 10-07-2010 12:00:00 33.42 C 20.6000 % 7.84 C
1838 10-07-2010 13:00:00 34.8 C 20.0000 % 8.53 C
1839 10-07-2010 14:00:00 34.44 C 20.0000 % 8.24 C
1840 10-07-2010 15:00:00 35.2 C 20.0000 % 8.86 C
1841 10-07-2010 16:00:00 35.62 C 20.0000 % 9.2 C
1842 10-07-2010 17:00:00 35.8 C 20.0000 % 9.35 C
1843 10-07-2010 18:00:00 35.92 C 20.0000 % 9.44 C
1844 10-07-2010 19:00:00 35.38 C 20.0000 % 9 C
1845 10-07-2010 20:00:00 33.58 C 22.4000 % 9.2 C
1846 10-07-2010 21:00:00 31.3 C 29.0000 % 11.14 C
1847 10-07-2010 22:00:00 30.44 C 32.0000 % 11.89 C
1848 10-07-2010 23:00:00 30.2 C 32.0000 % 11.68 C
1849 11-07-2010 00:00:00 29.85 C 32.7500 % 11.73 C
1850 11-07-2010 01:00:00 28.52 C 40.0000 % 13.61 C
Sensor: Nr:Datum:Temp:Feuchte:Taupunkt:
Aussen-T/F 1851 11-07-2010 02:00:00 24.02 C 73.0000 % 18.88 C
1852 11-07-2010 03:00:00 23.38 C 77.4000 % 19.2 C
1853 11-07-2010 04:00:00 21.98 C 84.8000 % 19.3 C
1854 11-07-2010 05:00:00 22 C 83.6000 % 19.09 C
1855 11-07-2010 06:00:00 21.84 C 83.6000 % 18.94 C
1856 11-07-2010 07:00:00 22.76 C 77.6000 % 18.64 C
1857 11-07-2010 08:00:00 24.22 C 70.2000 % 18.45 C
1858 11-07-2010 09:00:00 24.42 C 66.4000 % 17.75 C
1859 11-07-2010 10:00:00 26.8 C 50.8000 % 15.75 C
1860 11-07-2010 11:00:00 28.54 C 43.8000 % 15.03 C
1861 11-07-2010 12:00:00 30.44 C 34.8000 % 13.17 C
1862 11-07-2010 13:00:00 31.66 C 27.6000 % 10.71 C
1863 11-07-2010 14:00:00 32.06 C 24.6000 % 9.33 C
1864 11-07-2010 15:00:00 32.84 C 21.4000 % 7.92 C
1865 11-07-2010 16:00:00 33.7 C 20.0000 % 7.63 C
1866 11-07-2010 17:00:00 34.26 C 20.0000 % 8.09 C
1867 11-07-2010 18:00:00 34.12 C 20.0000 % 7.97 C
1868 11-07-2010 19:00:00 33.92 C 20.0000 % 7.81 C
1869 11-07-2010 20:00:00 33.3 C 21.8000 % 8.57 C
1870 11-07-2010 21:00:00 30.88 C 31.8000 % 12.18 C
1871 11-07-2010 22:00:00 29.82 C 36.2000 % 13.23 C
1872 11-07-2010 23:00:00 28.54 C 39.8000 % 13.55 C
1873 12-07-2010 00:00:00 27.24 C 45.4000 % 14.41 C
1874 12-07-2010 01:00:00 26.02 C 50.6000 % 14.98 C
1875 12-07-2010 02:00:00 25.12 C 54.8000 % 15.39 C
Sensor: Nr:Datum:Temp:Feuchte:Taupunkt:
Aussen-T/F 1876 12-07-2010 03:00:00 24.18 C 59.6000 % 15.82 C
1877 12-07-2010 04:00:00 23.32 C 62.4000 % 15.73 C
1878 12-07-2010 05:00:00 22.66 C 65.4000 % 15.84 C
1879 12-07-2010 06:00:00 22.54 C 66.8000 % 16.06 C
1880 12-07-2010 07:00:00 22.86 C 66.8000 % 16.36 C
1881 12-07-2010 08:00:00 23.86 C 63.2000 % 16.44 C
1882 12-07-2010 09:00:00 26.72 C 53.6000 % 16.52 C
1883 12-07-2010 10:00:00 29.96 C 41.4000 % 15.42 C
1884 12-07-2010 11:00:00 31.78 C 29.8000 % 11.97 C
1885 12-07-2010 12:00:00 31.04 C 25.4000 % 8.94 C
1886 12-07-2010 13:00:00 28.12 C 43.0000 % 14.36 C
1887 12-07-2010 14:00:00 30.7 C 30.0000 % 11.14 C
1888 12-07-2010 15:00:00 31.62 C 24.0000 % 8.59 C
1889 12-07-2010 16:00:00 31.9 C 20.0000 % 6.16 C
1890 12-07-2010 17:00:00 31.54 C 20.0000 % 5.87 C
1891 12-07-2010 18:00:00 30.18 C 24.2000 % 7.51 C
1892 12-07-2010 19:00:00 28.68 C 27.0000 % 7.85 C
1893 12-07-2010 20:00:00 26.96 C 30.6000 % 8.21 C
1894 12-07-2010 21:00:00 25.72 C 37.4000 % 10.1 C
1895 12-07-2010 22:00:00 24.62 C 41.0000 % 10.5 C
1896 12-07-2010 23:00:00 23.48 C 46.0000 % 11.2 C
1897 13-07-2010 00:00:00 22.3 C 52.4000 % 12.09 C
1898 13-07-2010 01:00:00 21.42 C 57.0000 % 12.55 C
1899 13-07-2010 02:00:00 20.66 C 60.8000 % 12.83 C
1900 13-07-2010 03:00:00 19.88 C 65.4000 % 13.2 C
Sensor: Nr:Datum:Temp:Feuchte:Taupunkt:
Aussen-T/F 1901 13-07-2010 04:00:00 19.62 C 69.0000 % 13.78 C
1902 13-07-2010 05:00:00 18.72 C 76.4000 % 14.49 C
1903 13-07-2010 06:00:00 18.8 C 75.2000 % 14.32 C
1904 13-07-2010 07:00:00 19.62 C 71.2000 % 14.26 C
1905 13-07-2010 08:00:00 20.92 C 65.6000 % 14.24 C
1906 13-07-2010 09:00:00 22.64 C 58.6000 % 14.12 C
1907 13-07-2010 10:00:00 24.6 C 49.2000 % 13.24 C
1908 13-07-2010 11:00:00 26.1 C 42.0000 % 12.19 C
1909 13-07-2010 12:00:00 29.44 C 29.2000 % 9.65 C
1910 13-07-2010 13:00:00 29.32 C 27.4000 % 8.61 C
1911 13-07-2010 14:00:00 29.04 C 29.0000 % 9.21 C
1912 13-07-2010 15:00:00 30.72 C 23.2000 % 7.34 C
1913 13-07-2010 16:00:00 31.06 C 21.4000 % 6.45 C
1914 13-07-2010 17:00:00 31.74 C 20.0000 % 6.03 C
1915 13-07-2010 18:00:00 31.86 C 20.0000 % 6.13 C
1916 13-07-2010 19:00:00 31.36 C 20.0000 % 5.72 C
1917 13-07-2010 20:00:00 31.12 C 21.0000 % 6.23 C
1918 13-07-2010 21:00:00 27.84 C 29.8000 % 8.58 C
1919 13-07-2010 22:00:00 25.46 C 36.4000 % 9.47 C
1920 13-07-2010 23:00:00 24.42 C 41.0000 % 10.32 C
1921 14-07-2010 00:00:00 23.68 C 45.0000 % 11.05 C
1922 14-07-2010 01:00:00 23.16 C 48.2000 % 11.61 C
1923 14-07-2010 02:00:00 22.54 C 51.6000 % 12.08 C
1924 14-07-2010 03:00:00 21.58 C 56.0000 % 12.43 C
1925 14-07-2010 04:00:00 20.72 C 61.2000 % 12.98 C
Sensor: Nr:Datum:Temp:Feuchte:Taupunkt:
Aussen-T/F 1926 14-07-2010 05:00:00 20.1 C 64.0000 % 13.08 C
1927 14-07-2010 06:00:00 20.3 C 64.2000 % 13.32 C
1928 14-07-2010 07:00:00 20.58 C 64.8000 % 13.73 C
1929 14-07-2010 08:00:00 21.82 C 61.2000 % 14.02 C
1930 14-07-2010 09:00:00 24.66 C 52.8000 % 14.38 C
1931 14-07-2010 10:00:00 27.88 C 38.8000 % 12.57 C
1932 14-07-2010 11:00:00 30.4 C 29.8000 % 10.78 C
1933 14-07-2010 12:00:00 31.44 C 25.0000 % 9.04 C
1934 14-07-2010 13:00:00 32.42 C 21.4000 % 7.57 C
1935 14-07-2010 14:00:00 32.94 C 20.0000 % 7.01 C
1936 14-07-2010 15:00:00 33.26 C 20.0000 % 7.27 C
1937 14-07-2010 16:00:00 34.4 C 20.0000 % 8.2 C
1938 14-07-2010 17:00:00 34.5 C 20.0000 % 8.28 C
1939 14-07-2010 18:00:00 34.66 C 20.0000 % 8.42 C
1940 14-07-2010 19:00:00 25.84 C 56.4000 % 16.51 C
1941 14-07-2010 20:00:00 22.34 C 83.4000 % 19.39 C
1942 14-07-2010 21:00:00 21.74 C 80.6000 % 18.26 C
1943 14-07-2010 22:00:00 21.5 C 77.8000 % 17.46 C
1944 14-07-2010 23:00:00 21.28 C 75.2000 % 16.71 C
1945 15-07-2010 00:00:00 21.04 C 73.2000 % 16.06 C
1946 15-07-2010 01:00:00 20.16 C 67.4000 % 13.93 C
1947 15-07-2010 02:00:00 19.58 C 69.0000 % 13.74 C
1948 15-07-2010 03:00:00 19.32 C 66.6000 % 12.95 C
1949 15-07-2010 04:00:00 18.94 C 68.0000 % 12.91 C
1950 15-07-2010 05:00:00 18.76 C 69.6000 % 13.09 C
Sensor: Nr:Datum:Temp:Feuchte:Taupunkt:
Aussen-T/F 1951 15-07-2010 06:00:00 18.9 C 67.8000 % 12.82 C
1952 15-07-2010 07:00:00 18.5 C 75.2000 % 14.03 C
1953 15-07-2010 08:00:00 18.42 C 74.2000 % 13.75 C
1954 15-07-2010 09:00:00 19.58 C 53.8000 % 9.97 C
1955 15-07-2010 10:00:00 21.22 C 40.8000 % 7.38 C
1956 15-07-2010 11:00:00 22.32 C 34.2000 % 5.8 C
1957 15-07-2010 12:00:00 24.42 C 26.2000 % 3.8 C
1958 15-07-2010 13:00:00 26.14 C 20.8000 % 1.99 C
1959 15-07-2010 14:00:00 26.22 C 20.0000 % 1.51 C
1960 15-07-2010 15:00:00 26.9 C 20.0000 % 2.06 C
1961 15-07-2010 16:00:00 27.82 C 20.0000 % 2.82 C
1962 15-07-2010 17:00:00 28.46 C 20.0000 % 3.34 C
1963 15-07-2010 18:00:00 27.98 C 20.0000 % 2.95 C
1964 15-07-2010 19:00:00 27.26 C 20.0000 % 2.36 C
1965 15-07-2010 20:00:00 26.6 C 20.8000 % 2.37 C
1966 15-07-2010 21:00:00 23.74 C 28.4000 % 4.36 C
1967 15-07-2010 22:00:00 21.46 C 34.0000 % 4.96 C
1968 15-07-2010 23:00:00 19.92 C 39.4000 % 5.71 C
1969 16-07-2010 00:00:00 18.6 C 43.4000 % 5.92 C
1970 16-07-2010 01:00:00 17.76 C 48.2000 % 6.68 C
1971 16-07-2010 02:00:00 16.74 C 55.4000 % 7.77 C
1972 16-07-2010 03:00:00 15.96 C 59.6000 % 8.11 C
1973 16-07-2010 04:00:00 15.22 C 62.8000 % 8.18 C
1974 16-07-2010 05:00:00 14.64 C 66.2000 % 8.41 C
1975 16-07-2010 06:00:00 14.46 C 69.4000 % 8.93 C
Sensor: Nr:Datum:Temp:Feuchte:Taupunkt:
Aussen-T/F 1976 16-07-2010 07:00:00 15.16 C 68.6000 % 9.43 C
1977 16-07-2010 08:00:00 16.62 C 63.6000 % 9.69 C
1978 16-07-2010 09:00:00 19.68 C 55.2000 % 10.45 C
1979 16-07-2010 10:00:00 23.6 C 41.0000 % 9.59 C
1980 16-07-2010 11:00:00 26.26 C 23.6000 % 3.86 C
1981 16-07-2010 12:00:00 28.54 C 20.2000 % 3.55 C
1982 16-07-2010 13:00:00 30.68 C 20.0000 % 5.16 C
1983 16-07-2010 14:00:00 31.06 C 20.0000 % 5.47 C
1984 16-07-2010 15:00:00 31.86 C 20.0000 % 6.13 C
1985 16-07-2010 16:00:00 32.44 C 20.0000 % 6.6 C
1986 16-07-2010 17:00:00 32.56 C 20.0000 % 6.7 C
1987 16-07-2010 18:00:00 32.72 C 20.0000 % 6.83 C
1988 16-07-2010 19:00:00 31.24 C 20.2000 % 5.76 C
1989 16-07-2010 20:00:00 29.4 C 24.6000 % 7.09 C
1990 16-07-2010 21:00:00 28.3 C 27.0000 % 7.52 C
1991 16-07-2010 22:00:00 26.38 C 31.0000 % 7.9 C
1992 16-07-2010 23:00:00 25.56 C 35.6000 % 9.23 C
1993 17-07-2010 00:00:00 23.3 C 43.6000 % 10.23 C
1994 17-07-2010 01:00:00 20.7 C 62.2000 % 13.21 C
1995 17-07-2010 02:00:00 20.18 C 63.6000 % 13.06 C
1996 17-07-2010 03:00:00 19.88 C 69.2000 % 14.07 C
1997 17-07-2010 04:00:00 19.16 C 76.0000 % 14.83 C
1998 17-07-2010 05:00:00 18.08 C 86.6000 % 15.81 C
1999 17-07-2010 06:00:00 17.68 C 88.8000 % 15.81 C
2000 17-07-2010 07:00:00 17.88 C 88.8000 % 16.01 C
Sensor: Nr:Datum:Temp:Feuchte:Taupunkt:
Aussen-T/F 2001 17-07-2010 08:00:00 17.64 C 89.0000 % 15.81 C
2002 17-07-2010 09:00:00 18.54 C 85.2000 % 16.01 C
2003 17-07-2010 10:00:00 19.6 C 74.4000 % 14.92 C
2004 17-07-2010 11:00:00 22.2 C 58.6000 % 13.71 C
2005 17-07-2010 12:00:00 24.66 C 40.2000 % 10.24 C
2006 17-07-2010 13:00:00 26.02 C 31.0000 % 7.59 C
2007 17-07-2010 14:00:00 26.14 C 29.6000 % 7.02 C
2008 17-07-2010 15:00:00 27.18 C 25.0000 % 5.46 C
2009 17-07-2010 16:00:00 26.72 C 24.0000 % 4.49 C
2010 17-07-2010 17:00:00 25.8 C 30.8000 % 7.31 C
2011 17-07-2010 18:00:00 24 C 34.8000 % 7.52 C
2012 17-07-2010 19:00:00 24.16 C 32.4000 % 6.62 C
2013 17-07-2010 20:00:00 24.46 C 26.0000 % 3.72 C
2014 17-07-2010 21:00:00 22.26 C 31.2000 % 4.43 C
2015 17-07-2010 22:00:00 21.44 C 33.4000 % 4.69 C
2016 17-07-2010 23:00:00 20.12 C 35.2000 % 4.28 C
2017 18-07-2010 00:00:00 18.64 C 38.0000 % 4.05 C
2018 18-07-2010 01:00:00 17.16 C 43.4000 % 4.62 C
2019 18-07-2010 02:00:00 15.96 C 50.6000 % 5.73 C
2020 18-07-2010 03:00:00 14.8 C 56.4000 % 6.22 C
2021 18-07-2010 04:00:00 13.9 C 62.4000 % 6.84 C
2022 18-07-2010 05:00:00 13 C 69.0000 % 7.45 C
2023 18-07-2010 06:00:00 12.56 C 73.4000 % 7.94 C
2024 18-07-2010 07:00:00 12.96 C 71.2000 % 7.87 C
2025 18-07-2010 08:00:00 14.54 C 63.4000 % 7.68 C
Sensor: Nr:Datum:Temp:Feuchte:Taupunkt:
Aussen-T/F 2026 18-07-2010 09:00:00 17.16 C 52.6000 % 7.4 C
2027 18-07-2010 10:00:00 20.18 C 40.6000 % 6.38 C
2028 18-07-2010 11:00:00 22.12 C 29.4000 % 3.46 C
2029 18-07-2010 12:00:00 25.16 C 21.0000 % 1.31 C
2030 18-07-2010 13:00:00 27.62 C 20.0000 % 2.65 C
2031 18-07-2010 14:00:00 27.34 C 20.0000 % 2.42 C
2032 18-07-2010 15:00:00 29.58 C 20.0000 % 4.26 C
2033 18-07-2010 16:00:00 30.76 C 20.0000 % 5.23 C
2034 18-07-2010 17:00:00 31.26 C 20.0000 % 5.64 C
2035 18-07-2010 18:00:00 31.26 C 20.0000 % 5.64 C
2036 18-07-2010 19:00:00 30.48 C 20.0000 % 5 C
2037 18-07-2010 20:00:00 29.1 C 20.0000 % 3.87 C
2038 18-07-2010 21:00:00 24.12 C 24.6000 % 2.65 C
2039 18-07-2010 22:00:00 21.72 C 31.0000 % 3.87 C
2040 18-07-2010 23:00:00 20.34 C 35.6000 % 4.63 C
2041 19-07-2010 00:00:00 18.92 C 39.2000 % 4.75 C
2042 19-07-2010 01:00:00 17.68 C 44.2000 % 5.35 C
2043 19-07-2010 02:00:00 16.46 C 49.0000 % 5.73 C
2044 19-07-2010 03:00:00 15.48 C 53.8000 % 6.17 C
2045 19-07-2010 04:00:00 14.62 C 58.4000 % 6.56 C
2046 19-07-2010 05:00:00 13.8 C 63.0000 % 6.89 C
2047 19-07-2010 06:00:00 13.58 C 67.0000 % 7.58 C
2048 19-07-2010 07:00:00 14.02 C 68.0000 % 8.21 C
2049 19-07-2010 08:00:00 15.3 C 63.4000 % 8.4 C
2050 19-07-2010 09:00:00 18.52 C 54.0000 % 9.04 C
Sensor: Nr:Datum:Temp:Feuchte:Taupunkt:
Aussen-T/F 2051 19-07-2010 10:00:00 22.46 C 40.2000 % 8.27 C
2052 19-07-2010 11:00:00 25.78 C 27.2000 % 5.49 C
2053 19-07-2010 12:00:00 28.82 C 20.4000 % 3.92 C
2054 19-07-2010 13:00:00 31.2 C 20.0000 % 5.59 C
2055 19-07-2010 14:00:00 30.84 C 20.0000 % 5.29 C
2056 19-07-2010 15:00:00 31.7 C 20.0000 % 6 C
2057 19-07-2010 16:00:00 32.82 C 20.0000 % 6.91 C
2058 19-07-2010 17:00:00 33.58 C 20.0000 % 7.53 C
2059 19-07-2010 18:00:00 33.5 C 20.0000 % 7.47 C
2060 19-07-2010 19:00:00 32.84 C 20.0000 % 6.93 C
2061 19-07-2010 20:00:00 31.38 C 20.0000 % 5.73 C
2062 19-07-2010 21:00:00 26.84 C 26.6000 % 6.07 C
2063 19-07-2010 22:00:00 24.12 C 32.2000 % 6.5 C
2064 19-07-2010 23:00:00 22.9 C 35.8000 % 6.97 C
2065 20-07-2010 00:00:00 21.74 C 41.0000 % 7.92 C
2066 20-07-2010 01:00:00 20.42 C 45.6000 % 8.29 C
2067 20-07-2010 02:00:00 19.32 C 49.6000 % 8.53 C
2068 20-07-2010 03:00:00 18.2 C 53.8000 % 8.69 C
2069 20-07-2010 04:00:00 17.24 C 57.8000 % 8.86 C
2070 20-07-2010 05:00:00 16.48 C 61.2000 % 8.99 C
2071 20-07-2010 06:00:00 16.1 C 65.4000 % 9.62 C
2072 20-07-2010 07:00:00 16.78 C 64.8000 % 10.12 C
2073 20-07-2010 08:00:00 18.04 C 60.0000 % 10.16 C
2074 20-07-2010 09:00:00 20.96 C 50.4000 % 10.27 C
2075 20-07-2010 10:00:00 24.8 C 36.4000 % 8.89 C
Sensor: Nr:Datum:Temp:Feuchte:Taupunkt:
Aussen-T/F 2076 20-07-2010 11:00:00 27.74 C 25.2000 % 6.05 C
2077 20-07-2010 12:00:00 30.42 C 20.4000 % 5.23 C
2078 20-07-2010 13:00:00 32.22 C 20.0000 % 6.42 C
2079 20-07-2010 14:00:00 31.78 C 20.0000 % 6.06 C
2080 20-07-2010 15:00:00 32.34 C 20.0000 % 6.52 C
2081 20-07-2010 16:00:00 33.06 C 20.0000 % 7.11 C
2082 20-07-2010 17:00:00 33.26 C 20.0000 % 7.27 C
2083 20-07-2010 18:00:00 32.92 C 20.0000 % 6.99 C
2084 20-07-2010 19:00:00 32.02 C 20.0000 % 6.26 C
2085 20-07-2010 20:00:00 30.72 C 20.2000 % 5.34 C
2086 20-07-2010 21:00:00 26.48 C 25.6000 % 5.21 C
2087 20-07-2010 22:00:00 24.4 C 29.6000 % 5.52 C
2088 20-07-2010 23:00:00 23.48 C 32.8000 % 6.21 C
2089 21-07-2010 00:00:00 21.98 C 39.2000 % 7.48 C
2090 21-07-2010 01:00:00 20.86 C 44.2000 % 8.23 C
2091 21-07-2010 02:00:00 19.68 C 49.0000 % 8.68 C
2092 21-07-2010 03:00:00 18.78 C 52.2000 % 8.78 C
2093 21-07-2010 04:00:00 18.08 C 55.6000 % 9.07 C
2094 21-07-2010 05:00:00 17.38 C 59.2000 % 9.34 C
2095 21-07-2010 06:00:00 17.16 C 61.0000 % 9.58 C
2096 21-07-2010 07:00:00 17.8 C 61.4000 % 10.28 C
2097 21-07-2010 08:00:00 19.2 C 55.0000 % 9.95 C
2098 21-07-2010 09:00:00 22.32 C 47.6000 % 10.66 C
2099 21-07-2010 10:00:00 26.54 C 34.4000 % 9.58 C
2100 21-07-2010 11:00:00 29.66 C 24.8000 % 7.43 C
Sensor: Nr:Datum:Temp:Feuchte:Taupunkt:
Aussen-T/F 2101 21-07-2010 12:00:00 31.36 C 20.2000 % 5.86 C
2102 21-07-2010 13:00:00 32.52 C 20.0000 % 6.67 C
2103 21-07-2010 14:00:00 32.58 C 20.0000 % 6.72 C
2104 21-07-2010 15:00:00 32.56 C 20.0000 % 6.7 C
2105 21-07-2010 16:00:00 32.44 C 20.0000 % 6.6 C
2106 21-07-2010 17:00:00 31.5 C 20.6000 % 6.26 C
2107 21-07-2010 18:00:00 30.12 C 24.0000 % 7.34 C
2108 21-07-2010 19:00:00 28.72 C 28.4000 % 8.62 C
2109 21-07-2010 20:00:00 23.58 C 57.2000 % 14.62 C
2110 21-07-2010 21:00:00 23.02 C 57.6000 % 14.21 C
2111 21-07-2010 22:00:00 23 C 57.2000 % 14.08 C
2112 21-07-2010 23:00:00 22.88 C 56.2000 % 13.7 C
2113 22-07-2010 00:00:00 22.56 C 57.8000 % 13.83 C
2114 22-07-2010 01:00:00 22.16 C 59.4000 % 13.88 C
2115 22-07-2010 02:00:00 21.28 C 61.8000 % 13.66 C
2116 22-07-2010 03:00:00 20.92 C 61.2000 % 13.17 C
2117 22-07-2010 04:00:00 20.5 C 58.2000 % 12.01 C
2118 22-07-2010 05:00:00 19.9 C 57.2000 % 11.19 C
2119 22-07-2010 06:00:00 18.92 C 67.4000 % 12.75 C
2120 22-07-2010 07:00:00 19.24 C 69.8000 % 13.59 C
2121 22-07-2010 08:00:00 21.04 C 59.6000 % 12.88 C
2122 22-07-2010 09:00:00 22.06 C 53.0000 % 12.04 C
2123 22-07-2010 10:00:00 21.58 C 56.4000 % 12.54 C
2124 22-07-2010 11:00:00 21.78 C 61.8000 % 14.13 C
2125 22-07-2010 12:00:00 22.38 C 57.8000 % 13.66 C
Sensor: Nr:Datum:Temp:Feuchte:Taupunkt:
Aussen-T/F 2126 22-07-2010 13:00:00 20.9 C 70.2000 % 15.27 C
2127 22-07-2010 14:00:00 21.26 C 67.4000 % 14.98 C
2128 22-07-2010 15:00:00 21.38 C 69.0000 % 15.46 C
2129 22-07-2010 16:00:00 23.2 C 55.6000 % 13.83 C
2130 22-07-2010 17:00:00 22.04 C 68.4000 % 15.95 C
2131 22-07-2010 18:00:00 23 C 58.8000 % 14.51 C
2132 22-07-2010 19:00:00 22.68 C 59.0000 % 14.26 C
2133 22-07-2010 20:00:00 21.86 C 62.4000 % 14.35 C
2134 22-07-2010 21:00:00 21.06 C 64.8000 % 14.18 C
2135 22-07-2010 22:00:00 20.48 C 66.4000 % 14.01 C
2136 22-07-2010 23:00:00 20.2 C 67.6000 % 14.02 C
2137 23-07-2010 00:00:00 20.1 C 69.4000 % 14.33 C
2138 23-07-2010 01:00:00 20 C 71.2000 % 14.63 C
2139 23-07-2010 02:00:00 19.22 C 74.0000 % 14.47 C
2140 23-07-2010 03:00:00 16.34 C 83.6000 % 13.56 C
2141 23-07-2010 04:00:00 16.04 C 85.6000 % 13.63 C
2142 23-07-2010 05:00:00 15.9 C 85.0000 % 13.38 C
2143 23-07-2010 06:00:00 15.86 C 85.4000 % 13.42 C
2144 23-07-2010 07:00:00 17.26 C 83.4000 % 14.42 C
2145 23-07-2010 08:00:00 18.02 C 78.6000 % 14.25 C
2146 23-07-2010 09:00:00 19.08 C 72.2000 % 13.96 C
2147 23-07-2010 10:00:00 21.4 C 55.8000 % 12.21 C
2148 23-07-2010 11:00:00 24.14 C 44.2000 % 11.2 C
2149 23-07-2010 12:00:00 26.46 C 32.4000 % 8.62 C
2150 23-07-2010 13:00:00 27.82 C 24.6000 % 5.77 C
Sensor: Nr:Datum:Temp:Feuchte:Taupunkt:
Aussen-T/F 2151 23-07-2010 14:00:00 29.34 C 22.4000 % 5.69 C
2152 23-07-2010 15:00:00 28.4 C 23.0000 % 5.28 C
2153 23-07-2010 16:00:00 28.54 C 22.6000 % 5.15 C
2154 23-07-2010 17:00:00 22.32 C 47.2000 % 10.53 C
2155 23-07-2010 18:00:00 18.1 C 74.6000 % 13.52 C
2156 23-07-2010 19:00:00 16.96 C 84.4000 % 14.31 C
2157 23-07-2010 20:00:00 15.98 C 90.4000 % 14.41 C
2158 23-07-2010 21:00:00 15.58 C 92.2000 % 14.32 C
2159 23-07-2010 22:00:00 15.125 C 93.0000 % 14 C
2160 23-07-2010 23:00:00 15.1 C 93.6000 % 14.08 C
2161 24-07-2010 00:00:00 15.02 C 94.0000 % 14.06 C
2162 24-07-2010 01:00:00 15.12 C 94.0000 % 14.16 C
2163 24-07-2010 02:00:00 15.26 C 95.0000 % 14.46 C
2164 24-07-2010 03:00:00 15.56 C 95.0000 % 14.76 C
2165 24-07-2010 04:00:00 15.64 C 93.0000 % 14.51 C
2166 24-07-2010 05:00:00 15.54 C 90.2000 % 13.94 C
2167 24-07-2010 06:00:00 15.42 C 88.6000 % 13.55 C
2168 24-07-2010 07:00:00 15.5 C 87.6000 % 13.45 C
2169 24-07-2010 08:00:00 16.16 C 82.2000 % 13.12 C
2170 24-07-2010 09:00:00 17.24 C 73.6000 % 12.48 C
2171 24-07-2010 10:00:00 18.62 C 60.6000 % 10.86 C
2172 24-07-2010 11:00:00 19.44 C 52.8000 % 9.56 C
2173 24-07-2010 12:00:00 20.52 C 46.0000 % 8.51 C
2174 24-07-2010 13:00:00 22.72 C 32.8000 % 5.54 C
2175 24-07-2010 14:00:00 23.48 C 29.2000 % 4.54 C
Sensor: Nr:Datum:Temp:Feuchte:Taupunkt:
Aussen-T/F 2176 24-07-2010 15:00:00 24.1 C 25.0000 % 2.86 C
2177 24-07-2010 16:00:00 23.86 C 21.6000 % 0.62 C
2178 24-07-2010 17:00:00 24.36 C 20.0000 % -0.02 C
2179 24-07-2010 18:00:00 23.48 C 20.0000 % -0.75 C
2180 24-07-2010 19:00:00 23.22 C 20.0000 % -0.96 C
2181 24-07-2010 20:00:00 22.72 C 20.0000 % -1.37 C
2182 24-07-2010 21:00:00 19.76 C 26.4000 % -0.06 C
2183 24-07-2010 22:00:00 17.5 C 34.8000 % 1.81 C
2184 24-07-2010 23:00:00 15.92 C 45.0000 % 4.01 C
2185 25-07-2010 00:00:00 14.54 C 52.8000 % 5.03 C
2186 25-07-2010 01:00:00 13.5 C 58.2000 % 5.46 C
2187 25-07-2010 02:00:00 12.7 C 62.6000 % 5.75 C
2188 25-07-2010 03:00:00 11.86 C 66.8000 % 5.89 C
2189 25-07-2010 04:00:00 10.96 C 73.2000 % 6.36 C
2190 25-07-2010 05:00:00 10.16 C 77.8000 % 6.46 C
2191 25-07-2010 06:00:00 10.04 C 78.6000 % 6.5 C
2192 25-07-2010 07:00:00 10.92 C 75.8000 % 6.82 C
2193 25-07-2010 08:00:00 12.12 C 73.6000 % 7.55 C
2194 25-07-2010 09:00:00 14.94 C 59.6000 % 7.15 C
2195 25-07-2010 10:00:00 17.8 C 44.6000 % 5.59 C
2196 25-07-2010 11:00:00 20.86 C 33.8000 % 4.35 C
2197 25-07-2010 12:00:00 22.94 C 28.8000 % 3.88 C
2198 25-07-2010 13:00:00 23.38 C 29.6000 % 4.64 C
2199 25-07-2010 14:00:00 22.2 C 35.4000 % 6.19 C
2200 25-07-2010 15:00:00 21.58 C 37.0000 % 6.28 C
Sensor: Nr:Datum:Temp:Feuchte:Taupunkt:
Aussen-T/F 2201 25-07-2010 16:00:00 21.98 C 36.8000 % 6.56 C
2202 25-07-2010 17:00:00 23.4 C 31.4000 % 5.51 C
2203 25-07-2010 18:00:00 22.26 C 38.2000 % 7.35 C
2204 25-07-2010 19:00:00 20.8 C 43.6000 % 7.98 C
2205 25-07-2010 20:00:00 20.16 C 44.8000 % 7.8 C
2206 25-07-2010 21:00:00 19.08 C 57.6000 % 10.53 C
2207 25-07-2010 22:00:00 18.38 C 64.8000 % 11.64 C
2208 25-07-2010 23:00:00 17.88 C 67.4000 % 11.76 C
2209 26-07-2010 00:00:00 17.56 C 66.4000 % 11.23 C
2210 26-07-2010 01:00:00 17.26 C 68.0000 % 11.3 C
2211 26-07-2010 02:00:00 16.8 C 70.2000 % 11.35 C
2212 26-07-2010 03:00:00 16.42 C 73.0000 % 11.57 C
2213 26-07-2010 04:00:00 16.24 C 76.6000 % 12.13 C
2214 26-07-2010 05:00:00 15.52 C 85.2000 % 13.05 C
2215 26-07-2010 06:00:00 15.4 C 87.2000 % 13.28 C
2216 26-07-2010 07:00:00 16.02 C 87.6000 % 13.96 C
2217 26-07-2010 08:00:00 16.98 C 82.4000 % 13.96 C
2218 26-07-2010 09:00:00 18.38 C 74.6000 % 13.79 C
2219 26-07-2010 10:00:00 20.24 C 61.4000 % 12.58 C
2220 26-07-2010 11:00:00 20.94 C 58.0000 % 12.37 C
2221 26-07-2010 12:00:00 19.04 C 76.8000 % 14.88 C
2222 26-07-2010 13:00:00 18.16 C 82.0000 % 15.04 C
2223 26-07-2010 14:00:00 17.36 C 89.0000 % 15.53 C
2224 26-07-2010 15:00:00 17.92 C 89.6000 % 16.19 C
2225 26-07-2010 16:00:00 19.68 C 79.0000 % 15.94 C
Sensor: Nr:Datum:Temp:Feuchte:Taupunkt:
Aussen-T/F 2226 26-07-2010 17:00:00 19.08 C 69.2000 % 13.31 C
2227 26-07-2010 18:00:00 17.16 C 77.6000 % 13.22 C
2228 26-07-2010 19:00:00 16.92 C 80.6000 % 13.56 C
2229 26-07-2010 20:00:00 16.16 C 80.8000 % 12.86 C
2230 26-07-2010 21:00:00 15.3 C 86.4000 % 13.04 C
2231 26-07-2010 22:00:00 15.22 C 83.6000 % 12.46 C
2232 26-07-2010 23:00:00 15.26 C 83.2000 % 12.43 C
2233 27-07-2010 00:00:00 15.34 C 85.0000 % 12.83 C
2234 27-07-2010 01:00:00 15.48 C 84.8000 % 12.94 C
2235 27-07-2010 02:00:00 15.6 C 83.0000 % 12.72 C
2236 27-07-2010 03:00:00 15.42 C 83.4000 % 12.62 C
2237 27-07-2010 04:00:00 15.26 C 83.2000 % 12.43 C
2238 27-07-2010 05:00:00 15.14 C 83.8000 % 12.42 C
2239 27-07-2010 06:00:00 15.28 C 82.6000 % 12.34 C
2240 27-07-2010 07:00:00 15.68 C 79.6000 % 12.17 C
2241 27-07-2010 08:00:00 16.22 C 76.8000 % 12.15 C
2242 27-07-2010 09:00:00 16.88 C 73.4000 % 12.1 C
2243 27-07-2010 10:00:00 18.52 C 63.6000 % 11.49 C
2244 27-07-2010 11:00:00 20.18 C 54.8000 % 10.8 C
2245 27-07-2010 12:00:00 22.08 C 46.6000 % 10.12 C
2246 27-07-2010 13:00:00 23.96 C 36.4000 % 8.15 C
2247 27-07-2010 14:00:00 24.42 C 34.4000 % 7.72 C
2248 27-07-2010 15:00:00 25.38 C 32.2000 % 7.59 C
2249 27-07-2010 16:00:00 27.9 C 25.2000 % 6.18 C
2250 27-07-2010 17:00:00 28.32 C 22.4000 % 4.84 C
Sensor: Nr:Datum:Temp:Feuchte:Taupunkt:
Aussen-T/F 2251 27-07-2010 18:00:00 25.06 C 33.2000 % 7.76 C
2252 27-07-2010 19:00:00 23.42 C 41.0000 % 9.42 C
2253 27-07-2010 20:00:00 22 C 43.2000 % 8.92 C
2254 27-07-2010 21:00:00 20.46 C 49.0000 % 9.39 C
2255 27-07-2010 22:00:00 19.12 C 55.8000 % 10.09 C
2256 27-07-2010 23:00:00 18.44 C 59.2000 % 10.34 C
2257 28-07-2010 00:00:00 18.2 C 63.0000 % 11.05 C
2258 28-07-2010 01:00:00 17.16 C 67.4000 % 11.08 C
2259 28-07-2010 02:00:00 16.96 C 70.8000 % 11.63 C
2260 28-07-2010 03:00:00 17.04 C 71.2000 % 11.79 C
2261 28-07-2010 04:00:00 16.96 C 72.6000 % 12.01 C
2262 28-07-2010 05:00:00 16.84 C 73.8000 % 12.14 C
2263 28-07-2010 06:00:00 17.02 C 74.6000 % 12.48 C
2264 28-07-2010 07:00:00 16.32 C 87.2000 % 14.19 C
2265 28-07-2010 08:00:00 17.1 C 89.4000 % 15.34 C
2266 28-07-2010 09:00:00 17.56 C 85.4000 % 15.08 C
2267 28-07-2010 10:00:00 17.7 C 87.8000 % 15.65 C
2268 28-07-2010 11:00:00 20.26 C 77.4000 % 16.18 C
2269 28-07-2010 12:00:00 21.22 C 70.2000 % 15.58 C
2270 28-07-2010 13:00:00 23.74 C 57.2000 % 14.77 C
2271 28-07-2010 14:00:00 25.74 C 38.8000 % 10.67 C
2272 28-07-2010 15:00:00 26 C 31.6000 % 7.85 C
2273 28-07-2010 16:00:00 27.78 C 26.2000 % 6.64 C
2274 28-07-2010 17:00:00 28.8 C 23.4000 % 5.87 C
2275 28-07-2010 18:00:00 26.74 C 26.4000 % 5.87 C
Sensor: Nr:Datum:Temp:Feuchte:Taupunkt:
Aussen-T/F 2276 28-07-2010 19:00:00 22.5 C 50.4000 % 11.68 C
2277 28-07-2010 20:00:00 21.78 C 53.2000 % 11.84 C
2278 28-07-2010 21:00:00 20.6 C 59.4000 % 12.41 C
2279 28-07-2010 22:00:00 19.78 C 66.0000 % 13.25 C
2280 28-07-2010 23:00:00 18.38 C 82.8000 % 15.4 C
2281 29-07-2010 00:00:00 17.16 C 89.8000 % 15.47 C
2282 29-07-2010 01:00:00 16.06 C 92.4000 % 14.83 C
2283 29-07-2010 02:00:00 15.16 C 93.0000 % 14.04 C
2284 29-07-2010 03:00:00 14.76 C 93.8000 % 13.77 C
2285 29-07-2010 04:00:00 14.44 C 94.0000 % 13.49 C
2286 29-07-2010 05:00:00 14.34 C 94.2000 % 13.42 C
2287 29-07-2010 06:00:00 14.62 C 95.0000 % 13.83 C
2288 29-07-2010 07:00:00 14.88 C 94.8000 % 14.05 C
2289 29-07-2010 08:00:00 15.38 C 95.0000 % 14.58 C
2290 29-07-2010 09:00:00 15.48 C 92.6000 % 14.29 C
2291 29-07-2010 10:00:00 15.22 C 89.8000 % 13.56 C
2292 29-07-2010 11:00:00 14.64 C 91.0000 % 13.19 C
2293 29-07-2010 12:00:00 17.28 C 85.6000 % 14.84 C
2294 29-07-2010 13:00:00 18.44 C 70.4000 % 12.96 C
2295 29-07-2010 14:00:00 17.76 C 72.2000 % 12.69 C
2296 29-07-2010 15:00:00 18.24 C 69.0000 % 12.46 C
2297 29-07-2010 16:00:00 19.64 C 64.6000 % 12.79 C
2298 29-07-2010 17:00:00 17.12 C 76.6000 % 12.98 C
2299 29-07-2010 18:00:00 17.82 C 74.4000 % 13.21 C
2300 29-07-2010 19:00:00 18.34 C 61.8000 % 10.89 C
Sensor: Nr:Datum:Temp:Feuchte:Taupunkt:
Aussen-T/F 2301 29-07-2010 20:00:00 17.6 C 63.4000 % 10.57 C
2302 29-07-2010 21:00:00 16.04 C 72.6000 % 11.12 C
2303 29-07-2010 22:00:00 15.66 C 74.2000 % 11.08 C
2304 29-07-2010 23:00:00 15.7 C 71.8000 % 10.63 C
2305 30-07-2010 00:00:00 15.2 C 75.8000 % 10.96 C
2306 30-07-2010 01:00:00 15.2 C 76.0000 % 11 C
2307 30-07-2010 02:00:00 14.74 C 78.4000 % 11.02 C
2308 30-07-2010 03:00:00 14.6 C 81.8000 % 11.53 C
2309 30-07-2010 04:00:00 14.42 C 84.0000 % 11.75 C
2310 30-07-2010 05:00:00 14.7 C 84.2000 % 12.06 C
2311 30-07-2010 06:00:00 14.76 C 83.2000 % 11.94 C
2312 30-07-2010 07:00:00 15.18 C 81.2000 % 11.98 C
2313 30-07-2010 08:00:00 16.28 C 76.2000 % 12.09 C
2314 30-07-2010 09:00:00 17.26 C 66.6000 % 10.99 C
2315 30-07-2010 10:00:00 19 C 55.2000 % 9.82 C
2316 30-07-2010 11:00:00 22 C 43.0000 % 8.85 C
2317 30-07-2010 12:00:00 21.54 C 44.0000 % 8.78 C
2318 30-07-2010 13:00:00 24 C 34.4000 % 7.35 C
2319 30-07-2010 14:00:00 24.48 C 34.0000 % 7.6 C
2320 30-07-2010 15:00:00 25.14 C 30.8000 % 6.74 C
2321 30-07-2010 16:00:00 25.94 C 27.2000 % 5.62 C
2322 30-07-2010 17:00:00 26.82 C 25.2000 % 5.27 C
2323 30-07-2010 18:00:00 26.8 C 23.8000 % 4.44 C
2324 30-07-2010 19:00:00 26.02 C 28.6000 % 6.42 C
2325 30-07-2010 20:00:00 22.54 C 37.6000 % 7.37 C
Sensor: Nr:Datum:Temp:Feuchte:Taupunkt:
Aussen-T/F 2326 30-07-2010 21:00:00 19.84 C 45.0000 % 7.57 C
2327 30-07-2010 22:00:00 18.5 C 47.2000 % 7.05 C
2328 30-07-2010 23:00:00 17 C 59.0000 % 8.94 C
2329 31-07-2010 00:00:00 15.92 C 64.4000 % 9.22 C
2330 31-07-2010 01:00:00 14.84 C 69.2000 % 9.25 C
2331 31-07-2010 02:00:00 14.04 C 71.6000 % 8.99 C
2332 31-07-2010 03:00:00 13.34 C 74.6000 % 8.93 C
2333 31-07-2010 04:00:00 12.7 C 77.8000 % 8.93 C
2334 31-07-2010 05:00:00 12.26 C 80.0000 % 8.91 C
2335 31-07-2010 06:00:00 12.02 C 82.2000 % 9.08 C
2336 31-07-2010 07:00:00 12.6 C 82.4000 % 9.68 C
2337 31-07-2010 08:00:00 13.84 C 77.6000 % 10 C
2338 31-07-2010 09:00:00 16.36 C 68.6000 % 10.58 C
2339 31-07-2010 10:00:00 22 C 46.6000 % 10.05 C
2340 31-07-2010 11:00:00 23.48 C 35.2000 % 7.23 C
2341 31-07-2010 12:00:00 24.12 C 31.2000 % 6.04 C
2342 31-07-2010 13:00:00 25.56 C 27.6000 % 5.51 C
2343 31-07-2010 14:00:00 26.84 C 26.0000 % 5.74 C
2344 31-07-2010 15:00:00 27.88 C 23.4000 % 5.1 C
2345 31-07-2010 16:00:00 29.44 C 20.4000 % 4.43 C
2346 31-07-2010 17:00:00 29.84 C 20.0000 % 4.47 C
2347 31-07-2010 18:00:00 29.86 C 20.2000 % 4.63 C
2348 31-07-2010 19:00:00 27.88 C 26.8000 % 7.06 C
2349 31-07-2010 20:00:00 24.6 C 36.4000 % 8.71 C
2350 31-07-2010 21:00:00 23.04 C 40.8000 % 9.01 C
Sensor: Nr:Datum:Temp:Feuchte:Taupunkt:
Aussen-T/F 2351 31-07-2010 22:00:00 22.02 C 47.2000 % 10.26 C
2352 31-07-2010 23:00:00 20.5 C 66.0000 % 13.93 C
2353 01-08-2010 00:00:00 19.4 C 74.2000 % 14.69 C
2354 01-08-2010 01:00:00 18.26 C 84.0000 % 15.51 C
2355 01-08-2010 02:00:00 18.1 C 86.6000 % 15.83 C
2356 01-08-2010 03:00:00 17.98 C 85.8000 % 15.57 C
2357 01-08-2010 04:00:00 17.84 C 85.0000 % 15.28 C
2358 01-08-2010 05:00:00 17.72 C 84.6000 % 15.09 C
2359 01-08-2010 06:00:00 17.42 C 88.6000 % 15.52 C
2360 01-08-2010 07:00:00 18.34 C 87.6000 % 16.25 C
2361 01-08-2010 08:00:00 19.68 C 81.2000 % 16.37 C
2362 01-08-2010 09:00:00 20.86 C 74.6000 % 16.18 C
2363 01-08-2010 10:00:00 21.94 C 70.2000 % 16.26 C
2364 01-08-2010 11:00:00 24.06 C 59.2000 % 15.6 C
2365 01-08-2010 12:00:00 25.46 C 45.4000 % 12.8 C
2366 01-08-2010 13:00:00 27.84 C 35.0000 % 10.98 C
2367 01-08-2010 14:00:00 29.02 C 27.6000 % 8.46 C
2368 01-08-2010 15:00:00 30.04 C 23.8000 % 7.15 C
2369 01-08-2010 16:00:00 30.66 C 22.6000 % 6.91 C
2370 01-08-2010 17:00:00 30.1 C 24.4000 % 7.56 C
2371 01-08-2010 18:00:00 28.36 C 30.2000 % 9.23 C
2372 01-08-2010 19:00:00 25.88 C 39.2000 % 10.95 C
2373 01-08-2010 20:00:00 24.64 C 45.4000 % 12.05 C
2374 01-08-2010 21:00:00 23.16 C 47.4000 % 11.36 C
2375 01-08-2010 22:00:00 21.96 C 49.2000 % 10.83 C
Sensor: Nr:Datum:Temp:Feuchte:Taupunkt:
Aussen-T/F 2376 01-08-2010 23:00:00 21.08 C 54.2000 % 11.47 C
2377 02-08-2010 00:00:00 19.74 C 58.8000 % 11.45 C
2378 02-08-2010 01:00:00 19.24 C 62.2000 % 11.83 C
2379 02-08-2010 02:00:00 18.64 C 66.0000 % 12.17 C
2380 02-08-2010 03:00:00 17.94 C 69.4000 % 12.26 C
2381 02-08-2010 04:00:00 17.1 C 74.6000 % 12.55 C
2382 02-08-2010 05:00:00 16.32 C 76.6000 % 12.2 C
2383 02-08-2010 06:00:00 16.48 C 77.8000 % 12.6 C
2384 02-08-2010 07:00:00 16.38 C 78.6000 % 12.65 C
2385 02-08-2010 08:00:00 16.86 C 77.8000 % 12.96 C
2386 02-08-2010 09:00:00 18.68 C 69.8000 % 13.06 C
2387 02-08-2010 10:00:00 20.88 C 58.2000 % 12.37 C
2388 02-08-2010 11:00:00 23.84 C 43.2000 % 10.58 C
2389 02-08-2010 12:00:00 25.54 C 34.4000 % 8.7 C
2390 02-08-2010 13:00:00 23.28 C 41.4000 % 9.44 C
2391 02-08-2010 14:00:00 20.48 C 63.2000 % 13.25 C
2392 02-08-2010 15:00:00 21.32 C 60.2000 % 13.29 C
2393 02-08-2010 16:00:00 23.06 C 53.0000 % 12.97 C
2394 02-08-2010 17:00:00 24.2 C 44.4000 % 11.32 C
2395 02-08-2010 18:00:00 21.28 C 60.0000 % 13.21 C
2396 02-08-2010 19:00:00 20.02 C 71.4000 % 14.69 C
2397 02-08-2010 20:00:00 18.6 C 84.8000 % 15.99 C
2398 02-08-2010 21:00:00 17.58 C 89.8000 % 15.89 C
2399 02-08-2010 22:00:00 17.12 C 91.4000 % 15.71 C
2400 02-08-2010 23:00:00 16.04 C 91.0000 % 14.57 C
Sensor: Nr:Datum:Temp:Feuchte:Taupunkt:
Aussen-T/F 2401 03-08-2010 00:00:00 15.94 C 89.0000 % 14.13 C
2402 03-08-2010 01:00:00 15.96 C 88.4000 % 14.04 C
2403 03-08-2010 02:00:00 15.46 C 89.2000 % 13.69 C
2404 03-08-2010 03:00:00 15.26 C 92.6000 % 14.07 C
2405 03-08-2010 04:00:00 15.02 C 93.8000 % 14.03 C
2406 03-08-2010 05:00:00 14.96 C 94.4000 % 14.07 C
2407 03-08-2010 06:00:00 14.62 C 95.0000 % 13.83 C
2408 03-08-2010 07:00:00 15.06 C 95.0000 % 14.27 C
2409 03-08-2010 08:00:00 15.96 C 91.0000 % 14.49 C
2410 03-08-2010 09:00:00 16.78 C 82.0000 % 13.69 C
2411 03-08-2010 10:00:00 17.64 C 73.4000 % 12.83 C
2412 03-08-2010 11:00:00 18.94 C 59.0000 % 10.76 C
2413 03-08-2010 12:00:00 21.22 C 42.8000 % 8.08 C
2414 03-08-2010 13:00:00 21.34 C 41.0000 % 7.56 C
2415 03-08-2010 14:00:00 21.88 C 43.0000 % 8.75 C
2416 03-08-2010 15:00:00 24.2 C 28.6000 % 4.86 C
2417 03-08-2010 16:00:00 25.38 C 22.6000 % 2.52 C
2418 03-08-2010 17:00:00 25.84 C 20.6000 % 1.6 C
2419 03-08-2010 18:00:00 26.12 C 21.0000 % 2.1 C
2420 03-08-2010 19:00:00 23.6 C 27.8000 % 3.94 C
2421 03-08-2010 20:00:00 21.72 C 37.8000 % 6.72 C
2422 03-08-2010 21:00:00 18.32 C 48.6000 % 7.31 C
2423 03-08-2010 22:00:00 17.26 C 56.4000 % 8.52 C
2424 03-08-2010 23:00:00 16.12 C 62.0000 % 8.84 C
2425 04-08-2010 00:00:00 15.44 C 68.2000 % 9.61 C
Sensor: Nr:Datum:Temp:Feuchte:Taupunkt:
Aussen-T/F 2426 04-08-2010 01:00:00 15.68 C 69.0000 % 10.01 C
2427 04-08-2010 02:00:00 15.42 C 73.8000 % 10.77 C
2428 04-08-2010 03:00:00 15.36 C 74.0000 % 10.76 C
2429 04-08-2010 04:00:00 15.2 C 73.4000 % 10.48 C
2430 04-08-2010 05:00:00 15.14 C 74.0000 % 10.54 C
2431 04-08-2010 06:00:00 15.28 C 75.0000 % 10.88 C
2432 04-08-2010 07:00:00 15.88 C 74.0000 % 11.26 C
2433 04-08-2010 08:00:00 16.86 C 69.4000 % 11.23 C
2434 04-08-2010 09:00:00 18.8 C 61.2000 % 11.18 C
2435 04-08-2010 10:00:00 21.08 C 49.6000 % 10.14 C
2436 04-08-2010 11:00:00 22.5 C 40.6000 % 8.46 C
2437 04-08-2010 12:00:00 23.72 C 32.8000 % 6.42 C
2438 04-08-2010 13:00:00 24.98 C 27.8000 % 5.12 C
2439 04-08-2010 14:00:00 24.56 C 29.6000 % 5.66 C
2440 04-08-2010 15:00:00 23.88 C 31.6000 % 6.02 C
2441 04-08-2010 16:00:00 23.36 C 33.4000 % 6.36 C
2442 04-08-2010 17:00:00 23.1 C 35.0000 % 6.82 C
2443 04-08-2010 18:00:00 23.32 C 35.2000 % 7.09 C
2444 04-08-2010 19:00:00 22.44 C 39.4000 % 7.96 C
2445 04-08-2010 20:00:00 21.14 C 48.6000 % 9.89 C
2446 04-08-2010 21:00:00 20.1 C 52.4000 % 10.06 C
2447 04-08-2010 22:00:00 19.325 C 60.7500 % 11.56 C
2448 04-08-2010 23:00:00 18.32 C 73.2000 % 13.44 C
2449 05-08-2010 00:00:00 16.78 C 86.6000 % 14.53 C
2450 05-08-2010 01:00:00 16.28 C 89.8000 % 14.6 C
Sensor: Nr:Datum:Temp:Feuchte:Taupunkt:
Aussen-T/F 2451 05-08-2010 02:00:00 15.82 C 91.8000 % 14.49 C
2452 05-08-2010 03:00:00 15.54 C 92.8000 % 14.38 C
2453 05-08-2010 04:00:00 15.3 C 93.0000 % 14.18 C
2454 05-08-2010 05:00:00 15.32 C 93.4000 % 14.26 C
2455 05-08-2010 06:00:00 15.68 C 94.0000 % 14.72 C
2456 05-08-2010 07:00:00 15.72 C 93.8000 % 14.72 C
2457 05-08-2010 08:00:00 16.2 C 91.0000 % 14.73 C
2458 05-08-2010 09:00:00 16.84 C 79.8000 % 13.33 C
2459 05-08-2010 10:00:00 17.46 C 69.8000 % 11.89 C
2460 05-08-2010 11:00:00 18.36 C 61.6000 % 10.86 C
2461 05-08-2010 12:00:00 18.42 C 59.4000 % 10.37 C
2462 05-08-2010 13:00:00 18.98 C 50.4000 % 8.45 C
2463 05-08-2010 14:00:00 21.28 C 40.6000 % 7.36 C
2464 05-08-2010 15:00:00 23 C 31.2000 % 5.07 C
2465 05-08-2010 16:00:00 25.08 C 24.6000 % 3.46 C
2466 05-08-2010 17:00:00 23.98 C 24.4000 % 2.42 C
2467 05-08-2010 18:00:00 22.7 C 27.8000 % 3.17 C
2468 05-08-2010 19:00:00 21.26 C 33.2000 % 4.44 C
2469 05-08-2010 20:00:00 20.22 C 39.4000 % 5.98 C
2470 05-08-2010 21:00:00 18.94 C 44.0000 % 6.43 C
2471 05-08-2010 22:00:00 17.7 C 49.6000 % 7.04 C
2472 05-08-2010 23:00:00 17 C 56.0000 % 8.17 C
2473 06-08-2010 00:00:00 16.02 C 62.2000 % 8.8 C
2474 06-08-2010 01:00:00 15.26 C 66.2000 % 9 C
2475 06-08-2010 02:00:00 14.52 C 71.2000 % 9.37 C
Sensor: Nr:Datum:Temp:Feuchte:Taupunkt:
Aussen-T/F 2476 06-08-2010 03:00:00 13.96 C 73.6000 % 9.32 C
2477 06-08-2010 04:00:00 13.44 C 79.8000 % 10.03 C
2478 06-08-2010 05:00:00 12.96 C 82.6000 % 10.07 C
2479 06-08-2010 06:00:00 13.34 C 80.2000 % 10 C
2480 06-08-2010 07:00:00 13.18 C 80.8000 % 9.96 C
2481 06-08-2010 08:00:00 13.48 C 81.2000 % 10.32 C
2482 06-08-2010 09:00:00 15.46 C 71.6000 % 10.36 C
2483 06-08-2010 10:00:00 17.84 C 54.6000 % 8.58 C
2484 06-08-2010 11:00:00 19.84 C 42.2000 % 6.63 C
2485 06-08-2010 12:00:00 21.34 C 33.0000 % 4.43 C
2486 06-08-2010 13:00:00 23.7 C 22.4000 % 0.99 C
2487 06-08-2010 14:00:00 24.84 C 20.0000 % 0.37 C
2488 06-08-2010 15:00:00 25.28 C 20.0000 % 0.73 C
2489 06-08-2010 16:00:00 28.1 C 20.0000 % 3.05 C
2490 06-08-2010 17:00:00 24.86 C 33.4000 % 7.67 C
2491 06-08-2010 18:00:00 26.42 C 20.0000 % 1.67 C
2492 06-08-2010 19:00:00 26.2 C 20.0000 % 1.49 C
2493 06-08-2010 20:00:00 23.66 C 24.8000 % 2.38 C
2494 06-08-2010 21:00:00 19.3 C 37.0000 % 4.26 C
2495 06-08-2010 22:00:00 17.72 C 42.0000 % 4.66 C
2496 06-08-2010 23:00:00 16.4 C 47.8000 % 5.31 C
2497 07-08-2010 00:00:00 15.04 C 55.6000 % 6.24 C
2498 07-08-2010 01:00:00 13.94 C 62.8000 % 6.97 C
2499 07-08-2010 02:00:00 13 C 69.6000 % 7.58 C
2500 07-08-2010 03:00:00 12.32 C 71.2000 % 7.26 C
Sensor: Nr:Datum:Temp:Feuchte:Taupunkt:
Aussen-T/F 2501 07-08-2010 04:00:00 11.64 C 74.0000 % 7.17 C
2502 07-08-2010 05:00:00 11.06 C 76.6000 % 7.11 C
2503 07-08-2010 06:00:00 10.48 C 80.2000 % 7.22 C
2504 07-08-2010 07:00:00 10.7 C 81.0000 % 7.58 C
2505 07-08-2010 08:00:00 11.74 C 77.0000 % 7.85 C
2506 07-08-2010 09:00:00 14.06 C 69.4000 % 8.55 C
2507 07-08-2010 10:00:00 18.22 C 54.6000 % 8.93 C
2508 07-08-2010 11:00:00 21.26 C 34.2000 % 4.87 C
2509 07-08-2010 12:00:00 22.86 C 26.8000 % 2.79 C
2510 07-08-2010 13:00:00 25.48 C 20.6000 % 1.31 C
2511 07-08-2010 14:00:00 26.66 C 20.0000 % 1.87 C
2512 07-08-2010 15:00:00 27.78 C 20.0000 % 2.79 C
2513 07-08-2010 16:00:00 29.2 C 20.0000 % 3.95 C
2514 07-08-2010 17:00:00 29.3 C 20.0000 % 4.03 C
2515 07-08-2010 18:00:00 27.4 C 23.8000 % 4.94 C
2516 07-08-2010 19:00:00 25.16 C 29.4000 % 6.08 C
2517 07-08-2010 20:00:00 23.86 C 32.4000 % 6.36 C
2518 07-08-2010 21:00:00 22.46 C 35.4000 % 6.42 C
2519 07-08-2010 22:00:00 21.96 C 38.2000 % 7.08 C
2520 07-08-2010 23:00:00 21.6 C 40.8000 % 7.72 C
2521 08-08-2010 00:00:00 21.04 C 44.2000 % 8.39 C
2522 08-08-2010 01:00:00 20.16 C 48.4000 % 8.93 C
2523 08-08-2010 02:00:00 19.82 C 55.2000 % 10.58 C
2524 08-08-2010 03:00:00 18.68 C 62.6000 % 11.4 C
2525 08-08-2010 04:00:00 18.36 C 66.2000 % 11.95 C
Sensor: Nr:Datum:Temp:Feuchte:Taupunkt:
Aussen-T/F 2526 08-08-2010 05:00:00 17.56 C 76.6000 % 13.4 C
2527 08-08-2010 06:00:00 16.68 C 88.0000 % 14.68 C
2528 08-08-2010 07:00:00 16.66 C 91.4000 % 15.25 C
2529 08-08-2010 08:00:00 17.2 C 92.0000 % 15.89 C
2530 08-08-2010 09:00:00 17.64 C 88.8000 % 15.77 C
2531 08-08-2010 10:00:00 18.46 C 80.2000 % 14.99 C
2532 08-08-2010 11:00:00 16.48 C 86.6000 % 14.24 C
2533 08-08-2010 12:00:00 16.58 C 89.0000 % 14.76 C
2534 08-08-2010 13:00:00 17.16 C 88.0000 % 15.16 C
2535 08-08-2010 14:00:00 18.98 C 77.2000 % 14.9 C
2536 08-08-2010 15:00:00 20.18 C 71.6000 % 14.89 C
2537 08-08-2010 16:00:00 19.94 C 71.8000 % 14.7 C
2538 08-08-2010 17:00:00 21.68 C 63.0000 % 14.33 C
2539 08-08-2010 18:00:00 21.42 C 54.4000 % 11.84 C
2540 08-08-2010 19:00:00 19.98 C 62.4000 % 12.58 C
2541 08-08-2010 20:00:00 17.72 C 78.2000 % 13.88 C
2542 08-08-2010 21:00:00 17.46 C 76.8000 % 13.35 C
2543 08-08-2010 22:00:00 17.1 C 79.0000 % 13.43 C
2544 08-08-2010 23:00:00 16.7 C 82.2000 % 13.65 C
2545 09-08-2010 00:00:00 16.42 C 86.2000 % 14.11 C
2546 09-08-2010 01:00:00 16.44 C 87.0000 % 14.27 C
2547 09-08-2010 02:00:00 15.6 C 87.8000 % 13.59 C
2548 09-08-2010 03:00:00 15.6 C 88.0000 % 13.62 C
2549 09-08-2010 04:00:00 15.74 C 85.0000 % 13.23 C
2550 09-08-2010 05:00:00 14.84 C 86.4000 % 12.59 C
Sensor: Nr:Datum:Temp:Feuchte:Taupunkt:
Aussen-T/F 2551 09-08-2010 06:00:00 14.6 C 90.4000 % 13.05 C
2552 09-08-2010 07:00:00 14.6 C 90.6000 % 13.08 C
2553 09-08-2010 08:00:00 15.22 C 85.0000 % 12.72 C
2554 09-08-2010 09:00:00 15.8 C 80.4000 % 12.44 C
2555 09-08-2010 10:00:00 17.4 C 71.2000 % 12.13 C
2556 09-08-2010 11:00:00 19.6 C 54.8000 % 10.27 C
2557 09-08-2010 12:00:00 21.3 C 46.2000 % 9.28 C
2558 09-08-2010 13:00:00 24.36 C 36.8000 % 8.66 C
2559 09-08-2010 14:00:00 24.1 C 35.8000 % 8.03 C
2560 09-08-2010 15:00:00 25.54 C 32.0000 % 7.64 C
2561 09-08-2010 16:00:00 26.18 C 27.8000 % 6.14 C
2562 09-08-2010 17:00:00 26.22 C 32.8000 % 8.59 C
2563 09-08-2010 18:00:00 27.5 C 29.8000 % 8.29 C
2564 09-08-2010 19:00:00 23.52 C 41.6000 % 9.73 C
2565 09-08-2010 20:00:00 21.26 C 46.0000 % 9.18 C
2566 09-08-2010 21:00:00 19.76 C 51.6000 % 9.52 C
2567 09-08-2010 22:00:00 18.64 C 56.2000 % 9.75 C
2568 09-08-2010 23:00:00 18.12 C 59.8000 % 10.19 C
2569 10-08-2010 00:00:00 17.62 C 65.2000 % 11.01 C
2570 10-08-2010 01:00:00 17.52 C 68.0000 % 11.55 C
2571 10-08-2010 02:00:00 17.38 C 67.8000 % 11.37 C
2572 10-08-2010 03:00:00 17.14 C 69.2000 % 11.45 C
2573 10-08-2010 04:00:00 16.86 C 71.4000 % 11.66 C
2574 10-08-2010 05:00:00 15.62 C 75.8000 % 11.37 C
2575 10-08-2010 06:00:00 14.66 C 79.0000 % 11.06 C
Sensor: Nr:Datum:Temp:Feuchte:Taupunkt:
Aussen-T/F 2576 10-08-2010 07:00:00 14.88 C 81.0000 % 11.65 C
2577 10-08-2010 08:00:00 15.84 C 79.4000 % 12.28 C
2578 10-08-2010 09:00:00 18.2 C 68.2000 % 12.25 C
2579 10-08-2010 10:00:00 20.92 C 60.4000 % 12.97 C
2580 10-08-2010 11:00:00 23.74 C 44.4000 % 10.9 C
2581 10-08-2010 12:00:00 25.9 C 28.2000 % 6.11 C
2582 10-08-2010 13:00:00 28.16 C 21.8000 % 4.32 C
2583 10-08-2010 14:00:00 29.04 C 21.6000 % 4.92 C
2584 10-08-2010 15:00:00 28.46 C 26.4000 % 7.33 C
2585 10-08-2010 16:00:00 29.88 C 21.6000 % 5.61 C
2586 10-08-2010 17:00:00 29.94 C 21.4000 % 5.53 C
2587 10-08-2010 18:00:00 29.68 C 22.6000 % 6.1 C
2588 10-08-2010 19:00:00 26.94 C 31.8000 % 8.76 C
2589 10-08-2010 20:00:00 24.76 C 36.4000 % 8.85 C
2590 10-08-2010 21:00:00 23.36 C 41.8000 % 9.66 C
2591 10-08-2010 22:00:00 22.86 C 43.8000 % 9.9 C
2592 10-08-2010 23:00:00 21.9 C 48.0000 % 10.4 C
2593 11-08-2010 00:00:00 21.46 C 51.4000 % 11.02 C
2594 11-08-2010 01:00:00 20.54 C 59.2000 % 12.31 C
2595 11-08-2010 02:00:00 18.38 C 78.4000 % 14.56 C
2596 11-08-2010 03:00:00 17.64 C 87.4000 % 15.52 C
2597 11-08-2010 04:00:00 17.52 C 89.8000 % 15.83 C
2598 11-08-2010 05:00:00 17.42 C 89.2000 % 15.62 C
2599 11-08-2010 06:00:00 17.4 C 88.0000 % 15.39 C
2600 11-08-2010 07:00:00 17.62 C 86.8000 % 15.39 C
Sensor: Nr:Datum:Temp:Feuchte:Taupunkt:
Aussen-T/F 2601 11-08-2010 08:00:00 18.68 C 81.4000 % 15.43 C
2602 11-08-2010 09:00:00 19.64 C 68.0000 % 13.57 C
2603 11-08-2010 10:00:00 20.8 C 61.2000 % 13.06 C
2604 11-08-2010 11:00:00 20.62 C 62.4000 % 13.19 C
2605 11-08-2010 12:00:00 22.46 C 55.2000 % 13.03 C
2606 11-08-2010 13:00:00 23.8 C 48.2000 % 12.2 C
2607 11-08-2010 14:00:00 24.4 C 45.4000 % 11.84 C
2608 11-08-2010 15:00:00 25.56 C 41.6000 % 11.56 C
2609 11-08-2010 16:00:00 22.88 C 58.8000 % 14.39 C
2610 11-08-2010 17:00:00 21.74 C 73.2000 % 16.73 C
2611 11-08-2010 18:00:00 22.86 C 70.2000 % 17.14 C
2612 11-08-2010 19:00:00 21.28 C 73.6000 % 16.37 C
2613 11-08-2010 20:00:00 19.56 C 80.6000 % 16.13 C
2614 11-08-2010 21:00:00 18.84 C 89.2000 % 17.02 C
2615 11-08-2010 22:00:00 18.48 C 91.0000 % 16.98 C
2616 11-08-2010 23:00:00 18.3 C 92.0000 % 16.98 C
2617 12-08-2010 00:00:00 17.88 C 93.6000 % 16.83 C
2618 12-08-2010 01:00:00 17.52 C 94.0000 % 16.54 C
2619 12-08-2010 02:00:00 17.16 C 94.0000 % 16.19 C
2620 12-08-2010 03:00:00 16.86 C 94.0000 % 15.89 C
2621 12-08-2010 04:00:00 16.46 C 94.4000 % 15.56 C
2622 12-08-2010 05:00:00 16.48 C 94.8000 % 15.64 C
2623 12-08-2010 06:00:00 16.72 C 95.0000 % 15.91 C
2624 12-08-2010 07:00:00 16.86 C 94.8000 % 16.02 C
2625 12-08-2010 08:00:00 16.64 C 91.0000 % 15.16 C
Sensor: Nr:Datum:Temp:Feuchte:Taupunkt:
Aussen-T/F 2626 12-08-2010 09:00:00 17.72 C 89.0000 % 15.88 C
2627 12-08-2010 10:00:00 18.58 C 77.0000 % 14.47 C
2628 12-08-2010 11:00:00 18.62 C 76.4000 % 14.39 C
2629 12-08-2010 12:00:00 19.56 C 66.8000 % 13.22 C
2630 12-08-2010 13:00:00 20.26 C 54.6000 % 10.82 C
2631 12-08-2010 14:00:00 20.3 C 51.4000 % 9.96 C
2632 12-08-2010 15:00:00 23.02 C 40.8000 % 8.99 C
2633 12-08-2010 16:00:00 22.56 C 35.6000 % 6.59 C
2634 12-08-2010 17:00:00 25.42 C 25.0000 % 3.98 C
2635 12-08-2010 18:00:00 23.3 C 31.8000 % 5.6 C
2636 12-08-2010 19:00:00 21.68 C 43.2000 % 8.63 C
2637 12-08-2010 20:00:00 20.1 C 48.6000 % 8.94 C
2638 12-08-2010 21:00:00 19.14 C 48.6000 % 8.06 C
2639 12-08-2010 22:00:00 18.44 C 54.4000 % 9.08 C
2640 12-08-2010 23:00:00 17.34 C 62.2000 % 10.04 C
2641 13-08-2010 00:00:00 16.82 C 65.8000 % 10.39 C
2642 13-08-2010 01:00:00 16.18 C 67.2000 % 10.1 C
2643 13-08-2010 02:00:00 15.82 C 71.8000 % 10.74 C
2644 13-08-2010 03:00:00 15.34 C 75.2000 % 10.98 C
2645 13-08-2010 04:00:00 15.04 C 77.8000 % 11.2 C
2646 13-08-2010 05:00:00 14.76 C 79.0000 % 11.16 C
2647 13-08-2010 06:00:00 14.7 C 79.8000 % 11.25 C
2648 13-08-2010 07:00:00 15.02 C 78.8000 % 11.37 C
2649 13-08-2010 08:00:00 15.16 C 79.8000 % 11.7 C
2650 13-08-2010 09:00:00 16.26 C 74.4000 % 11.7 C
Sensor: Nr:Datum:Temp:Feuchte:Taupunkt:
Aussen-T/F 2651 13-08-2010 10:00:00 18.84 C 59.8000 % 10.86 C
2652 13-08-2010 11:00:00 21.24 C 45.2000 % 8.91 C
2653 13-08-2010 12:00:00 22.2 C 39.4000 % 7.75 C
2654 13-08-2010 13:00:00 23 C 34.0000 % 6.31 C
2655 13-08-2010 14:00:00 23.92 C 30.0000 % 5.3 C
2656 13-08-2010 15:00:00 24.42 C 27.0000 % 4.22 C
2657 13-08-2010 16:00:00 24.24 C 30.6000 % 5.86 C
2658 13-08-2010 17:00:00 23.66 C 34.8000 % 7.22 C
2659 13-08-2010 18:00:00 22.5 C 40.8000 % 8.53 C
2660 13-08-2010 19:00:00 21.84 C 41.0000 % 8.01 C
2661 13-08-2010 20:00:00 19.9 C 46.2000 % 8.01 C
2662 13-08-2010 21:00:00 17.66 C 52.0000 % 7.69 C
2663 13-08-2010 22:00:00 16.72 C 57.6000 % 8.32 C
2664 13-08-2010 23:00:00 15.44 C 65.6000 % 9.03 C
2665 14-08-2010 00:00:00 14.7 C 70.8000 % 9.46 C
2666 14-08-2010 01:00:00 13.98 C 75.6000 % 9.74 C
2667 14-08-2010 02:00:00 13.32 C 77.8000 % 9.53 C
2668 14-08-2010 03:00:00 12.6 C 80.2000 % 9.28 C
2669 14-08-2010 04:00:00 12.06 C 81.8000 % 9.05 C
2670 14-08-2010 05:00:00 11.62 C 84.2000 % 9.05 C
2671 14-08-2010 06:00:00 11.12 C 86.6000 % 8.97 C
2672 14-08-2010 07:00:00 11.28 C 87.4000 % 9.27 C
2673 14-08-2010 08:00:00 12.32 C 86.6000 % 10.15 C
2674 14-08-2010 09:00:00 14.4 C 80.4000 % 11.07 C
2675 14-08-2010 10:00:00 17.62 C 69.2000 % 11.91 C
Sensor: Nr:Datum:Temp:Feuchte:Taupunkt:
Aussen-T/F 2676 14-08-2010 11:00:00 20.68 C 57.6000 % 12.02 C
2677 14-08-2010 12:00:00 22.96 C 44.8000 % 10.33 C
2678 14-08-2010 13:00:00 26.24 C 30.0000 % 7.3 C
2679 14-08-2010 14:00:00 27.62 C 26.2000 % 6.51 C
2680 14-08-2010 15:00:00 28.04 C 24.6000 % 5.95 C
2681 14-08-2010 16:00:00 30.1 C 21.2000 % 5.52 C
2682 14-08-2010 17:00:00 30.88 C 20.0000 % 5.33 C
2683 14-08-2010 18:00:00 31.22 C 20.0000 % 5.6 C
2684 14-08-2010 19:00:00 27.86 C 28.0000 % 7.68 C
2685 14-08-2010 20:00:00 24.86 C 35.8000 % 8.69 C
2686 14-08-2010 21:00:00 22.14 C 44.6000 % 9.52 C
2687 14-08-2010 22:00:00 21.24 C 49.2000 % 10.17 C
2688 14-08-2010 23:00:00 20.36 C 51.8000 % 10.13 C
2689 15-08-2010 00:00:00 19.74 C 51.8000 % 9.56 C
2690 15-08-2010 01:00:00 19.38 C 52.4000 % 9.39 C
2691 15-08-2010 02:00:00 18.98 C 55.2000 % 9.8 C
2692 15-08-2010 03:00:00 18.6 C 58.4000 % 10.28 C
2693 15-08-2010 04:00:00 18.14 C 59.0000 % 10.01 C
2694 15-08-2010 05:00:00 18.06 C 57.6000 % 9.57 C
2695 15-08-2010 06:00:00 17.9 C 59.2000 % 9.83 C
2696 15-08-2010 07:00:00 17.1 C 66.6000 % 10.84 C
2697 15-08-2010 08:00:00 15.24 C 88.2000 % 13.3 C
2698 15-08-2010 09:00:00 15.2 C 92.4000 % 13.98 C
2699 15-08-2010 10:00:00 15.48 C 94.2000 % 14.55 C
2700 15-08-2010 11:00:00 15.82 C 95.0000 % 15.02 C
Sensor: Nr:Datum:Temp:Feuchte:Taupunkt:
Aussen-T/F 2701 15-08-2010 12:00:00 16.04 C 95.0000 % 15.24 C
2702 15-08-2010 13:00:00 16.14 C 95.0000 % 15.34 C
2703 15-08-2010 14:00:00 16.44 C 95.0000 % 15.64 C
2704 15-08-2010 15:00:00 16.4 C 95.0000 % 15.6 C
2705 15-08-2010 16:00:00 16.48 C 95.0000 % 15.68 C
2706 15-08-2010 17:00:00 16.68 C 95.0000 % 15.88 C
2707 15-08-2010 18:00:00 16.6 C 95.0000 % 15.8 C
2708 15-08-2010 19:00:00 16.6 C 95.0000 % 15.8 C
2709 15-08-2010 20:00:00 16.38 C 95.0000 % 15.58 C
2710 15-08-2010 21:00:00 16.24 C 95.0000 % 15.44 C
2711 15-08-2010 22:00:00 16.14 C 95.0000 % 15.34 C
2712 15-08-2010 23:00:00 15.5 C 95.0000 % 14.7 C
2713 16-08-2010 00:00:00 14.9 C 95.0000 % 14.11 C
2714 16-08-2010 01:00:00 14.72 C 94.2000 % 13.8 C
2715 16-08-2010 02:00:00 14.6 C 92.8000 % 13.45 C
2716 16-08-2010 03:00:00 14.6 C 93.0000 % 13.48 C
2717 16-08-2010 04:00:00 14.5 C 91.2000 % 13.08 C
2718 16-08-2010 05:00:00 14.5 C 91.6000 % 13.15 C
2719 16-08-2010 06:00:00 14.54 C 91.2000 % 13.12 C
2720 16-08-2010 07:00:00 14.84 C 90.2000 % 13.25 C
2721 16-08-2010 08:00:00 15.92 C 84.4000 % 13.29 C
2722 16-08-2010 09:00:00 17.4 C 74.8000 % 12.89 C
2723 16-08-2010 10:00:00 17.2 C 74.0000 % 12.53 C
2724 16-08-2010 11:00:00 17.7 C 73.5000 % 12.91 C
2725 16-08-2010 12:00:00 17.76 C 75.6000 % 13.4 C
Sensor: Nr:Datum:Temp:Feuchte:Taupunkt:
Aussen-T/F 2726 16-08-2010 13:00:00 18.38 C 67.4000 % 12.24 C
2727 16-08-2010 14:00:00 19.88 C 57.6000 % 11.27 C
2728 16-08-2010 15:00:00 19.72 C 55.4000 % 10.54 C
2729 16-08-2010 16:00:00 19.76 C 57.2000 % 11.06 C
2730 16-08-2010 17:00:00 19.96 C 56.8000 % 11.14 C
2731 16-08-2010 18:00:00 19.76 C 56.6000 % 10.9 C
2732 16-08-2010 19:00:00 18.6 C 63.2000 % 11.47 C
2733 16-08-2010 20:00:00 17.9 C 69.6000 % 12.27 C
2734 16-08-2010 21:00:00 17.44 C 76.2000 % 13.21 C
2735 16-08-2010 22:00:00 17.58 C 79.0000 % 13.9 C
2736 16-08-2010 23:00:00 17.76 C 79.6000 % 14.19 C
2737 17-08-2010 00:00:00 17.62 C 79.6000 % 14.05 C
2738 17-08-2010 01:00:00 16.68 C 86.6000 % 14.44 C
2739 17-08-2010 02:00:00 16.48 C 88.2000 % 14.52 C
2740 17-08-2010 03:00:00 16.42 C 84.4000 % 13.78 C
2741 17-08-2010 04:00:00 16.42 C 80.0000 % 12.96 C
2742 17-08-2010 05:00:00 15.62 C 85.2000 % 13.14 C
2743 17-08-2010 06:00:00 15.84 C 83.2000 % 13 C
2744 17-08-2010 07:00:00 16.36 C 77.8000 % 12.48 C
2745 17-08-2010 08:00:00 16.72 C 72.6000 % 11.78 C
2746 17-08-2010 09:00:00 16.98 C 66.8000 % 10.77 C
2747 17-08-2010 10:00:00 17.06 C 64.4000 % 10.3 C
2748 17-08-2010 11:00:00 17.58 C 61.4000 % 10.08 C
2749 17-08-2010 12:00:00 16.62 C 71.6000 % 11.47 C
2750 17-08-2010 13:00:00 17.3 C 79.6000 % 13.74 C
Sensor: Nr:Datum:Temp:Feuchte:Taupunkt:
Aussen-T/F 2751 17-08-2010 14:00:00 17.74 C 60.6000 % 10.03 C
2752 17-08-2010 15:00:00 17.08 C 60.2000 % 9.31 C
2753 17-08-2010 16:00:00 14.7 C 77.4000 % 10.79 C
2754 17-08-2010 17:00:00 14.42 C 80.6000 % 11.13 C
2755 17-08-2010 18:00:00 14.8 C 86.8000 % 12.62 C
2756 17-08-2010 19:00:00 14.84 C 87.0000 % 12.7 C
2757 17-08-2010 20:00:00 14.32 C 89.6000 % 12.63 C
2758 17-08-2010 21:00:00 14.38 C 91.6000 % 13.03 C
2759 17-08-2010 22:00:00 14.62 C 85.8000 % 12.27 C
2760 17-08-2010 23:00:00 15 C 78.4000 % 11.28 C
2761 18-08-2010 00:00:00 15.52 C 73.0000 % 10.7 C
2762 18-08-2010 01:00:00 15.76 C 70.2000 % 10.35 C
2763 18-08-2010 02:00:00 15.54 C 71.2000 % 10.35 C
2764 18-08-2010 03:00:00 15.46 C 72.0000 % 10.44 C
2765 18-08-2010 04:00:00 15.2 C 73.6000 % 10.52 C
2766 18-08-2010 05:00:00 14.96 C 76.6000 % 10.89 C
2767 18-08-2010 06:00:00 15.08 C 74.2000 % 10.53 C
2768 18-08-2010 07:00:00 15.44 C 73.6000 % 10.75 C
2769 18-08-2010 08:00:00 16.16 C 71.8000 % 11.07 C
2770 18-08-2010 09:00:00 17.1 C 69.8000 % 11.55 C
2771 18-08-2010 10:00:00 18.16 C 65.8000 % 11.66 C
2772 18-08-2010 11:00:00 18.7 C 63.6000 % 11.66 C
2773 18-08-2010 12:00:00 18.82 C 66.2000 % 12.38 C
2774 18-08-2010 13:00:00 20.8 C 56.6000 % 11.87 C
2775 18-08-2010 14:00:00 22.84 C 44.4000 % 10.09 C
Sensor: Nr:Datum:Temp:Feuchte:Taupunkt:
Aussen-T/F 2776 18-08-2010 15:00:00 22.24 C 45.8000 % 10.01 C
2777 18-08-2010 16:00:00 23.68 C 42.2000 % 10.09 C
2778 18-08-2010 17:00:00 23.88 C 41.0000 % 9.84 C
2779 18-08-2010 18:00:00 22.36 C 46.2000 % 10.25 C
2780 18-08-2010 19:00:00 20.68 C 52.0000 % 10.48 C
2781 18-08-2010 20:00:00 19.44 C 59.8000 % 11.43 C
2782 18-08-2010 21:00:00 18.82 C 63.2000 % 11.68 C
2783 18-08-2010 22:00:00 17.6 C 70.6000 % 12.2 C
2784 18-08-2010 23:00:00 17.58 C 68.0000 % 11.61 C
2785 19-08-2010 00:00:00 17.36 C 61.8000 % 9.97 C
2786 19-08-2010 01:00:00 16.86 C 64.0000 % 10.01 C
2787 19-08-2010 02:00:00 16.32 C 63.4000 % 9.36 C
2788 19-08-2010 03:00:00 15.9 C 68.0000 % 10.01 C
2789 19-08-2010 04:00:00 15.54 C 70.8000 % 10.27 C
2790 19-08-2010 05:00:00 15.1 C 72.2000 % 10.14 C
2791 19-08-2010 06:00:00 14.18 C 73.0000 % 9.42 C
2792 19-08-2010 07:00:00 13.92 C 68.4000 % 8.2 C
2793 19-08-2010 08:00:00 14.78 C 63.6000 % 7.95 C
2794 19-08-2010 09:00:00 15.72 C 60.2000 % 8.03 C
2795 19-08-2010 10:00:00 17.9 C 50.4000 % 7.46 C
2796 19-08-2010 11:00:00 20 C 42.0000 % 6.71 C
2797 19-08-2010 12:00:00 21.44 C 35.4000 % 5.52 C
2798 19-08-2010 13:00:00 22.64 C 30.6000 % 4.48 C
2799 19-08-2010 14:00:00 23.04 C 29.2000 % 4.16 C
2800 19-08-2010 15:00:00 23.74 C 29.0000 % 4.66 C
Sensor: Nr:Datum:Temp:Feuchte:Taupunkt:
Aussen-T/F 2801 19-08-2010 16:00:00 23.28 C 36.6000 % 7.63 C
2802 19-08-2010 17:00:00 23.9 C 34.8000 % 7.43 C
2803 19-08-2010 18:00:00 25.42 C 24.4000 % 3.63 C
2804 19-08-2010 19:00:00 25.24 C 28.4000 % 5.65 C
2805 19-08-2010 20:00:00 20.5 C 40.2000 % 6.52 C
2806 19-08-2010 21:00:00 18.08 C 50.4000 % 7.62 C
2807 19-08-2010 22:00:00 16.86 C 55.8000 % 7.99 C
2808 19-08-2010 23:00:00 15.62 C 62.8000 % 8.56 C
2809 20-08-2010 00:00:00 14.72 C 67.8000 % 8.84 C
2810 20-08-2010 01:00:00 14.04 C 71.2000 % 8.91 C
2811 20-08-2010 02:00:00 13.34 C 74.2000 % 8.85 C
2812 20-08-2010 03:00:00 12.8 C 77.0000 % 8.87 C
2813 20-08-2010 04:00:00 12.26 C 79.2000 % 8.77 C
2814 20-08-2010 05:00:00 11.9 C 80.8000 % 8.71 C
2815 20-08-2010 06:00:00 11.48 C 82.8000 % 8.66 C
2816 20-08-2010 07:00:00 11.76 C 83.6000 % 9.08 C
2817 20-08-2010 08:00:00 12.54 C 83.4000 % 9.81 C
2818 20-08-2010 09:00:00 14.5 C 79.2000 % 10.94 C
2819 20-08-2010 10:00:00 18.02 C 67.0000 % 11.8 C
2820 20-08-2010 11:00:00 20.98 C 59.4000 % 12.77 C
2821 20-08-2010 12:00:00 23.76 C 50.6000 % 12.9 C
2822 20-08-2010 13:00:00 26.76 C 35.6000 % 10.28 C
2823 20-08-2010 14:00:00 28.36 C 28.2000 % 8.21 C
2824 20-08-2010 15:00:00 29.54 C 25.2000 % 7.56 C
2825 20-08-2010 16:00:00 30.72 C 24.0000 % 7.84 C
Sensor: Nr:Datum:Temp:Feuchte:Taupunkt:
Aussen-T/F 2826 20-08-2010 17:00:00 31.16 C 22.6000 % 7.33 C
2827 20-08-2010 18:00:00 31.22 C 23.6000 % 8.01 C
2828 20-08-2010 19:00:00 29.58 C 28.4000 % 9.36 C
2829 20-08-2010 20:00:00 25.1 C 39.2000 % 10.26 C
2830 20-08-2010 21:00:00 23.08 C 46.4000 % 10.97 C
2831 20-08-2010 22:00:00 22.025 C 52.5000 % 11.87 C
2832 20-08-2010 23:00:00 20.9 C 58.4000 % 12.44 C
2833 21-08-2010 00:00:00 19.76 C 63.2000 % 12.57 C
2834 21-08-2010 01:00:00 18.84 C 68.2000 % 12.86 C
2835 21-08-2010 02:00:00 18.16 C 71.2000 % 12.86 C
2836 21-08-2010 03:00:00 17.66 C 73.8000 % 12.93 C
2837 21-08-2010 04:00:00 17.06 C 76.6000 % 12.92 C
2838 21-08-2010 05:00:00 16.46 C 78.2000 % 12.65 C
2839 21-08-2010 06:00:00 16.04 C 79.8000 % 12.55 C
2840 21-08-2010 07:00:00 16 C 81.2000 % 12.78 C
2841 21-08-2010 08:00:00 16.78 C 80.8000 % 13.47 C
2842 21-08-2010 09:00:00 18.42 C 77.6000 % 14.44 C
2843 21-08-2010 10:00:00 21.4 C 68.6000 % 15.39 C
2844 21-08-2010 11:00:00 24.76 C 53.6000 % 14.71 C
2845 21-08-2010 12:00:00 27.54 C 37.0000 % 11.55 C
2846 21-08-2010 13:00:00 29.12 C 31.8000 % 10.65 C
2847 21-08-2010 14:00:00 30.42 C 28.0000 % 9.87 C
2848 21-08-2010 15:00:00 31.28 C 26.2000 % 9.61 C
2849 21-08-2010 16:00:00 32.14 C 23.2000 % 8.53 C
2850 21-08-2010 17:00:00 32.38 C 22.0000 % 7.94 C
Sensor: Nr:Datum:Temp:Feuchte:Taupunkt:
Aussen-T/F 2851 21-08-2010 18:00:00 32.42 C 21.4000 % 7.57 C
2852 21-08-2010 19:00:00 31.66 C 24.0000 % 8.63 C
2853 21-08-2010 20:00:00 28.82 C 32.8000 % 10.86 C
2854 21-08-2010 21:00:00 25.72 C 42.8000 % 12.13 C
2855 21-08-2010 22:00:00 24.34 C 49.0000 % 12.94 C
2856 21-08-2010 23:00:00 23.16 C 54.2000 % 13.4 C
2857 22-08-2010 00:00:00 22 C 59.0000 % 13.62 C
2858 22-08-2010 01:00:00 21.04 C 63.6000 % 13.87 C
2859 22-08-2010 02:00:00 20.14 C 68.2000 % 14.1 C
2860 22-08-2010 03:00:00 19.52 C 72.0000 % 14.34 C
2861 22-08-2010 04:00:00 19.16 C 73.6000 % 14.33 C
2862 22-08-2010 05:00:00 18.54 C 76.2000 % 14.27 C
2863 22-08-2010 06:00:00 18 C 78.2000 % 14.15 C
2864 22-08-2010 07:00:00 18.3 C 78.0000 % 14.4 C
2865 22-08-2010 08:00:00 18.96 C 77.6000 % 14.96 C
2866 22-08-2010 09:00:00 20.32 C 71.8000 % 15.06 C
2867 22-08-2010 10:00:00 23.1 C 61.4000 % 15.27 C
2868 22-08-2010 11:00:00 24.88 C 55.6000 % 15.39 C
2869 22-08-2010 12:00:00 27.46 C 44.2000 % 14.19 C
2870 22-08-2010 13:00:00 28.44 C 37.8000 % 12.67 C
2871 22-08-2010 14:00:00 28.74 C 37.0000 % 12.61 C
2872 22-08-2010 15:00:00 25.76 C 50.8000 % 14.8 C
2873 22-08-2010 16:00:00 27.8 C 44.2000 % 14.5 C
2874 22-08-2010 17:00:00 26.68 C 47.0000 % 14.44 C
2875 22-08-2010 18:00:00 26.28 C 47.4000 % 14.2 C
Sensor: Nr:Datum:Temp:Feuchte:Taupunkt:
Aussen-T/F 2876 22-08-2010 19:00:00 25.52 C 48.8000 % 13.96 C
2877 22-08-2010 20:00:00 24.42 C 47.8000 % 12.64 C
2878 22-08-2010 21:00:00 23.16 C 55.4000 % 13.74 C
2879 22-08-2010 22:00:00 22.66 C 58.0000 % 13.98 C
2880 22-08-2010 23:00:00 21.52 C 63.0000 % 14.18 C
2881 23-08-2010 00:00:00 20.88 C 66.0000 % 14.29 C
2882 23-08-2010 01:00:00 20.38 C 68.8000 % 14.46 C
2883 23-08-2010 02:00:00 20.02 C 71.2000 % 14.65 C
2884 23-08-2010 03:00:00 19.82 C 72.0000 % 14.63 C
2885 23-08-2010 04:00:00 19.52 C 73.4000 % 14.64 C
2886 23-08-2010 05:00:00 19.44 C 73.0000 % 14.48 C
2887 23-08-2010 06:00:00 19.48 C 73.6000 % 14.64 C
2888 23-08-2010 07:00:00 19.92 C 72.6000 % 14.85 C
2889 23-08-2010 08:00:00 19.74 C 78.2000 % 15.84 C
2890 23-08-2010 09:00:00 19.44 C 86.8000 % 17.18 C
2891 23-08-2010 10:00:00 20.64 C 84.0000 % 17.84 C
2892 23-08-2010 11:00:00 22.26 C 75.0000 % 17.62 C
2893 23-08-2010 12:00:00 23.08 C 75.6000 % 18.53 C
2894 23-08-2010 13:00:00 23.68 C 67.2000 % 17.24 C
2895 23-08-2010 14:00:00 24.34 C 64.4000 % 17.19 C
2896 23-08-2010 15:00:00 25.86 C 51.0000 % 14.95 C
2897 23-08-2010 16:00:00 25.94 C 47.0000 % 13.76 C
2898 23-08-2010 17:00:00 23.58 C 56.4000 % 14.4 C
2899 23-08-2010 18:00:00 21.12 C 74.6000 % 16.43 C
2900 23-08-2010 19:00:00 20.76 C 76.2000 % 16.42 C
Sensor: Nr:Datum:Temp:Feuchte:Taupunkt:
Aussen-T/F 2901 23-08-2010 20:00:00 20.34 C 73.4000 % 15.43 C
2902 23-08-2010 21:00:00 19.8 C 73.8000 % 14.99 C
2903 23-08-2010 22:00:00 19.58 C 72.6000 % 14.53 C
2904 23-08-2010 23:00:00 19.3 C 72.0000 % 14.13 C
2905 24-08-2010 00:00:00 19.18 C 73.4000 % 14.31 C
2906 24-08-2010 01:00:00 19.2 C 75.4000 % 14.75 C
2907 24-08-2010 02:00:00 19.68 C 72.4000 % 14.58 C
2908 24-08-2010 03:00:00 18.34 C 75.6000 % 13.96 C
2909 24-08-2010 04:00:00 18.06 C 61.8000 % 10.62 C
2910 24-08-2010 05:00:00 17.24 C 64.8000 % 10.56 C
2911 24-08-2010 06:00:00 17.08 C 65.2000 % 10.5 C
2912 24-08-2010 07:00:00 16.44 C 66.0000 % 10.08 C
2913 24-08-2010 08:00:00 16.16 C 61.4000 % 8.74 C
2914 24-08-2010 09:00:00 16.76 C 51.2000 % 6.64 C
2915 24-08-2010 10:00:00 17.88 C 47.4000 % 6.54 C
2916 24-08-2010 11:00:00 19.08 C 42.0000 % 5.88 C
2917 24-08-2010 12:00:00 20.04 C 36.6000 % 4.76 C
2918 24-08-2010 13:00:00 21 C 32.4000 % 3.87 C
2919 24-08-2010 14:00:00 21.46 C 29.2000 % 2.8 C
2920 24-08-2010 15:00:00 21.82 C 26.6000 % 1.8 C
2921 24-08-2010 16:00:00 23.04 C 22.4000 % 0.44 C
2922 24-08-2010 17:00:00 23.22 C 22.6000 % 0.72 C
2923 24-08-2010 18:00:00 22.92 C 25.0000 % 1.87 C
2924 24-08-2010 19:00:00 21.68 C 27.2000 % 1.99 C
2925 24-08-2010 20:00:00 19.76 C 34.0000 % 3.47 C
Sensor: Nr:Datum:Temp:Feuchte:Taupunkt:
Aussen-T/F 2926 24-08-2010 21:00:00 18.28 C 39.2000 % 4.18 C
2927 24-08-2010 22:00:00 17.4 C 42.4000 % 4.51 C
2928 24-08-2010 23:00:00 16.78 C 45.0000 % 4.79 C
2929 25-08-2010 00:00:00 16.16 C 47.6000 % 5.03 C
2930 25-08-2010 01:00:00 15.52 C 51.4000 % 5.55 C
2931 25-08-2010 02:00:00 14.66 C 56.6000 % 6.14 C
2932 25-08-2010 03:00:00 13.76 C 63.6000 % 6.99 C
2933 25-08-2010 04:00:00 13.4 C 66.2000 % 7.23 C
2934 25-08-2010 05:00:00 13.38 C 64.8000 % 6.9 C
2935 25-08-2010 06:00:00 12.94 C 68.2000 % 7.23 C
2936 25-08-2010 07:00:00 12.76 C 70.2000 % 7.48 C
2937 25-08-2010 08:00:00 13.54 C 67.0000 % 7.54 C
2938 25-08-2010 09:00:00 14.92 C 62.0000 % 7.71 C
2939 25-08-2010 10:00:00 16.3 C 56.2000 % 7.57 C
2940 25-08-2010 11:00:00 17.9 C 51.2000 % 7.69 C
2941 25-08-2010 12:00:00 20 C 41.6000 % 6.57 C
2942 25-08-2010 13:00:00 20.82 C 36.8000 % 5.53 C
2943 25-08-2010 14:00:00 21.46 C 34.2000 % 5.04 C
2944 25-08-2010 15:00:00 23.54 C 28.8000 % 4.39 C
2945 25-08-2010 16:00:00 24.46 C 25.4000 % 3.39 C
2946 25-08-2010 17:00:00 23.2 C 32.0000 % 5.61 C
2947 25-08-2010 18:00:00 21.9 C 36.8000 % 6.49 C
2948 25-08-2010 19:00:00 20.22 C 45.2000 % 7.98 C
2949 25-08-2010 20:00:00 19.04 C 50.4000 % 8.5 C
2950 25-08-2010 21:00:00 18.12 C 54.0000 % 8.67 C
Sensor: Nr:Datum:Temp:Feuchte:Taupunkt:
Aussen-T/F 2951 25-08-2010 22:00:00 17.56 C 56.8000 % 8.9 C
2952 25-08-2010 23:00:00 17.3 C 59.8000 % 9.42 C
2953 26-08-2010 00:00:00 17.28 C 61.6000 % 9.84 C
2954 26-08-2010 01:00:00 17.48 C 61.2000 % 9.93 C
2955 26-08-2010 02:00:00 16.88 C 69.4000 % 11.25 C
2956 26-08-2010 03:00:00 16.86 C 70.0000 % 11.36 C
2957 26-08-2010 04:00:00 16.94 C 68.4000 % 11.09 C
2958 26-08-2010 05:00:00 18.28 C 66.0000 % 11.82 C
2959 26-08-2010 06:00:00 18.18 C 67.8000 % 12.14 C
2960 26-08-2010 07:00:00 19.26 C 64.6000 % 12.43 C
2961 26-08-2010 08:00:00 20.2 C 63.6000 % 13.08 C
2962 26-08-2010 09:00:00 21.52 C 60.0000 % 13.43 C
2963 26-08-2010 10:00:00 22.76 C 55.2000 % 13.31 C
2964 26-08-2010 11:00:00 23.76 C 52.0000 % 13.32 C
2965 26-08-2010 12:00:00 23.54 C 52.6000 % 13.29 C
2966 26-08-2010 13:00:00 22.96 C 54.6000 % 13.33 C
2967 26-08-2010 14:00:00 23.8 C 52.0000 % 13.36 C
2968 26-08-2010 15:00:00 23.68 C 53.0000 % 13.54 C
2969 26-08-2010 16:00:00 23.94 C 52.0000 % 13.49 C
2970 26-08-2010 17:00:00 23.62 C 53.0000 % 13.48 C
2971 26-08-2010 18:00:00 23.18 C 56.2000 % 13.98 C
2972 26-08-2010 19:00:00 21.66 C 70.2000 % 16 C
2973 26-08-2010 20:00:00 20.94 C 79.4000 % 17.24 C
2974 26-08-2010 21:00:00 20.42 C 79.2000 % 16.7 C
2975 26-08-2010 22:00:00 19.76 C 85.8000 % 17.31 C
Sensor: Nr:Datum:Temp:Feuchte:Taupunkt:
Aussen-T/F 2976 26-08-2010 23:00:00 19.44 C 89.4000 % 17.65 C
2977 27-08-2010 00:00:00 18.98 C 91.6000 % 17.58 C
2978 27-08-2010 01:00:00 18.76 C 93.2000 % 17.64 C
2979 27-08-2010 02:00:00 18.62 C 94.0000 % 17.63 C
2980 27-08-2010 03:00:00 18.38 C 94.0000 % 17.4 C
2981 27-08-2010 04:00:00 18.34 C 94.0000 % 17.36 C
2982 27-08-2010 05:00:00 18.4 C 94.6000 % 17.52 C
2983 27-08-2010 06:00:00 18.82 C 95.0000 % 18 C
2984 27-08-2010 07:00:00 18.68 C 94.0000 % 17.69 C
2985 27-08-2010 08:00:00 18.58 C 94.0000 % 17.6 C
2986 27-08-2010 09:00:00 19.26 C 91.0000 % 17.75 C
2987 27-08-2010 10:00:00 19.32 C 86.4000 % 16.99 C
2988 27-08-2010 11:00:00 18.16 C 87.6000 % 16.07 C
2989 27-08-2010 12:00:00 20.1 C 77.8000 % 16.1 C
2990 27-08-2010 13:00:00 22.92 C 61.6000 % 15.15 C
2991 27-08-2010 14:00:00 20.76 C 66.8000 % 14.37 C
2992 27-08-2010 15:00:00 18.92 C 83.2000 % 16.01 C
2993 27-08-2010 16:00:00 21.9 C 66.8000 % 15.45 C
2994 27-08-2010 17:00:00 21.3 C 62.8000 % 13.92 C
2995 27-08-2010 18:00:00 16.8 C 84.0000 % 14.08 C
2996 27-08-2010 19:00:00 15.64 C 82.0000 % 12.58 C
2997 27-08-2010 20:00:00 15.12 C 80.8000 % 11.85 C
2998 27-08-2010 21:00:00 14.58 C 81.4000 % 11.43 C
2999 27-08-2010 22:00:00 14.74 C 79.4000 % 11.21 C
3000 27-08-2010 23:00:00 13.96 C 77.6000 % 10.11 C
Sensor: Nr:Datum:Temp:Feuchte:Taupunkt:
Aussen-T/F 3001 28-08-2010 00:00:00 13.78 C 77.4000 % 9.9 C
3002 28-08-2010 01:00:00 13.1 C 86.6000 % 10.92 C
3003 28-08-2010 02:00:00 13.14 C 85.8000 % 10.82 C
3004 28-08-2010 03:00:00 13.1 C 83.8000 % 10.42 C
3005 28-08-2010 04:00:00 12.54 C 84.4000 % 9.98 C
3006 28-08-2010 05:00:00 12.12 C 85.2000 % 9.71 C
3007 28-08-2010 06:00:00 11.58 C 84.4000 % 9.04 C
3008 28-08-2010 07:00:00 11.72 C 84.8000 % 9.25 C
3009 28-08-2010 08:00:00 13.08 C 78.4000 % 9.41 C
3010 28-08-2010 09:00:00 14.22 C 70.2000 % 8.87 C
3011 28-08-2010 10:00:00 15.14 C 64.6000 % 8.52 C
3012 28-08-2010 11:00:00 16.44 C 55.8000 % 7.59 C
3013 28-08-2010 12:00:00 15.42 C 66.2000 % 9.15 C
3014 28-08-2010 13:00:00 16.24 C 76.8000 % 12.17 C
3015 28-08-2010 14:00:00 15.6 C 57.8000 % 7.32 C
3016 28-08-2010 15:00:00 16.72 C 52.4000 % 6.94 C
3017 28-08-2010 16:00:00 15.1 C 62.6000 % 8.02 C
3018 28-08-2010 17:00:00 15.6 C 65.2000 % 9.1 C
3019 28-08-2010 18:00:00 17.56 C 49.6000 % 6.91 C
3020 28-08-2010 19:00:00 15.26 C 64.0000 % 8.5 C
3021 28-08-2010 20:00:00 13.1 C 79.2000 % 9.58 C
3022 28-08-2010 21:00:00 12.46 C 83.2000 % 9.69 C
3023 28-08-2010 22:00:00 12.24 C 82.8000 % 9.4 C
3024 28-08-2010 23:00:00 12.36 C 80.0000 % 9.01 C
3025 29-08-2010 00:00:00 11.9 C 80.0000 % 8.56 C
Sensor: Nr:Datum:Temp:Feuchte:Taupunkt:
Aussen-T/F 3026 29-08-2010 01:00:00 11.5 C 81.8000 % 8.5 C
3027 29-08-2010 02:00:00 11.74 C 81.4000 % 8.66 C
3028 29-08-2010 03:00:00 11.76 C 80.8000 % 8.57 C
3029 29-08-2010 04:00:00 11.5 C 81.2000 % 8.39 C
3030 29-08-2010 05:00:00 11.74 C 79.4000 % 8.3 C
3031 29-08-2010 06:00:00 12.1 C 77.4000 % 8.27 C
3032 29-08-2010 07:00:00 12.2 C 77.2000 % 8.33 C
3033 29-08-2010 08:00:00 12.44 C 76.2000 % 8.37 C
3034 29-08-2010 09:00:00 14 C 67.8000 % 8.15 C
3035 29-08-2010 10:00:00 15.4 C 61.2000 % 7.97 C
3036 29-08-2010 11:00:00 16.26 C 57.2000 % 7.79 C
3037 29-08-2010 12:00:00 15.12 C 70.0000 % 9.69 C
3038 29-08-2010 13:00:00 16.04 C 63.8000 % 9.19 C
3039 29-08-2010 14:00:00 16.46 C 60.0000 % 8.68 C
3040 29-08-2010 15:00:00 15.08 C 69.2000 % 9.48 C
3041 29-08-2010 16:00:00 15.76 C 63.4000 % 8.83 C
3042 29-08-2010 17:00:00 14.96 C 65.0000 % 8.44 C
3043 29-08-2010 18:00:00 13.06 C 81.8000 % 10.02 C
3044 29-08-2010 19:00:00 12 C 87.2000 % 9.94 C
3045 29-08-2010 20:00:00 11.78 C 85.2000 % 9.38 C
3046 29-08-2010 21:00:00 11.64 C 83.6000 % 8.96 C
3047 29-08-2010 22:00:00 9.2 C 89.8000 % 7.62 C
3048 29-08-2010 23:00:00 9.12 C 91.8000 % 7.86 C
3049 30-08-2010 00:00:00 9.2 C 89.4000 % 7.55 C
3050 30-08-2010 01:00:00 9.94 C 83.8000 % 7.33 C
Sensor: Nr:Datum:Temp:Feuchte:Taupunkt:
Aussen-T/F 3051 30-08-2010 02:00:00 10.52 C 80.0000 % 7.22 C
3052 30-08-2010 03:00:00 10.82 C 77.4000 % 7.03 C
3053 30-08-2010 04:00:00 10.26 C 83.6000 % 7.61 C
3054 30-08-2010 05:00:00 9.62 C 87.4000 % 7.63 C
3055 30-08-2010 06:00:00 10.06 C 89.8000 % 8.46 C
3056 30-08-2010 07:00:00 9.96 C 89.6000 % 8.33 C
3057 30-08-2010 08:00:00 10.82 C 87.2000 % 8.78 C
3058 30-08-2010 09:00:00 10.98 C 86.4000 % 8.8 C
3059 30-08-2010 10:00:00 11.86 C 83.6000 % 9.18 C
3060 30-08-2010 11:00:00 13 C 73.4000 % 8.36 C
3061 30-08-2010 12:00:00 14.02 C 63.2000 % 7.14 C
3062 30-08-2010 13:00:00 16.04 C 49.6000 % 5.51 C
3063 30-08-2010 14:00:00 16.28 C 55.8000 % 7.44 C
3064 30-08-2010 15:00:00 17.48 C 52.4000 % 7.64 C
3065 30-08-2010 16:00:00 15.86 C 67.8000 % 9.92 C
3066 30-08-2010 17:00:00 15.04 C 71.8000 % 10 C
3067 30-08-2010 18:00:00 14.32 C 71.2000 % 9.18 C
3068 30-08-2010 19:00:00 14.04 C 74.2000 % 9.52 C
3069 30-08-2010 20:00:00 13.76 C 73.4000 % 9.09 C
3070 30-08-2010 21:00:00 12.72 C 85.8000 % 10.41 C
3071 30-08-2010 22:00:00 12.72 C 89.0000 % 10.95 C
3072 30-08-2010 23:00:00 12.3 C 89.2000 % 10.57 C
3073 31-08-2010 00:00:00 12.22 C 89.0000 % 10.46 C
3074 31-08-2010 01:00:00 12.42 C 86.4000 % 10.22 C
3075 31-08-2010 02:00:00 12.36 C 85.4000 % 9.98 C
Sensor: Nr:Datum:Temp:Feuchte:Taupunkt:
Aussen-T/F 3076 31-08-2010 03:00:00 12.1 C 84.6000 % 9.59 C
3077 31-08-2010 04:00:00 11.52 C 87.6000 % 9.54 C
3078 31-08-2010 05:00:00 11.38 C 88.2000 % 9.5 C
3079 31-08-2010 06:00:00 11.7 C 88.2000 % 9.81 C
3080 31-08-2010 07:00:00 12.2 C 84.2000 % 9.61 C
3081 31-08-2010 08:00:00 12.64 C 81.8000 % 9.61 C
3082 31-08-2010 09:00:00 13.58 C 75.4000 % 9.32 C
3083 31-08-2010 10:00:00 14.14 C 68.6000 % 8.46 C
3084 31-08-2010 11:00:00 15.6 C 60.8000 % 8.07 C
3085 31-08-2010 12:00:00 16.88 C 55.2000 % 7.85 C
3086 31-08-2010 13:00:00 17.96 C 45.6000 % 6.06 C
3087 31-08-2010 14:00:00 20.16 C 37.0000 % 5.02 C
3088 31-08-2010 15:00:00 21.2 C 31.6000 % 3.69 C
3089 31-08-2010 16:00:00 21.46 C 30.0000 % 3.18 C
3090 31-08-2010 17:00:00 21.82 C 29.0000 % 3.01 C
3091 31-08-2010 18:00:00 22.26 C 28.8000 % 3.29 C
3092 31-08-2010 19:00:00 20.32 C 37.2000 % 5.24 C
3093 31-08-2010 20:00:00 16.38 C 51.4000 % 6.34 C
3094 31-08-2010 21:00:00 14.44 C 61.4000 % 7.12 C
3095 31-08-2010 22:00:00 13.24 C 70.4000 % 7.98 C
3096 31-08-2010 23:00:00 12.32 C 74.4000 % 7.9 C
3097 01-09-2010 00:00:00 11.58 C 77.8000 % 7.84 C
3098 01-09-2010 01:00:00 10.98 C 81.0000 % 7.85 C
3099 01-09-2010 02:00:00 10.36 C 82.8000 % 7.57 C
3100 01-09-2010 03:00:00 9.74 C 86.2000 % 7.55 C
Sensor: Nr:Datum:Temp:Feuchte:Taupunkt:
Aussen-T/F 3101 01-09-2010 04:00:00 9.14 C 88.4000 % 7.33 C
3102 01-09-2010 05:00:00 8.92 C 90.6000 % 7.47 C
3103 01-09-2010 06:00:00 8.94 C 91.6000 % 7.65 C
3104 01-09-2010 07:00:00 9.02 C 90.4000 % 7.53 C
3105 01-09-2010 08:00:00 9.26 C 89.8000 % 7.67 C
3106 01-09-2010 09:00:00 10.22 C 85.4000 % 7.88 C
3107 01-09-2010 10:00:00 12.1 C 79.8000 % 8.72 C
3108 01-09-2010 11:00:00 14.26 C 71.6000 % 9.2 C
3109 01-09-2010 12:00:00 17.24 C 58.2000 % 8.96 C
3110 01-09-2010 13:00:00 19.52 C 47.4000 % 8.04 C
3111 01-09-2010 14:00:00 21.18 C 38.0000 % 6.31 C
3112 01-09-2010 15:00:00 23.6 C 28.2000 % 4.14 C
3113 01-09-2010 16:00:00 23.8 C 28.0000 % 4.21 C
3114 01-09-2010 17:00:00 22.04 C 32.8000 % 4.95 C
3115 01-09-2010 18:00:00 21.1 C 37.8000 % 6.17 C
3116 01-09-2010 19:00:00 19.62 C 46.6000 % 7.88 C
3117 01-09-2010 20:00:00 17.36 C 59.0000 % 9.28 C
3118 01-09-2010 21:00:00 16.24 C 64.0000 % 9.43 C
3119 01-09-2010 22:00:00 15.55 C 66.5000 % 9.34 C
3120 01-09-2010 23:00:00 14.16 C 68.0000 % 8.35 C
3121 02-09-2010 00:00:00 13.02 C 72.4000 % 8.18 C
3122 02-09-2010 01:00:00 12.32 C 77.0000 % 8.41 C
3123 02-09-2010 02:00:00 11.6 C 82.4000 % 8.71 C
3124 02-09-2010 03:00:00 11 C 83.0000 % 8.23 C
3125 02-09-2010 04:00:00 10.44 C 85.8000 % 8.17 C
Sensor: Nr:Datum:Temp:Feuchte:Taupunkt:
Aussen-T/F 3126 02-09-2010 05:00:00 10.32 C 88.6000 % 8.52 C
3127 02-09-2010 06:00:00 10.34 C 89.6000 % 8.71 C
3128 02-09-2010 07:00:00 10.68 C 89.8000 % 9.08 C
3129 02-09-2010 08:00:00 11.34 C 87.6000 % 9.36 C
3130 02-09-2010 09:00:00 12.4 C 82.2000 % 9.45 C
3131 02-09-2010 10:00:00 14.02 C 71.6000 % 8.97 C
3132 02-09-2010 11:00:00 15.46 C 68.4000 % 9.67 C
3133 02-09-2010 12:00:00 18.66 C 54.8000 % 9.39 C
3134 02-09-2010 13:00:00 20.84 C 40.6000 % 6.97 C
3135 02-09-2010 14:00:00 22.2 C 36.8000 % 6.75 C
3136 02-09-2010 15:00:00 21.42 C 36.8000 % 6.06 C
3137 02-09-2010 16:00:00 20.6 C 38.6000 % 6.02 C
3138 02-09-2010 17:00:00 19.54 C 42.4000 % 6.43 C
3139 02-09-2010 18:00:00 18.66 C 46.4000 % 6.95 C
3140 02-09-2010 19:00:00 17.64 C 59.4000 % 9.64 C
3141 02-09-2010 20:00:00 15.14 C 77.4000 % 11.22 C
3142 02-09-2010 21:00:00 14.42 C 79.6000 % 10.94 C
3143 02-09-2010 22:00:00 13.84 C 78.2000 % 10.11 C
3144 02-09-2010 23:00:00 12.98 C 81.2000 % 9.84 C
3145 03-09-2010 00:00:00 12.42 C 83.2000 % 9.65 C
3146 03-09-2010 01:00:00 11.82 C 84.6000 % 9.31 C
3147 03-09-2010 02:00:00 11.24 C 86.2000 % 9.02 C
3148 03-09-2010 03:00:00 10.72 C 87.8000 % 8.78 C
3149 03-09-2010 04:00:00 10.34 C 89.6000 % 8.71 C
3150 03-09-2010 05:00:00 10.4 C 90.8000 % 8.96 C
Sensor: Nr:Datum:Temp:Feuchte:Taupunkt:
Aussen-T/F 3151 03-09-2010 06:00:00 11.08 C 91.8000 % 9.8 C
3152 03-09-2010 07:00:00 11.36 C 91.0000 % 9.95 C
3153 03-09-2010 08:00:00 11.64 C 89.6000 % 9.99 C
3154 03-09-2010 09:00:00 12.44 C 84.8000 % 9.96 C
3155 03-09-2010 10:00:00 13.58 C 78.4000 % 9.9 C
3156 03-09-2010 11:00:00 15.9 C 66.0000 % 9.56 C
3157 03-09-2010 12:00:00 17.86 C 55.6000 % 8.86 C
3158 03-09-2010 13:00:00 19.68 C 48.2000 % 8.43 C
3159 03-09-2010 14:00:00 20.4 C 43.2000 % 7.48 C
3160 03-09-2010 15:00:00 22.78 C 34.6000 % 6.37 C
3161 03-09-2010 16:00:00 25.12 C 28.4000 % 5.55 C
3162 03-09-2010 17:00:00 24.12 C 29.8000 % 5.38 C
3163 03-09-2010 18:00:00 22.7 C 40.2000 % 8.49 C
3164 03-09-2010 19:00:00 20.7 C 49.2000 % 9.67 C
3165 03-09-2010 20:00:00 18.62 C 51.8000 % 8.52 C
3166 03-09-2010 21:00:00 16.32 C 61.6000 % 8.94 C
3167 03-09-2010 22:00:00 15.36 C 67.6000 % 9.4 C
3168 03-09-2010 23:00:00 15.34 C 70.4000 % 9.99 C
3169 04-09-2010 00:00:00 15.1 C 72.0000 % 10.09 C
3170 04-09-2010 01:00:00 14.82 C 74.2000 % 10.27 C
3171 04-09-2010 02:00:00 14.28 C 76.6000 % 10.23 C
3172 04-09-2010 03:00:00 13.72 C 79.4000 % 10.22 C
3173 04-09-2010 04:00:00 13.2 C 82.6000 % 10.31 C
3174 04-09-2010 05:00:00 13.1 C 84.0000 % 10.46 C
3175 04-09-2010 06:00:00 12.54 C 84.4000 % 9.98 C
Sensor: Nr:Datum:Temp:Feuchte:Taupunkt:
Aussen-T/F 3176 04-09-2010 07:00:00 12.08 C 86.4000 % 9.88 C
3177 04-09-2010 08:00:00 12.8 C 87.2000 % 10.73 C
3178 04-09-2010 09:00:00 14.44 C 80.4000 % 11.11 C
3179 04-09-2010 10:00:00 16.3 C 68.4000 % 10.48 C
3180 04-09-2010 11:00:00 18.88 C 54.2000 % 9.43 C
3181 04-09-2010 12:00:00 18.86 C 48.8000 % 7.87 C
3182 04-09-2010 13:00:00 19.58 C 45.2000 % 7.4 C
3183 04-09-2010 14:00:00 22.2 C 34.2000 % 5.69 C
3184 04-09-2010 15:00:00 22.88 C 30.8000 % 4.78 C
3185 04-09-2010 16:00:00 22.42 C 27.8000 % 2.93 C
3186 04-09-2010 17:00:00 23.12 C 23.6000 % 1.23 C
3187 04-09-2010 18:00:00 22.74 C 21.6000 % -0.31 C
3188 04-09-2010 19:00:00 19.74 C 32.6000 % 2.86 C
3189 04-09-2010 20:00:00 16.14 C 47.6000 % 5.02 C
3190 04-09-2010 21:00:00 14.92 C 54.4000 % 5.81 C
3191 04-09-2010 22:00:00 14.16 C 59.6000 % 6.42 C
3192 04-09-2010 23:00:00 13.12 C 66.4000 % 7.01 C
3193 05-09-2010 00:00:00 12.16 C 70.8000 % 7.02 C
3194 05-09-2010 01:00:00 11.22 C 74.2000 % 6.8 C
3195 05-09-2010 02:00:00 10.44 C 77.8000 % 6.74 C
3196 05-09-2010 03:00:00 9.72 C 80.2000 % 6.48 C
3197 05-09-2010 04:00:00 9.12 C 81.8000 % 6.18 C
3198 05-09-2010 05:00:00 8.64 C 84.4000 % 6.16 C
3199 05-09-2010 06:00:00 8.08 C 87.2000 % 6.08 C
3200 05-09-2010 07:00:00 8.4 C 88.6000 % 6.63 C
Sensor: Nr:Datum:Temp:Feuchte:Taupunkt:
Aussen-T/F 3201 05-09-2010 08:00:00 9.82 C 85.2000 % 7.46 C
3202 05-09-2010 09:00:00 11.1 C 78.2000 % 7.45 C
3203 05-09-2010 10:00:00 12.36 C 77.4000 % 8.52 C
3204 05-09-2010 11:00:00 15.42 C 62.0000 % 8.18 C
3205 05-09-2010 12:00:00 18.02 C 42.4000 % 5.06 C
3206 05-09-2010 13:00:00 20.14 C 34.0000 % 3.8 C
3207 05-09-2010 14:00:00 23.5 C 24.6000 % 2.13 C
3208 05-09-2010 15:00:00 24.16 C 22.0000 % 1.13 C
3209 05-09-2010 16:00:00 24.4 C 21.0000 % 0.68 C
3210 05-09-2010 17:00:00 24.6 C 22.4000 % 1.74 C
3211 05-09-2010 18:00:00 24.84 C 23.2000 % 2.43 C
3212 05-09-2010 19:00:00 19.38 C 38.4000 % 4.86 C
3213 05-09-2010 20:00:00 16.44 C 45.6000 % 4.67 C
3214 05-09-2010 21:00:00 14.9 C 53.4000 % 5.52 C
3215 05-09-2010 22:00:00 14.12 C 58.4000 % 6.09 C
3216 05-09-2010 23:00:00 13.94 C 57.6000 % 5.72 C
3217 06-09-2010 00:00:00 13.22 C 61.6000 % 6.01 C
3218 06-09-2010 01:00:00 12.36 C 65.2000 % 6.02 C
3219 06-09-2010 02:00:00 11.62 C 69.2000 % 6.18 C
3220 06-09-2010 03:00:00 11.1 C 71.0000 % 6.05 C
3221 06-09-2010 04:00:00 10.7 C 72.2000 % 5.91 C
3222 06-09-2010 05:00:00 10.24 C 73.6000 % 5.74 C
3223 06-09-2010 06:00:00 9.56 C 76.6000 % 5.66 C
3224 06-09-2010 07:00:00 9.28 C 78.8000 % 5.79 C
3225 06-09-2010 08:00:00 9.68 C 78.4000 % 6.11 C
Sensor: Nr:Datum:Temp:Feuchte:Taupunkt:
Aussen-T/F 3226 06-09-2010 09:00:00 10.94 C 75.4000 % 6.77 C
3227 06-09-2010 10:00:00 13.48 C 64.4000 % 6.9 C
3228 06-09-2010 11:00:00 16.32 C 51.4000 % 6.29 C
3229 06-09-2010 12:00:00 18.64 C 35.0000 % 2.89 C
3230 06-09-2010 13:00:00 20.24 C 30.8000 % 2.49 C
3231 06-09-2010 14:00:00 22.34 C 22.8000 % 0.1 C
3232 06-09-2010 15:00:00 24 C 20.0000 % -0.32 C
3233 06-09-2010 16:00:00 23.88 C 20.0000 % -0.42 C
3234 06-09-2010 17:00:00 24.42 C 20.0000 % 0.03 C
3235 06-09-2010 18:00:00 21.44 C 28.4000 % 2.39 C
3236 06-09-2010 19:00:00 18.72 C 36.6000 % 3.59 C
3237 06-09-2010 20:00:00 17.1 C 38.6000 % 2.91 C
3238 06-09-2010 21:00:00 16.22 C 39.4000 % 2.41 C
3239 06-09-2010 22:00:00 15.5 C 42.4000 % 2.79 C
3240 06-09-2010 23:00:00 15.2 C 43.4000 % 2.85 C
3241 07-09-2010 00:00:00 15.38 C 42.0000 % 2.55 C
3242 07-09-2010 01:00:00 15.42 C 41.0000 % 2.25 C
3243 07-09-2010 02:00:00 15.46 C 40.8000 % 2.22 C
3244 07-09-2010 03:00:00 14.34 C 49.0000 % 3.78 C
3245 07-09-2010 04:00:00 13.06 C 61.6000 % 5.86 C
3246 07-09-2010 05:00:00 12.98 C 62.8000 % 6.07 C
3247 07-09-2010 06:00:00 12.5 C 64.0000 % 5.88 C
3248 07-09-2010 07:00:00 12.12 C 66.0000 % 5.97 C
3249 07-09-2010 08:00:00 11.56 C 78.2000 % 7.9 C
3250 07-09-2010 09:00:00 11.46 C 81.6000 % 8.43 C
Sensor: Nr:Datum:Temp:Feuchte:Taupunkt:
Aussen-T/F 3251 07-09-2010 10:00:00 11.46 C 86.2000 % 9.24 C
3252 07-09-2010 11:00:00 11.64 C 88.4000 % 9.79 C
3253 07-09-2010 12:00:00 12.42 C 86.8000 % 10.28 C
3254 07-09-2010 13:00:00 12.78 C 83.2000 % 10 C
3255 07-09-2010 14:00:00 13.36 C 80.8000 % 10.13 C
3256 07-09-2010 15:00:00 14.58 C 73.0000 % 9.8 C
3257 07-09-2010 16:00:00 15.52 C 68.8000 % 9.82 C
3258 07-09-2010 17:00:00 14.88 C 71.2000 % 9.72 C
3259 07-09-2010 18:00:00 13.98 C 75.4000 % 9.7 C
3260 07-09-2010 19:00:00 13.78 C 78.8000 % 10.17 C
3261 07-09-2010 20:00:00 13.24 C 83.0000 % 10.42 C
3262 07-09-2010 21:00:00 12.96 C 87.4000 % 10.92 C
3263 07-09-2010 22:00:00 12.86 C 89.2000 % 11.13 C
3264 07-09-2010 23:00:00 12.92 C 90.0000 % 11.32 C
3265 08-09-2010 00:00:00 12.88 C 91.0000 % 11.45 C
3266 08-09-2010 01:00:00 13 C 91.4000 % 11.63 C
3267 08-09-2010 02:00:00 13.2 C 92.4000 % 12 C
3268 08-09-2010 03:00:00 13.56 C 93.0000 % 12.45 C
3269 08-09-2010 04:00:00 13.56 C 93.0000 % 12.45 C
3270 08-09-2010 05:00:00 14.16 C 93.6000 % 13.14 C
3271 08-09-2010 06:00:00 14.36 C 92.8000 % 13.21 C
3272 08-09-2010 07:00:00 14.22 C 92.0000 % 12.94 C
3273 08-09-2010 08:00:00 14.22 C 92.0000 % 12.94 C
3274 08-09-2010 09:00:00 15.22 C 89.4000 % 13.49 C
3275 08-09-2010 10:00:00 15.52 C 86.2000 % 13.22 C
Sensor: Nr:Datum:Temp:Feuchte:Taupunkt:
Aussen-T/F 3276 08-09-2010 11:00:00 15.24 C 84.8000 % 12.7 C
3277 08-09-2010 12:00:00 14.74 C 89.2000 % 12.98 C
3278 08-09-2010 13:00:00 16.22 C 87.8000 % 14.2 C
3279 08-09-2010 14:00:00 17.58 C 77.2000 % 13.54 C
3280 08-09-2010 15:00:00 17.94 C 73.0000 % 13.03 C
3281 08-09-2010 16:00:00 18.54 C 67.4000 % 12.39 C
3282 08-09-2010 17:00:00 19.88 C 59.6000 % 11.79 C
3283 08-09-2010 18:00:00 19.06 C 62.6000 % 11.76 C
3284 08-09-2010 19:00:00 18.2 C 67.8000 % 12.16 C
3285 08-09-2010 20:00:00 16.8 C 73.6000 % 12.06 C
3286 08-09-2010 21:00:00 15.72 C 72.4000 % 10.77 C
3287 08-09-2010 22:00:00 14.78 C 77.4000 % 10.87 C
3288 08-09-2010 23:00:00 14.48 C 80.6000 % 11.19 C
3289 09-09-2010 00:00:00 14.38 C 82.6000 % 11.46 C
3290 09-09-2010 01:00:00 15.04 C 78.4000 % 11.31 C
3291 09-09-2010 02:00:00 15.14 C 76.8000 % 11.1 C
3292 09-09-2010 03:00:00 15.32 C 74.8000 % 10.88 C
3293 09-09-2010 04:00:00 15.22 C 71.8000 % 10.17 C
3294 09-09-2010 05:00:00 14.9 C 70.8000 % 9.65 C
3295 09-09-2010 06:00:00 14.78 C 70.2000 % 9.41 C
3296 09-09-2010 07:00:00 14.58 C 72.6000 % 9.72 C
3297 09-09-2010 08:00:00 14.8 C 71.8000 % 9.76 C
3298 09-09-2010 09:00:00 15.26 C 69.8000 % 9.79 C
3299 09-09-2010 10:00:00 16.76 C 63.8000 % 9.87 C
3300 09-09-2010 11:00:00 17.78 C 58.6000 % 9.57 C
Sensor: Nr:Datum:Temp:Feuchte:Taupunkt:
Aussen-T/F 3301 09-09-2010 12:00:00 18.64 C 51.2000 % 8.37 C
3302 09-09-2010 13:00:00 18.8 C 51.0000 % 8.46 C
3303 09-09-2010 14:00:00 18.98 C 52.8000 % 9.14 C
3304 09-09-2010 15:00:00 19.38 C 54.8000 % 10.06 C
3305 09-09-2010 16:00:00 17.1 C 75.0000 % 12.64 C
3306 09-09-2010 17:00:00 17.92 C 76.0000 % 13.63 C
3307 09-09-2010 18:00:00 17.7 C 69.4000 % 12.03 C
3308 09-09-2010 19:00:00 16.54 C 67.2000 % 10.44 C
3309 09-09-2010 20:00:00 15.4 C 74.4000 % 10.87 C
3310 09-09-2010 21:00:00 14.8 C 81.0000 % 11.57 C
3311 09-09-2010 22:00:00 14.74 C 80.6000 % 11.44 C
3312 09-09-2010 23:00:00 14.98 C 75.8000 % 10.75 C
3313 10-09-2010 00:00:00 14.66 C 79.0000 % 11.06 C
3314 10-09-2010 01:00:00 14 C 81.0000 % 10.79 C
3315 10-09-2010 02:00:00 13.9 C 83.0000 % 11.06 C
3316 10-09-2010 03:00:00 13.9 C 84.0000 % 11.24 C
3317 10-09-2010 04:00:00 13.84 C 85.8000 % 11.5 C
3318 10-09-2010 05:00:00 13.06 C 87.8000 % 11.09 C
3319 10-09-2010 06:00:00 13.12 C 89.6000 % 11.45 C
3320 10-09-2010 07:00:00 13.18 C 85.8000 % 10.86 C
3321 10-09-2010 08:00:00 13.32 C 86.0000 % 11.03 C
3322 10-09-2010 09:00:00 14.6 C 76.2000 % 10.46 C
3323 10-09-2010 10:00:00 16.16 C 68.0000 % 10.26 C
3324 10-09-2010 11:00:00 17.88 C 60.4000 % 10.11 C
3325 10-09-2010 12:00:00 18.74 C 57.2000 % 10.11 C
Sensor: Nr:Datum:Temp:Feuchte:Taupunkt:
Aussen-T/F 3326 10-09-2010 13:00:00 19.18 C 52.6000 % 9.27 C
3327 10-09-2010 14:00:00 19.94 C 50.8000 % 9.45 C
3328 10-09-2010 15:00:00 20.82 C 47.4000 % 9.23 C
3329 10-09-2010 16:00:00 21.1 C 45.8000 % 8.97 C
3330 10-09-2010 17:00:00 20.18 C 51.4000 % 9.85 C
3331 10-09-2010 18:00:00 17.86 C 67.0000 % 11.65 C
3332 10-09-2010 19:00:00 16.26 C 82.6000 % 13.3 C
3333 10-09-2010 20:00:00 15.68 C 86.6000 % 13.45 C
3334 10-09-2010 21:00:00 15.8 C 86.8000 % 13.61 C
3335 10-09-2010 22:00:00 15.68 C 85.6000 % 13.27 C
3336 10-09-2010 23:00:00 15.46 C 84.8000 % 12.92 C
3337 11-09-2010 00:00:00 15.14 C 84.0000 % 12.46 C
3338 11-09-2010 01:00:00 15 C 84.2000 % 12.36 C
3339 11-09-2010 02:00:00 14.74 C 85.0000 % 12.25 C
3340 11-09-2010 03:00:00 14.08 C 86.0000 % 11.78 C
3341 11-09-2010 04:00:00 13.14 C 86.2000 % 10.89 C
3342 11-09-2010 05:00:00 12.64 C 88.2000 % 10.74 C
3343 11-09-2010 06:00:00 12.74 C 88.8000 % 10.94 C
3344 11-09-2010 07:00:00 12.16 C 88.6000 % 10.34 C
3345 11-09-2010 08:00:00 13.04 C 90.0000 % 11.44 C
3346 11-09-2010 09:00:00 13.76 C 88.8000 % 11.95 C
3347 11-09-2010 10:00:00 15.66 C 84.8000 % 13.11 C
3348 11-09-2010 11:00:00 18.24 C 73.0000 % 13.32 C
3349 11-09-2010 12:00:00 19.9 C 55.8000 % 10.82 C
3350 11-09-2010 13:00:00 21.76 C 46.0000 % 9.64 C
Sensor: Nr:Datum:Temp:Feuchte:Taupunkt:
Aussen-T/F 3351 11-09-2010 14:00:00 24.2 C 37.0000 % 8.6 C
3352 11-09-2010 15:00:00 26.04 C 32.2000 % 8.17 C
3353 11-09-2010 16:00:00 26.34 C 33.0000 % 8.79 C
3354 11-09-2010 17:00:00 27.62 C 31.2000 % 9.07 C
3355 11-09-2010 18:00:00 26.06 C 38.0000 % 10.64 C
3356 11-09-2010 19:00:00 21.76 C 50.8000 % 11.12 C
3357 11-09-2010 20:00:00 19.34 C 57.2000 % 10.67 C
3358 11-09-2010 21:00:00 18.1 C 64.8000 % 11.38 C
3359 11-09-2010 22:00:00 17.2 C 70.2000 % 11.73 C
3360 11-09-2010 23:00:00 16.56 C 73.8000 % 11.87 C
3361 12-09-2010 00:00:00 16.06 C 76.2000 % 11.87 C
3362 12-09-2010 01:00:00 15.34 C 79.0000 % 11.72 C
3363 12-09-2010 02:00:00 14.88 C 81.6000 % 11.76 C
3364 12-09-2010 03:00:00 14.46 C 82.2000 % 11.46 C
3365 12-09-2010 04:00:00 14.1 C 83.0000 % 11.26 C
3366 12-09-2010 05:00:00 13.76 C 84.0000 % 11.11 C
3367 12-09-2010 06:00:00 13.52 C 84.8000 % 11.01 C
3368 12-09-2010 07:00:00 13.7 C 85.6000 % 11.33 C
3369 12-09-2010 08:00:00 14.26 C 84.0000 % 11.6 C
3370 12-09-2010 09:00:00 14.84 C 82.8000 % 11.95 C
3371 12-09-2010 10:00:00 16.94 C 77.4000 % 12.96 C
3372 12-09-2010 11:00:00 20.02 C 61.8000 % 12.47 C
3373 12-09-2010 12:00:00 21.62 C 56.6000 % 12.63 C
3374 12-09-2010 13:00:00 24.4 C 44.2000 % 11.43 C
3375 12-09-2010 14:00:00 23.86 C 42.6000 % 10.39 C
Sensor: Nr:Datum:Temp:Feuchte:Taupunkt:
Aussen-T/F 3376 12-09-2010 15:00:00 19.32 C 53.4000 % 9.62 C
3377 12-09-2010 16:00:00 17.78 C 60.6000 % 10.07 C
3378 12-09-2010 17:00:00 16.2 C 70.2000 % 10.77 C
3379 12-09-2010 18:00:00 14.92 C 83.0000 % 12.06 C
3380 12-09-2010 19:00:00 14.26 C 88.0000 % 12.3 C
3381 12-09-2010 20:00:00 13.82 C 90.6000 % 12.31 C
3382 12-09-2010 21:00:00 13.78 C 92.2000 % 12.54 C
3383 12-09-2010 22:00:00 13.78 C 93.0000 % 12.67 C
3384 12-09-2010 23:00:00 13.58 C 93.0000 % 12.47 C
3385 13-09-2010 00:00:00 13.68 C 93.0000 % 12.57 C
3386 13-09-2010 01:00:00 13.7 C 93.0000 % 12.59 C
3387 13-09-2010 02:00:00 13.52 C 93.0000 % 12.41 C
3388 13-09-2010 03:00:00 13.26 C 91.8000 % 11.96 C
3389 13-09-2010 04:00:00 13 C 90.0000 % 11.4 C
3390 13-09-2010 05:00:00 13.26 C 84.8000 % 10.76 C
3391 13-09-2010 06:00:00 13.3 C 82.8000 % 10.44 C
3392 13-09-2010 07:00:00 12.72 C 82.4000 % 9.8 C
3393 13-09-2010 08:00:00 13.04 C 84.6000 % 10.51 C
3394 13-09-2010 09:00:00 13.98 C 78.6000 % 10.32 C
3395 13-09-2010 10:00:00 15.32 C 69.2000 % 9.71 C
3396 13-09-2010 11:00:00 16.5 C 61.0000 % 8.96 C
3397 13-09-2010 12:00:00 17.24 C 54.0000 % 7.86 C
3398 13-09-2010 13:00:00 18.94 C 46.4000 % 7.2 C
3399 13-09-2010 14:00:00 20.18 C 39.8000 % 6.09 C
3400 13-09-2010 15:00:00 20.8 C 39.2000 % 6.42 C
Sensor: Nr:Datum:Temp:Feuchte:Taupunkt:
Aussen-T/F 3401 13-09-2010 16:00:00 21.56 C 36.6000 % 6.11 C
3402 13-09-2010 17:00:00 20.48 C 44.8000 % 8.09 C
3403 13-09-2010 18:00:00 18.22 C 55.4000 % 9.14 C
3404 13-09-2010 19:00:00 16.92 C 59.4000 % 8.96 C
3405 13-09-2010 20:00:00 15.24 C 68.4000 % 9.46 C
3406 13-09-2010 21:00:00 14.52 C 72.0000 % 9.54 C
3407 13-09-2010 22:00:00 13.7 C 74.8000 % 9.31 C
3408 13-09-2010 23:00:00 13.14 C 77.4000 % 9.28 C
3409 14-09-2010 00:00:00 12.82 C 82.0000 % 9.83 C
3410 14-09-2010 01:00:00 12.8 C 82.8000 % 9.95 C
3411 14-09-2010 02:00:00 13.1 C 81.8000 % 10.06 C
3412 14-09-2010 03:00:00 13.36 C 79.6000 % 9.91 C
3413 14-09-2010 04:00:00 12.94 C 83.4000 % 10.2 C
3414 14-09-2010 05:00:00 12.96 C 87.0000 % 10.85 C
3415 14-09-2010 06:00:00 13.9 C 77.4000 % 10.02 C
3416 14-09-2010 07:00:00 14.06 C 73.8000 % 9.46 C
3417 14-09-2010 08:00:00 14.1 C 76.8000 % 10.09 C
3418 14-09-2010 09:00:00 15.16 C 70.0000 % 9.73 C
3419 14-09-2010 10:00:00 16.1 C 66.2000 % 9.8 C
3420 14-09-2010 11:00:00 17.06 C 63.0000 % 9.97 C
3421 14-09-2010 12:00:00 18.44 C 58.2000 % 10.08 C
3422 14-09-2010 13:00:00 19.98 C 53.4000 % 10.23 C
3423 14-09-2010 14:00:00 19.66 C 52.2000 % 9.6 C
3424 14-09-2010 15:00:00 20.4 C 48.8000 % 9.28 C
3425 14-09-2010 16:00:00 20.68 C 43.8000 % 7.94 C
Sensor: Nr:Datum:Temp:Feuchte:Taupunkt:
Aussen-T/F 3426 14-09-2010 17:00:00 20.14 C 42.8000 % 7.11 C
3427 14-09-2010 18:00:00 19.34 C 47.0000 % 7.75 C
3428 14-09-2010 19:00:00 18.8 C 48.0000 % 7.57 C
3429 14-09-2010 20:00:00 18.6 C 48.4000 % 7.51 C
3430 14-09-2010 21:00:00 18.54 C 49.0000 % 7.63 C
3431 14-09-2010 22:00:00 18.5 C 49.5000 % 7.74 C
3432 14-09-2010 23:00:00 18.22 C 50.8000 % 7.87 C
3433 15-09-2010 00:00:00 18.02 C 51.2000 % 7.8 C
3434 15-09-2010 01:00:00 18.18 C 49.4000 % 7.42 C
3435 15-09-2010 02:00:00 18.32 C 48.8000 % 7.37 C
3436 15-09-2010 03:00:00 18.06 C 53.4000 % 8.45 C
3437 15-09-2010 04:00:00 17.7 C 60.4000 % 9.94 C
3438 15-09-2010 05:00:00 15 C 76.0000 % 10.81 C
3439 15-09-2010 06:00:00 12.78 C 90.2000 % 11.22 C
3440 15-09-2010 07:00:00 12.74 C 92.2000 % 11.51 C
3441 15-09-2010 08:00:00 12.7 C 93.0000 % 11.6 C
3442 15-09-2010 09:00:00 12.92 C 91.8000 % 11.62 C
3443 15-09-2010 10:00:00 14.06 C 82.2000 % 11.07 C
3444 15-09-2010 11:00:00 15.02 C 69.0000 % 9.38 C
3445 15-09-2010 12:00:00 16.5 C 50.0000 % 6.05 C
3446 15-09-2010 13:00:00 17.24 C 43.0000 % 4.56 C
3447 15-09-2010 14:00:00 18.38 C 36.0000 % 3.06 C
3448 15-09-2010 15:00:00 19.52 C 34.2000 % 3.34 C
3449 15-09-2010 16:00:00 19.52 C 35.6000 % 3.91 C
3450 15-09-2010 17:00:00 19.68 C 34.2000 % 3.48 C
Sensor: Nr:Datum:Temp:Feuchte:Taupunkt:
Aussen-T/F 3451 15-09-2010 18:00:00 17.84 C 35.0000 % 2.19 C
3452 15-09-2010 19:00:00 16.6 C 40.0000 % 2.96 C
3453 15-09-2010 20:00:00 15.84 C 46.4000 % 4.38 C
3454 15-09-2010 21:00:00 15.18 C 49.2000 % 4.61 C
3455 15-09-2010 22:00:00 14.96 C 46.6000 % 3.64 C
3456 15-09-2010 23:00:00 14.86 C 44.4000 % 2.86 C
3457 16-09-2010 00:00:00 14.18 C 48.4000 % 3.46 C
3458 16-09-2010 01:00:00 14.1 C 44.6000 % 2.23 C
3459 16-09-2010 02:00:00 13.94 C 48.2000 % 3.18 C
3460 16-09-2010 03:00:00 13.84 C 56.2000 % 5.27 C
3461 16-09-2010 04:00:00 13.58 C 59.4000 % 5.83 C
3462 16-09-2010 05:00:00 13.36 C 62.6000 % 6.38 C
3463 16-09-2010 06:00:00 12.44 C 73.8000 % 7.9 C
3464 16-09-2010 07:00:00 11.78 C 82.6000 % 8.92 C
3465 16-09-2010 08:00:00 11.86 C 83.6000 % 9.18 C
3466 16-09-2010 09:00:00 12.64 C 83.4000 % 9.9 C
3467 16-09-2010 10:00:00 14.12 C 71.2000 % 8.99 C
3468 16-09-2010 11:00:00 15.26 C 63.2000 % 8.31 C
3469 16-09-2010 12:00:00 17.02 C 53.0000 % 7.38 C
3470 16-09-2010 13:00:00 17.32 C 48.6000 % 6.39 C
3471 16-09-2010 14:00:00 15.28 C 66.8000 % 9.15 C
3472 16-09-2010 15:00:00 17.22 C 62.4000 % 9.98 C
3473 16-09-2010 16:00:00 16.36 C 61.0000 % 8.83 C
3474 16-09-2010 17:00:00 15.3 C 72.8000 % 10.45 C
3475 16-09-2010 18:00:00 14.9 C 70.2000 % 9.53 C
Sensor: Nr:Datum:Temp:Feuchte:Taupunkt:
Aussen-T/F 3476 16-09-2010 19:00:00 13.42 C 83.2000 % 10.63 C
3477 16-09-2010 20:00:00 12.84 C 89.2000 % 11.11 C
3478 16-09-2010 21:00:00 12.62 C 91.0000 % 11.19 C
3479 16-09-2010 22:00:00 12.2 C 88.8000 % 10.41 C
3480 16-09-2010 23:00:00 12.1 C 86.6000 % 9.94 C
3481 17-09-2010 00:00:00 12.16 C 85.8000 % 9.86 C
3482 17-09-2010 01:00:00 12.06 C 86.6000 % 9.9 C
3483 17-09-2010 02:00:00 11.96 C 87.4000 % 9.93 C
3484 17-09-2010 03:00:00 12.06 C 83.6000 % 9.37 C
3485 17-09-2010 04:00:00 11.94 C 82.2000 % 9 C
3486 17-09-2010 05:00:00 11.2 C 81.2000 % 8.1 C
3487 17-09-2010 06:00:00 10.6 C 88.0000 % 8.7 C
3488 17-09-2010 07:00:00 10.02 C 86.6000 % 7.89 C
3489 17-09-2010 08:00:00 10.22 C 80.4000 % 7 C
3490 17-09-2010 09:00:00 10.86 C 73.4000 % 6.3 C
3491 17-09-2010 10:00:00 12.06 C 70.6000 % 6.89 C
3492 17-09-2010 11:00:00 13.72 C 63.8000 % 6.99 C
3493 17-09-2010 12:00:00 15.7 C 49.2000 % 5.09 C
3494 17-09-2010 13:00:00 16.66 C 41.6000 % 3.57 C
3495 17-09-2010 14:00:00 17.62 C 35.2000 % 2.07 C
3496 17-09-2010 15:00:00 17.48 C 34.0000 % 1.47 C
3497 17-09-2010 16:00:00 19.06 C 30.2000 % 1.2 C
3498 17-09-2010 17:00:00 19.46 C 26.6000 % -0.21 C
3499 17-09-2010 18:00:00 16.66 C 43.0000 % 4.04 C
3500 17-09-2010 19:00:00 15.24 C 51.4000 % 5.29 C
Sensor: Nr:Datum:Temp:Feuchte:Taupunkt:
Aussen-T/F 3501 17-09-2010 20:00:00 14.26 C 57.6000 % 6.02 C
3502 17-09-2010 21:00:00 13.48 C 61.2000 % 6.16 C
3503 17-09-2010 22:00:00 13.34 C 58.0000 % 5.26 C
3504 17-09-2010 23:00:00 12.58 C 61.6000 % 5.41 C
3505 18-09-2010 00:00:00 12.12 C 64.6000 % 5.66 C
3506 18-09-2010 01:00:00 10.9 C 70.4000 % 5.73 C
3507 18-09-2010 02:00:00 10 C 76.6000 % 6.08 C
3508 18-09-2010 03:00:00 9.38 C 80.8000 % 6.25 C
3509 18-09-2010 04:00:00 8.54 C 84.0000 % 6 C
3510 18-09-2010 05:00:00 7.94 C 87.2000 % 5.95 C
3511 18-09-2010 06:00:00 7.62 C 91.2000 % 6.28 C
3512 18-09-2010 07:00:00 7.5 C 91.2000 % 6.16 C
3513 18-09-2010 08:00:00 7.46 C 90.6000 % 6.03 C
3514 18-09-2010 09:00:00 8.12 C 90.6000 % 6.68 C
3515 18-09-2010 10:00:00 10.2 C 86.0000 % 7.97 C
3516 18-09-2010 11:00:00 13.46 C 57.0000 % 5.12 C
3517 18-09-2010 12:00:00 15.14 C 45.8000 % 3.55 C
3518 18-09-2010 13:00:00 15.6 C 40.8000 % 2.34 C
3519 18-09-2010 14:00:00 15.26 C 36.6000 % 0.53 C
3520 18-09-2010 15:00:00 16.3 C 33.0000 % 0.02 C
3521 18-09-2010 16:00:00 16.22 C 35.2000 % 0.84 C
3522 18-09-2010 17:00:00 15.86 C 42.4000 % 3.12 C
3523 18-09-2010 18:00:00 15.66 C 45.4000 % 3.9 C
3524 18-09-2010 19:00:00 13.26 C 52.8000 % 3.84 C
3525 18-09-2010 20:00:00 11.08 C 65.6000 % 4.89 C
Sensor: Nr:Datum:Temp:Feuchte:Taupunkt:
Aussen-T/F 3526 18-09-2010 21:00:00 10.02 C 70.4000 % 4.89 C
3527 18-09-2010 22:00:00 8.98 C 76.0000 % 4.98 C
3528 18-09-2010 23:00:00 8.2 C 80.8000 % 5.1 C
3529 19-09-2010 00:00:00 7.56 C 83.6000 % 4.97 C
3530 19-09-2010 01:00:00 6.92 C 84.8000 % 4.54 C
3531 19-09-2010 02:00:00 6.44 C 87.4000 % 4.5 C
3532 19-09-2010 03:00:00 6.42 C 88.0000 % 4.58 C
3533 19-09-2010 04:00:00 6.2 C 88.4000 % 4.43 C
3534 19-09-2010 05:00:00 6.04 C 88.2000 % 4.24 C
3535 19-09-2010 06:00:00 5.76 C 88.6000 % 4.03 C
3536 19-09-2010 07:00:00 6 C 89.0000 % 4.33 C
3537 19-09-2010 08:00:00 6.96 C 87.8000 % 5.08 C
3538 19-09-2010 09:00:00 8.12 C 83.8000 % 5.55 C
3539 19-09-2010 10:00:00 10.72 C 68.0000 % 5.06 C
3540 19-09-2010 11:00:00 12.92 C 55.6000 % 4.26 C
3541 19-09-2010 12:00:00 14.94 C 44.4000 % 2.93 C
3542 19-09-2010 13:00:00 16.12 C 40.4000 % 2.67 C
3543 19-09-2010 14:00:00 17.38 C 38.4000 % 3.08 C
3544 19-09-2010 15:00:00 18.62 C 34.2000 % 2.55 C
3545 19-09-2010 16:00:00 19.04 C 32.4000 % 2.16 C
3546 19-09-2010 17:00:00 18.78 C 35.4000 % 3.18 C
3547 19-09-2010 18:00:00 17.08 C 41.2000 % 3.81 C
3548 19-09-2010 19:00:00 15.78 C 44.4000 % 3.7 C
3549 19-09-2010 20:00:00 14.46 C 50.8000 % 4.4 C
3550 19-09-2010 21:00:00 13.96 C 55.0000 % 5.08 C
Sensor: Nr:Datum:Temp:Feuchte:Taupunkt:
Aussen-T/F 3551 19-09-2010 22:00:00 13.32 C 58.6000 % 5.39 C
3552 19-09-2010 23:00:00 12.28 C 62.4000 % 5.31 C
3553 20-09-2010 00:00:00 11.68 C 65.8000 % 5.51 C
3554 20-09-2010 01:00:00 10.44 C 70.2000 % 5.25 C
3555 20-09-2010 02:00:00 9.84 C 74.0000 % 5.43 C
3556 20-09-2010 03:00:00 9.64 C 76.4000 % 5.7 C
3557 20-09-2010 04:00:00 8.98 C 78.2000 % 5.39 C
3558 20-09-2010 05:00:00 8.32 C 81.6000 % 5.36 C
3559 20-09-2010 06:00:00 8.48 C 82.4000 % 5.66 C
3560 20-09-2010 07:00:00 8.52 C 83.0000 % 5.8 C
3561 20-09-2010 08:00:00 9.18 C 77.0000 % 5.37 C
3562 20-09-2010 09:00:00 9.84 C 74.4000 % 5.51 C
3563 20-09-2010 10:00:00 12.4 C 66.0000 % 6.23 C
3564 20-09-2010 11:00:00 14.62 C 55.8000 % 5.9 C
3565 20-09-2010 12:00:00 16.26 C 45.8000 % 4.57 C
3566 20-09-2010 13:00:00 18.02 C 39.8000 % 4.16 C
3567 20-09-2010 14:00:00 20.02 C 33.6000 % 3.53 C
3568 20-09-2010 15:00:00 21.42 C 31.2000 % 3.7 C
3569 20-09-2010 16:00:00 22.46 C 31.2000 % 4.6 C
3570 20-09-2010 17:00:00 22.28 C 31.0000 % 4.35 C
3571 20-09-2010 18:00:00 21.3 C 35.8000 % 5.56 C
3572 20-09-2010 19:00:00 17.5 C 48.2000 % 6.44 C
3573 20-09-2010 20:00:00 15.34 C 57.6000 % 7.03 C
3574 20-09-2010 21:00:00 14.2 C 63.2000 % 7.31 C
3575 20-09-2010 22:00:00 13.22 C 70.2000 % 7.92 C
Sensor: Nr:Datum:Temp:Feuchte:Taupunkt:
Aussen-T/F 3576 20-09-2010 23:00:00 12.28 C 74.2000 % 7.83 C
3577 21-09-2010 00:00:00 11.52 C 76.2000 % 7.48 C
3578 21-09-2010 01:00:00 10.9 C 78.4000 % 7.3 C
3579 21-09-2010 02:00:00 10.24 C 80.6000 % 7.06 C
3580 21-09-2010 03:00:00 9.74 C 83.4000 % 7.07 C
3581 21-09-2010 04:00:00 9.22 C 84.0000 % 6.66 C
3582 21-09-2010 05:00:00 8.78 C 85.8000 % 6.54 C
3583 21-09-2010 06:00:00 8.34 C 87.2000 % 6.34 C
3584 21-09-2010 07:00:00 8.14 C 88.0000 % 6.28 C
3585 21-09-2010 08:00:00 8.26 C 89.6000 % 6.65 C
3586 21-09-2010 09:00:00 9.18 C 89.4000 % 7.53 C
3587 21-09-2010 10:00:00 11.12 C 86.4000 % 8.94 C
3588 21-09-2010 11:00:00 14.12 C 71.2000 % 8.99 C
3589 21-09-2010 12:00:00 16.14 C 65.4000 % 9.65 C
3590 21-09-2010 13:00:00 17.02 C 66.6000 % 10.76 C
3591 21-09-2010 14:00:00 17.82 C 62.4000 % 10.54 C
3592 21-09-2010 15:00:00 23.12 C 39.6000 % 8.64 C
3593 21-09-2010 16:00:00 25.16 C 32.8000 % 7.67 C
3594 21-09-2010 17:00:00 24.6 C 33.6000 % 7.53 C
3595 21-09-2010 18:00:00 22.18 C 40.2000 % 8.02 C
3596 21-09-2010 19:00:00 18.64 C 52.4000 % 8.71 C
3597 21-09-2010 20:00:00 16.3 C 61.4000 % 8.87 C
3598 21-09-2010 21:00:00 15.06 C 66.0000 % 8.76 C
3599 21-09-2010 22:00:00 13.9 C 71.0000 % 8.73 C
3600 21-09-2010 23:00:00 12.98 C 75.4000 % 8.74 C
Sensor: Nr:Datum:Temp:Feuchte:Taupunkt:
Aussen-T/F 3601 22-09-2010 00:00:00 12.2 C 79.2000 % 8.71 C
3602 22-09-2010 01:00:00 11.5 C 81.4000 % 8.43 C
3603 22-09-2010 02:00:00 10.78 C 82.6000 % 7.94 C
3604 22-09-2010 03:00:00 10.22 C 84.0000 % 7.64 C
3605 22-09-2010 04:00:00 9.72 C 86.0000 % 7.49 C
3606 22-09-2010 05:00:00 9.84 C 87.6000 % 7.88 C
3607 22-09-2010 06:00:00 9.78 C 88.0000 % 7.89 C
3608 22-09-2010 07:00:00 9.56 C 88.0000 % 7.67 C
3609 22-09-2010 08:00:00 9.36 C 88.2000 % 7.51 C
3610 22-09-2010 09:00:00 10.18 C 85.8000 % 7.91 C
3611 22-09-2010 10:00:00 12.42 C 79.0000 % 8.88 C
3612 22-09-2010 11:00:00 13.78 C 77.2000 % 9.86 C
3613 22-09-2010 12:00:00 16.54 C 70.8000 % 11.22 C
3614 22-09-2010 13:00:00 19.76 C 59.2000 % 11.58 C
3615 22-09-2010 14:00:00 22.86 C 49.4000 % 11.71 C
3616 22-09-2010 15:00:00 25.06 C 40.2000 % 10.6 C
3617 22-09-2010 16:00:00 27.32 C 32.8000 % 9.55 C
3618 22-09-2010 17:00:00 27.06 C 31.6000 % 8.77 C
3619 22-09-2010 18:00:00 24.88 C 39.8000 % 10.29 C
3620 22-09-2010 19:00:00 20.88 C 50.6000 % 10.26 C
3621 22-09-2010 20:00:00 18.54 C 57.4000 % 9.97 C
3622 22-09-2010 21:00:00 17.46 C 62.6000 % 10.25 C
3623 22-09-2010 22:00:00 16.18 C 67.2000 % 10.1 C
3624 22-09-2010 23:00:00 14.92 C 68.8000 % 9.25 C
3625 23-09-2010 00:00:00 14.02 C 71.6000 % 8.97 C
Sensor: Nr:Datum:Temp:Feuchte:Taupunkt:
Aussen-T/F 3626 23-09-2010 01:00:00 13.22 C 75.8000 % 9.05 C
3627 23-09-2010 02:00:00 12.44 C 79.4000 % 8.98 C
3628 23-09-2010 03:00:00 11.8 C 81.4000 % 8.72 C
3629 23-09-2010 04:00:00 11.16 C 83.0000 % 8.38 C
3630 23-09-2010 05:00:00 10.64 C 84.0000 % 8.05 C
3631 23-09-2010 06:00:00 10.46 C 84.8000 % 8.01 C
3632 23-09-2010 07:00:00 10.52 C 85.0000 % 8.11 C
3633 23-09-2010 08:00:00 10.88 C 84.8000 % 8.43 C
3634 23-09-2010 09:00:00 11.64 C 83.0000 % 8.85 C
3635 23-09-2010 10:00:00 12.98 C 81.6000 % 9.91 C
3636 23-09-2010 11:00:00 15.64 C 75.6000 % 11.35 C
3637 23-09-2010 12:00:00 18.66 C 66.4000 % 12.28 C
3638 23-09-2010 13:00:00 22.3 C 54.2000 % 12.6 C
3639 23-09-2010 14:00:00 24.06 C 46.8000 % 11.99 C
3640 23-09-2010 15:00:00 25.04 C 40.6000 % 10.73 C
3641 23-09-2010 16:00:00 25.14 C 42.6000 % 11.54 C
3642 23-09-2010 17:00:00 23.48 C 50.8000 % 12.71 C
3643 23-09-2010 18:00:00 22.12 C 54.4000 % 12.49 C
3644 23-09-2010 19:00:00 19.9 C 64.4000 % 12.99 C
3645 23-09-2010 20:00:00 18.5 C 71.4000 % 13.23 C
3646 23-09-2010 21:00:00 18.5 C 72.6000 % 13.49 C
3647 23-09-2010 22:00:00 17.94 C 77.2000 % 13.89 C
3648 23-09-2010 23:00:00 16.44 C 87.6000 % 14.38 C
3649 24-09-2010 00:00:00 15.7 C 91.0000 % 14.24 C
3650 24-09-2010 01:00:00 15.54 C 92.8000 % 14.38 C
Sensor: Nr:Datum:Temp:Feuchte:Taupunkt:
Aussen-T/F 3651 24-09-2010 02:00:00 15.38 C 92.6000 % 14.19 C
3652 24-09-2010 03:00:00 14.94 C 93.2000 % 13.85 C
3653 24-09-2010 04:00:00 14.78 C 94.0000 % 13.82 C
3654 24-09-2010 05:00:00 14.54 C 94.0000 % 13.59 C
3655 24-09-2010 06:00:00 14.7 C 94.0000 % 13.74 C
3656 24-09-2010 07:00:00 14.4 C 94.0000 % 13.45 C
3657 24-09-2010 08:00:00 14.58 C 94.6000 % 13.72 C
3658 24-09-2010 09:00:00 14.88 C 94.8000 % 14.05 C
3659 24-09-2010 10:00:00 14.98 C 94.2000 % 14.06 C
3660 24-09-2010 11:00:00 15.22 C 94.0000 % 14.26 C
3661 24-09-2010 12:00:00 15.14 C 94.2000 % 14.21 C
3662 24-09-2010 13:00:00 14.56 C 94.0000 % 13.61 C
3663 24-09-2010 14:00:00 13.54 C 94.0000 % 12.59 C
3664 24-09-2010 15:00:00 13.08 C 94.8000 % 12.27 C
3665 24-09-2010 16:00:00 13.8 C 95.0000 % 13.01 C
3666 24-09-2010 17:00:00 13.48 C 94.4000 % 12.6 C
3667 24-09-2010 18:00:00 13.26 C 94.0000 % 12.32 C
3668 24-09-2010 19:00:00 12.84 C 94.8000 % 12.03 C
3669 24-09-2010 20:00:00 12.7 C 95.0000 % 11.92 C
3670 24-09-2010 21:00:00 12.82 C 95.0000 % 12.04 C
3671 24-09-2010 22:00:00 12.7 C 95.0000 % 11.92 C
3672 24-09-2010 23:00:00 12.4 C 95.0000 % 11.62 C
3673 25-09-2010 00:00:00 12.48 C 95.0000 % 11.7 C
3674 25-09-2010 01:00:00 12.52 C 95.0000 % 11.74 C
3675 25-09-2010 02:00:00 12.6 C 95.0000 % 11.82 C
Sensor: Nr:Datum:Temp:Feuchte:Taupunkt:
Aussen-T/F 3676 25-09-2010 03:00:00 12.62 C 95.0000 % 11.84 C
3677 25-09-2010 04:00:00 12.54 C 95.0000 % 11.76 C
3678 25-09-2010 05:00:00 12.38 C 94.8000 % 11.57 C
3679 25-09-2010 06:00:00 12.06 C 94.0000 % 11.12 C
3680 25-09-2010 07:00:00 11.88 C 94.0000 % 10.95 C
3681 25-09-2010 08:00:00 11.26 C 93.4000 % 10.23 C
3682 25-09-2010 09:00:00 10.48 C 91.0000 % 9.08 C
3683 25-09-2010 10:00:00 11.04 C 82.2000 % 8.12 C
3684 25-09-2010 11:00:00 12.3 C 68.6000 % 6.7 C
3685 25-09-2010 12:00:00 12.44 C 63.0000 % 5.6 C
3686 25-09-2010 13:00:00 13.26 C 52.4000 % 3.74 C
3687 25-09-2010 14:00:00 14.24 C 43.8000 % 2.11 C
3688 25-09-2010 15:00:00 15.04 C 36.4000 % 0.26 C
3689 25-09-2010 16:00:00 14.72 C 39.4000 % 1.07 C
3690 25-09-2010 17:00:00 15.6 C 38.2000 % 1.42 C
3691 25-09-2010 18:00:00 14.22 C 41.4000 % 1.31 C
3692 25-09-2010 19:00:00 12.98 C 50.8000 % 3.04 C
3693 25-09-2010 20:00:00 11.7 C 56.2000 % 3.28 C
3694 25-09-2010 21:00:00 10.12 C 66.6000 % 4.19 C
3695 25-09-2010 22:00:00 10.28 C 69.8000 % 5.02 C
3696 25-09-2010 23:00:00 9.28 C 82.4000 % 6.44 C
3697 26-09-2010 00:00:00 9.44 C 85.6000 % 7.15 C
3698 26-09-2010 01:00:00 9.48 C 79.6000 % 6.14 C
3699 26-09-2010 02:00:00 9.42 C 77.8000 % 5.75 C
3700 26-09-2010 03:00:00 9.2 C 79.2000 % 5.79 C
Sensor: Nr:Datum:Temp:Feuchte:Taupunkt:
Aussen-T/F 3701 26-09-2010 04:00:00 8.88 C 83.2000 % 6.19 C
3702 26-09-2010 05:00:00 9.02 C 83.0000 % 6.29 C
3703 26-09-2010 06:00:00 8.9 C 84.2000 % 6.38 C
3704 26-09-2010 07:00:00 8.8 C 85.6000 % 6.52 C
3705 26-09-2010 08:00:00 9.62 C 79.6000 % 6.27 C
3706 26-09-2010 09:00:00 10.26 C 75.2000 % 6.07 C
3707 26-09-2010 10:00:00 11.84 C 64.0000 % 5.26 C
3708 26-09-2010 11:00:00 13.22 C 56.0000 % 4.64 C
3709 26-09-2010 12:00:00 14.48 C 51.4000 % 4.59 C
3710 26-09-2010 13:00:00 13 C 66.8000 % 6.98 C
3711 26-09-2010 14:00:00 13.3 C 71.8000 % 8.32 C
3712 26-09-2010 15:00:00 14.18 C 66.6000 % 8.06 C
3713 26-09-2010 16:00:00 14.92 C 55.2000 % 6.02 C
3714 26-09-2010 17:00:00 15.18 C 51.0000 % 5.12 C
3715 26-09-2010 18:00:00 12.96 C 61.4000 % 5.72 C
3716 26-09-2010 19:00:00 12.24 C 65.6000 % 5.99 C
3717 26-09-2010 20:00:00 11.78 C 68.6000 % 6.2 C
3718 26-09-2010 21:00:00 11.16 C 70.4000 % 5.98 C
3719 26-09-2010 22:00:00 9.7 C 76.6000 % 5.79 C
3720 26-09-2010 23:00:00 8.84 C 82.2000 % 5.98 C
3721 27-09-2010 00:00:00 8.12 C 84.8000 % 5.72 C
3722 27-09-2010 01:00:00 7.46 C 88.2000 % 5.64 C
3723 27-09-2010 02:00:00 6.84 C 89.4000 % 5.22 C
3724 27-09-2010 03:00:00 6.46 C 90.2000 % 4.97 C
3725 27-09-2010 04:00:00 6.24 C 92.2000 % 5.07 C
Sensor: Nr:Datum:Temp:Feuchte:Taupunkt:
Aussen-T/F 3726 27-09-2010 05:00:00 6.24 C 92.6000 % 5.13 C
3727 27-09-2010 06:00:00 6.32 C 93.0000 % 5.27 C
3728 27-09-2010 07:00:00 6.74 C 93.6000 % 5.78 C
3729 27-09-2010 08:00:00 7.7 C 93.8000 % 6.77 C
3730 27-09-2010 09:00:00 9.24 C 91.6000 % 7.95 C
3731 27-09-2010 10:00:00 10.76 C 76.8000 % 6.86 C
3732 27-09-2010 11:00:00 11.98 C 63.8000 % 5.35 C
3733 27-09-2010 12:00:00 12.78 C 61.0000 % 5.46 C
3734 27-09-2010 13:00:00 13.48 C 57.6000 % 5.29 C
3735 27-09-2010 14:00:00 13.26 C 57.8000 % 5.13 C
3736 27-09-2010 15:00:00 13.4 C 57.2000 % 5.12 C
3737 27-09-2010 16:00:00 13.38 C 62.0000 % 6.26 C
3738 27-09-2010 17:00:00 12.9 C 68.2000 % 7.19 C
3739 27-09-2010 18:00:00 11.94 C 72.8000 % 7.22 C
3740 27-09-2010 19:00:00 10.58 C 83.4000 % 7.89 C
3741 27-09-2010 20:00:00 10.3 C 87.6000 % 8.34 C
3742 27-09-2010 21:00:00 10.34 C 89.0000 % 8.61 C
3743 27-09-2010 22:00:00 10.3 C 89.7500 % 8.69 C
3744 27-09-2010 23:00:00 10.16 C 91.0000 % 8.76 C
3745 28-09-2010 00:00:00 10 C 92.4000 % 8.83 C
3746 28-09-2010 01:00:00 9.98 C 93.2000 % 8.93 C
3747 28-09-2010 02:00:00 9.9 C 94.0000 % 8.98 C
3748 28-09-2010 03:00:00 9.9 C 95.0000 % 9.14 C
3749 28-09-2010 04:00:00 9.92 C 94.8000 % 9.13 C
3750 28-09-2010 05:00:00 10 C 95.0000 % 9.24 C
Sensor: Nr:Datum:Temp:Feuchte:Taupunkt:
Aussen-T/F 3751 28-09-2010 06:00:00 10.08 C 95.0000 % 9.32 C
3752 28-09-2010 07:00:00 10 C 95.0000 % 9.24 C
3753 28-09-2010 08:00:00 10.04 C 95.0000 % 9.28 C
3754 28-09-2010 09:00:00 10.24 C 95.0000 % 9.48 C
3755 28-09-2010 10:00:00 10.58 C 95.0000 % 9.81 C
3756 28-09-2010 11:00:00 11.18 C 95.0000 % 10.41 C
3757 28-09-2010 12:00:00 11.48 C 94.2000 % 10.58 C
3758 28-09-2010 13:00:00 11.74 C 92.6000 % 10.58 C
3759 28-09-2010 14:00:00 11.76 C 92.0000 % 10.5 C
3760 28-09-2010 15:00:00 11.74 C 92.8000 % 10.61 C
3761 28-09-2010 16:00:00 11.84 C 93.4000 % 10.81 C
3762 28-09-2010 17:00:00 11.98 C 94.0000 % 11.05 C
3763 28-09-2010 18:00:00 11.86 C 94.6000 % 11.02 C
3764 28-09-2010 19:00:00 11.72 C 95.0000 % 10.95 C
3765 28-09-2010 20:00:00 11.6 C 95.0000 % 10.83 C
3766 28-09-2010 21:00:00 11.58 C 95.0000 % 10.81 C
3767 28-09-2010 22:00:00 11.62 C 95.0000 % 10.85 C
3768 28-09-2010 23:00:00 11.6 C 95.0000 % 10.83 C
3769 29-09-2010 00:00:00 11.64 C 95.0000 % 10.87 C
3770 29-09-2010 01:00:00 11.62 C 95.0000 % 10.85 C
3771 29-09-2010 02:00:00 11.56 C 95.0000 % 10.79 C
3772 29-09-2010 03:00:00 11.48 C 95.0000 % 10.71 C
3773 29-09-2010 04:00:00 11.48 C 95.0000 % 10.71 C
3774 29-09-2010 05:00:00 11.4 C 95.0000 % 10.63 C
3775 29-09-2010 06:00:00 11.52 C 95.0000 % 10.75 C
Sensor: Nr:Datum:Temp:Feuchte:Taupunkt:
Aussen-T/F 3776 29-09-2010 07:00:00 11.04 C 95.0000 % 10.27 C
3777 29-09-2010 08:00:00 11.18 C 95.0000 % 10.41 C
3778 29-09-2010 09:00:00 11.44 C 93.0000 % 10.35 C
3779 29-09-2010 10:00:00 12.92 C 79.6000 % 9.48 C
3780 29-09-2010 11:00:00 13.96 C 70.0000 % 8.58 C
3781 29-09-2010 12:00:00 14.4 C 65.0000 % 7.91 C
3782 29-09-2010 13:00:00 15.74 C 58.8000 % 7.71 C
3783 29-09-2010 14:00:00 16.82 C 53.4000 % 7.3 C
3784 29-09-2010 15:00:00 19.16 C 41.8000 % 5.88 C
3785 29-09-2010 16:00:00 18.14 C 49.2000 % 7.32 C
3786 29-09-2010 17:00:00 18.3 C 48.2000 % 7.17 C
3787 29-09-2010 18:00:00 14.62 C 62.6000 % 7.57 C
3788 29-09-2010 19:00:00 13.08 C 67.4000 % 7.19 C
3789 29-09-2010 20:00:00 13.12 C 67.4000 % 7.22 C
3790 29-09-2010 21:00:00 12.5 C 72.2000 % 7.64 C
3791 29-09-2010 22:00:00 12.38 C 76.6000 % 8.39 C
3792 29-09-2010 23:00:00 11.96 C 78.4000 % 8.32 C
3793 30-09-2010 00:00:00 12.16 C 78.4000 % 8.52 C
3794 30-09-2010 01:00:00 11.86 C 73.4000 % 7.26 C
3795 30-09-2010 02:00:00 11.46 C 74.0000 % 6.99 C
3796 30-09-2010 03:00:00 11.16 C 77.8000 % 7.44 C